<?xml version='1.0' encoding='UTF-8'?><gpx version="1.1" creator="JPX - https://github.com/jenetics/jpx" xmlns="http://www.topografix.com/GPX/1/1"><trk><trkseg><trkpt lat="44.1418681" lon="11.2659552"><ele>1045.0</ele><time>2026-03-28T10:57:52.889Z</time></trkpt><trkpt lat="44.1418605" lon="11.2657876"><ele>1045.0</ele><time>2026-03-28T10:57:53.889Z</time></trkpt><trkpt lat="44.1418481" lon="11.2656122"><ele>1045.0</ele><time>2026-03-28T10:57:54.889Z</time></trkpt><trkpt lat="44.1418546" lon="11.2654098"><ele>1045.0</ele><time>2026-03-28T10:57:55.888Z</time></trkpt><trkpt lat="44.1418459" lon="11.2651477"><ele>1040.0</ele><time>2026-03-28T10:57:56.888Z</time></trkpt><trkpt lat="44.1418188" lon="11.2648764"><ele>1035.0</ele><time>2026-03-28T10:57:57.888Z</time></trkpt><trkpt lat="44.1417437" lon="11.2650281"><ele>1030.0</ele><time>2026-03-28T10:57:59.889Z</time></trkpt><trkpt lat="44.1417093" lon="11.2651526"><ele>1025.0</ele><time>2026-03-28T10:58:00.889Z</time></trkpt><trkpt lat="44.1416379" lon="11.2654595"><ele>1025.0</ele><time>2026-03-28T10:58:01.889Z</time></trkpt><trkpt lat="44.1416691" lon="11.2655709"><ele>1025.0</ele><time>2026-03-28T10:58:02.892Z</time></trkpt><trkpt lat="44.141733" lon="11.2657038"><ele>1025.0</ele><time>2026-03-28T10:58:03.895Z</time></trkpt><trkpt lat="44.1417965" lon="11.2658028"><ele>1025.0</ele><time>2026-03-28T10:58:04.897Z</time></trkpt><trkpt lat="44.1418499" lon="11.2658766"><ele>1025.0</ele><time>2026-03-28T10:58:05.9Z</time></trkpt><trkpt lat="44.1418975" lon="11.2660033"><ele>1029.0</ele><time>2026-03-28T10:58:06.902Z</time></trkpt><trkpt lat="44.1419505" lon="11.2662194"><ele>1033.0</ele><time>2026-03-28T10:58:07.905Z</time></trkpt><trkpt lat="44.1419911" lon="11.266345"><ele>1037.0</ele><time>2026-03-28T10:58:09.91Z</time></trkpt><trkpt lat="44.1420193" lon="11.266449"><ele>1041.0</ele><time>2026-03-28T10:58:11.915Z</time></trkpt><trkpt lat="44.1420049" lon="11.2663625"><ele>1045.0</ele><time>2026-03-28T10:58:30.963Z</time></trkpt><trkpt lat="44.1419475" lon="11.2662318"><ele>1045.0</ele><time>2026-03-28T10:58:34.889Z</time></trkpt><trkpt lat="44.1420204" lon="11.2662319"><ele>1045.0</ele><time>2026-03-28T10:59:08.958Z</time></trkpt><trkpt lat="44.1419585" lon="11.2662128"><ele>1045.0</ele><time>2026-03-28T10:59:33.92Z</time></trkpt><trkpt lat="44.1418923" lon="11.2662446"><ele>1045.0</ele><time>2026-03-28T10:59:38.932Z</time></trkpt><trkpt lat="44.1420087" lon="11.2662023"><ele>1045.0</ele><time>2026-03-28T10:59:58.888Z</time></trkpt><trkpt lat="44.1419429" lon="11.2661773"><ele>1045.0</ele><time>2026-03-28T11:01:02.939Z</time></trkpt><trkpt lat="44.1420012" lon="11.2662167"><ele>1045.0</ele><time>2026-03-28T11:01:46.945Z</time></trkpt><trkpt lat="44.1420296" lon="11.2662961"><ele>1045.0</ele><time>2026-03-28T11:01:55.967Z</time></trkpt><trkpt lat="44.1420028" lon="11.2663768"><ele>1045.0</ele><time>2026-03-28T11:02:04.989Z</time></trkpt><trkpt lat="44.1419501" lon="11.266426"><ele>1045.0</ele><time>2026-03-28T11:02:11.002Z</time></trkpt><trkpt lat="44.1419274" lon="11.2665104"><ele>1045.0</ele><time>2026-03-28T11:02:19.924Z</time></trkpt><trkpt lat="44.1418911" lon="11.2665847"><ele>1045.0</ele><time>2026-03-28T11:02:26.923Z</time></trkpt><trkpt lat="44.141825" lon="11.2666037"><ele>1045.0</ele><time>2026-03-28T11:02:41.84Z</time></trkpt><trkpt lat="44.1417605" lon="11.2666284"><ele>1044.2857142857142</ele><time>2026-03-28T11:02:47.992Z</time></trkpt><trkpt lat="44.1416976" lon="11.2666623"><ele>1043.5714285714284</ele><time>2026-03-28T11:02:54.908Z</time></trkpt><trkpt lat="44.1416351" lon="11.2667012"><ele>1042.857142857143</ele><time>2026-03-28T11:03:02.944Z</time></trkpt><trkpt lat="44.1415973" lon="11.266776"><ele>1042.142857142857</ele><time>2026-03-28T11:03:07.943Z</time></trkpt><trkpt lat="44.141579" lon="11.2668658"><ele>1041.4285714285716</ele><time>2026-03-28T11:03:16.961Z</time></trkpt><trkpt lat="44.1415805" lon="11.2669551"><ele>1040.7142857142858</ele><time>2026-03-28T11:03:25.981Z</time></trkpt><trkpt lat="44.1415608" lon="11.2670412"><ele>1040.0</ele><time>2026-03-28T11:03:37.008Z</time></trkpt><trkpt lat="44.141507" lon="11.2670963"><ele>1040.0000000000002</ele><time>2026-03-28T11:03:51.446Z</time></trkpt><trkpt lat="44.1414806" lon="11.26719"><ele>1040.0</ele><time>2026-03-28T11:03:58.96Z</time></trkpt><trkpt lat="44.1414411" lon="11.2672595"><ele>1040.0</ele><time>2026-03-28T11:04:15.9Z</time></trkpt><trkpt lat="44.1413838" lon="11.2673009"><ele>1040.0</ele><time>2026-03-28T11:04:25.924Z</time></trkpt><trkpt lat="44.141317" lon="11.2672744"><ele>1040.0</ele><time>2026-03-28T11:04:31.938Z</time></trkpt><trkpt lat="44.1412572" lon="11.2672469"><ele>1040.0000000000002</ele><time>2026-03-28T11:04:36.943Z</time></trkpt><trkpt lat="44.1411888" lon="11.2672609"><ele>1040.0</ele><time>2026-03-28T11:04:43.966Z</time></trkpt><trkpt lat="44.1411469" lon="11.267334"><ele>1040.1428571428573</ele><time>2026-03-28T11:04:50.983Z</time></trkpt><trkpt lat="44.1411168" lon="11.2674187"><ele>1040.2857142857142</ele><time>2026-03-28T11:04:57.899Z</time></trkpt><trkpt lat="44.1410776" lon="11.2674967"><ele>1040.4285714285716</ele><time>2026-03-28T11:05:05.016Z</time></trkpt><trkpt lat="44.1410278" lon="11.2675508"><ele>1040.5714285714287</ele><time>2026-03-28T11:05:13.94Z</time></trkpt><trkpt lat="44.140976" lon="11.2676088"><ele>1040.7142857142858</ele><time>2026-03-28T11:05:23.961Z</time></trkpt><trkpt lat="44.140944" lon="11.267692"><ele>1040.857142857143</ele><time>2026-03-28T11:05:33.025Z</time></trkpt><trkpt lat="44.1409572" lon="11.2677799"><ele>1041.0</ele><time>2026-03-28T11:05:38.996Z</time></trkpt><trkpt lat="44.1409779" lon="11.2678731"><ele>1041.0</ele><time>2026-03-28T11:05:47.014Z</time></trkpt><trkpt lat="44.140941" lon="11.2679537"><ele>1041.0</ele><time>2026-03-28T11:05:54.044Z</time></trkpt><trkpt lat="44.1408958" lon="11.2680162"><ele>1041.0</ele><time>2026-03-28T11:06:00.947Z</time></trkpt><trkpt lat="44.1408541" lon="11.2680867"><ele>1041.0</ele><time>2026-03-28T11:06:09.968Z</time></trkpt><trkpt lat="44.1408228" lon="11.2681636"><ele>1041.0</ele><time>2026-03-28T11:06:16.983Z</time></trkpt><trkpt lat="44.1408305" lon="11.2682533"><ele>1041.0</ele><time>2026-03-28T11:06:29.012Z</time></trkpt><trkpt lat="44.1408255" lon="11.2683426"><ele>1041.0</ele><time>2026-03-28T11:06:39.938Z</time></trkpt><trkpt lat="44.1408265" lon="11.2684398"><ele>1041.142857142857</ele><time>2026-03-28T11:06:48.959Z</time></trkpt><trkpt lat="44.1408381" lon="11.2685274"><ele>1041.2857142857144</ele><time>2026-03-28T11:06:55.974Z</time></trkpt><trkpt lat="44.1408513" lon="11.2686151"><ele>1041.4285714285716</ele><time>2026-03-28T11:07:06.002Z</time></trkpt><trkpt lat="44.1408162" lon="11.2687005"><ele>1041.5714285714287</ele><time>2026-03-28T11:07:14.017Z</time></trkpt><trkpt lat="44.1407841" lon="11.2687856"><ele>1041.7142857142858</ele><time>2026-03-28T11:07:20.933Z</time></trkpt><trkpt lat="44.1407732" lon="11.2688727"><ele>1041.857142857143</ele><time>2026-03-28T11:07:27.948Z</time></trkpt><trkpt lat="44.1407789" lon="11.2689663"><ele>1042.0</ele><time>2026-03-28T11:07:35.967Z</time></trkpt><trkpt lat="44.140808" lon="11.2690516"><ele>1042.5714285714284</ele><time>2026-03-28T11:07:44.989Z</time></trkpt><trkpt lat="44.140847" lon="11.2691329"><ele>1043.142857142857</ele><time>2026-03-28T11:07:54.008Z</time></trkpt><trkpt lat="44.1408645" lon="11.2692217"><ele>1043.7142857142858</ele><time>2026-03-28T11:08:02.946Z</time></trkpt><trkpt lat="44.1408967" lon="11.2693014"><ele>1044.2857142857142</ele><time>2026-03-28T11:08:09.946Z</time></trkpt><trkpt lat="44.1409124" lon="11.2693887"><ele>1044.857142857143</ele><time>2026-03-28T11:08:21.974Z</time></trkpt><trkpt lat="44.1409325" lon="11.2694754"><ele>1045.4285714285713</ele><time>2026-03-28T11:08:27.988Z</time></trkpt><trkpt lat="44.1409379" lon="11.2695726"><ele>1046.0</ele><time>2026-03-28T11:08:38.004Z</time></trkpt><trkpt lat="44.1408987" lon="11.2696414"><ele>1045.9999999999998</ele><time>2026-03-28T11:08:43.925Z</time></trkpt><trkpt lat="44.140853" lon="11.2697119"><ele>1046.0</ele><time>2026-03-28T11:08:52.928Z</time></trkpt><trkpt lat="44.1408053" lon="11.2697865"><ele>1046.0</ele><time>2026-03-28T11:09:01.064Z</time></trkpt><trkpt lat="44.1407442" lon="11.2697521"><ele>1046.0</ele><time>2026-03-28T11:09:09.985Z</time></trkpt><trkpt lat="44.1406794" lon="11.2697487"><ele>1046.0</ele><time>2026-03-28T11:09:20.007Z</time></trkpt><trkpt lat="44.1406143" lon="11.2697626"><ele>1045.9999999999998</ele><time>2026-03-28T11:09:30.031Z</time></trkpt><trkpt lat="44.1405535" lon="11.269796"><ele>1046.0</ele><time>2026-03-28T11:09:37.983Z</time></trkpt><trkpt lat="44.1404945" lon="11.2698418"><ele>1041.7142857142856</ele><time>2026-03-28T11:09:47.904Z</time></trkpt><trkpt lat="44.140431" lon="11.2698682"><ele>1037.4285714285713</ele><time>2026-03-28T11:09:58.997Z</time></trkpt><trkpt lat="44.140366" lon="11.2699105"><ele>1033.142857142857</ele><time>2026-03-28T11:10:07.841Z</time></trkpt><trkpt lat="44.1403003" lon="11.2699503"><ele>1028.8571428571427</ele><time>2026-03-28T11:10:13.932Z</time></trkpt><trkpt lat="44.1402616" lon="11.2700241"><ele>1024.5714285714284</ele><time>2026-03-28T11:10:29.041Z</time></trkpt><trkpt lat="44.1402862" lon="11.2701049"><ele>1020.2857142857143</ele><time>2026-03-28T11:10:40.828Z</time></trkpt><trkpt lat="44.140357" lon="11.2701208"><ele>1016.0</ele><time>2026-03-28T11:10:52.922Z</time></trkpt><trkpt lat="44.1404171" lon="11.2701739"><ele>1016.0</ele><time>2026-03-28T11:10:59.938Z</time></trkpt><trkpt lat="44.1404729" lon="11.2702388"><ele>1016.0</ele><time>2026-03-28T11:11:06.968Z</time></trkpt><trkpt lat="44.1404809" lon="11.2703368"><ele>1016.0</ele><time>2026-03-28T11:11:11.898Z</time></trkpt><trkpt lat="44.1404478" lon="11.2704258"><ele>1016.0</ele><time>2026-03-28T11:11:18.982Z</time></trkpt><trkpt lat="44.140388" lon="11.2704801"><ele>1016.0</ele><time>2026-03-28T11:11:28.003Z</time></trkpt><trkpt lat="44.140332" lon="11.2705294"><ele>1016.0</ele><time>2026-03-28T11:11:37.925Z</time></trkpt><trkpt lat="44.1402839" lon="11.2705991"><ele>1016.0</ele><time>2026-03-28T11:11:48.049Z</time></trkpt><trkpt lat="44.1402216" lon="11.2706509"><ele>1015.5714285714287</ele><time>2026-03-28T11:11:53.962Z</time></trkpt><trkpt lat="44.1401543" lon="11.2706803"><ele>1015.1428571428571</ele><time>2026-03-28T11:12:02.983Z</time></trkpt><trkpt lat="44.1401051" lon="11.2707446"><ele>1014.7142857142858</ele><time>2026-03-28T11:12:11.001Z</time></trkpt><trkpt lat="44.1400581" lon="11.2708078"><ele>1014.2857142857143</ele><time>2026-03-28T11:12:18.04Z</time></trkpt><trkpt lat="44.1400161" lon="11.2708781"><ele>1013.8571428571429</ele><time>2026-03-28T11:12:24.832Z</time></trkpt><trkpt lat="44.1400006" lon="11.2709726"><ele>1013.4285714285714</ele><time>2026-03-28T11:12:30.918Z</time></trkpt><trkpt lat="44.139972" lon="11.2710605"><ele>1013.0</ele><time>2026-03-28T11:12:37.962Z</time></trkpt><trkpt lat="44.139956" lon="11.2711458"><ele>1013.0</ele><time>2026-03-28T11:12:45.98Z</time></trkpt><trkpt lat="44.1399401" lon="11.2712443"><ele>1013.0000000000001</ele><time>2026-03-28T11:12:54.021Z</time></trkpt><trkpt lat="44.1399" lon="11.2713232"><ele>1013.0</ele><time>2026-03-28T11:13:01.015Z</time></trkpt><trkpt lat="44.1398556" lon="11.2713952"><ele>1013.0</ele><time>2026-03-28T11:13:09.935Z</time></trkpt><trkpt lat="44.1398226" lon="11.2714813"><ele>1013.0000000000001</ele><time>2026-03-28T11:13:18.955Z</time></trkpt><trkpt lat="44.139761" lon="11.2715028"><ele>1013.0</ele><time>2026-03-28T11:13:28.977Z</time></trkpt><trkpt lat="44.1396996" lon="11.2715425"><ele>1013.0</ele><time>2026-03-28T11:13:35.994Z</time></trkpt><trkpt lat="44.1396397" lon="11.2715868"><ele>1013.5714285714287</ele><time>2026-03-28T11:13:43.01Z</time></trkpt><trkpt lat="44.1395916" lon="11.2716483"><ele>1014.1428571428572</ele><time>2026-03-28T11:13:46.918Z</time></trkpt><trkpt lat="44.139538" lon="11.2717027"><ele>1014.7142857142858</ele><time>2026-03-28T11:13:51.93Z</time></trkpt><trkpt lat="44.1394752" lon="11.2717345"><ele>1015.2857142857142</ele><time>2026-03-28T11:14:06.806Z</time></trkpt><trkpt lat="44.1395035" lon="11.2718159"><ele>1015.8571428571428</ele><time>2026-03-28T11:14:16.986Z</time></trkpt><trkpt lat="44.1395489" lon="11.2718819"><ele>1016.4285714285713</ele><time>2026-03-28T11:14:29.013Z</time></trkpt><trkpt lat="44.1395757" lon="11.2719661"><ele>1017.0</ele><time>2026-03-28T11:14:42.944Z</time></trkpt><trkpt lat="44.1395697" lon="11.2720608"><ele>1017.0</ele><time>2026-03-28T11:14:55.974Z</time></trkpt><trkpt lat="44.1395845" lon="11.272148"><ele>1016.9999999999999</ele><time>2026-03-28T11:15:09.004Z</time></trkpt><trkpt lat="44.1396151" lon="11.2722302"><ele>1017.0</ele><time>2026-03-28T11:15:20.931Z</time></trkpt><trkpt lat="44.139592" lon="11.2723214"><ele>1017.0</ele><time>2026-03-28T11:15:28.949Z</time></trkpt><trkpt lat="44.1395483" lon="11.272398"><ele>1016.9999999999999</ele><time>2026-03-28T11:15:35.963Z</time></trkpt><trkpt lat="44.1395326" lon="11.272498"><ele>1017.0</ele><time>2026-03-28T11:15:43.982Z</time></trkpt><trkpt lat="44.1395215" lon="11.27259"><ele>1017.0</ele><time>2026-03-28T11:15:48.994Z</time></trkpt><trkpt lat="44.1395054" lon="11.2726753"><ele>1019.5714285714286</ele><time>2026-03-28T11:15:56.009Z</time></trkpt><trkpt lat="44.1395009" lon="11.2727705"><ele>1022.1428571428571</ele><time>2026-03-28T11:16:05.886Z</time></trkpt><trkpt lat="44.1395026" lon="11.2728656"><ele>1024.7142857142858</ele><time>2026-03-28T11:16:14.953Z</time></trkpt><trkpt lat="44.1394686" lon="11.2729427"><ele>1027.2857142857142</ele><time>2026-03-28T11:16:27.882Z</time></trkpt><trkpt lat="44.13943" lon="11.2730123"><ele>1029.857142857143</ele><time>2026-03-28T11:16:38.004Z</time></trkpt><trkpt lat="44.1394069" lon="11.2730973"><ele>1032.4285714285713</ele><time>2026-03-28T11:16:52.937Z</time></trkpt><trkpt lat="44.1394137" lon="11.27319"><ele>1035.0</ele><time>2026-03-28T11:17:02.959Z</time></trkpt><trkpt lat="44.1394603" lon="11.2732684"><ele>1035.2857142857142</ele><time>2026-03-28T11:17:07.971Z</time></trkpt><trkpt lat="44.1394813" lon="11.2733618"><ele>1035.5714285714287</ele><time>2026-03-28T11:17:16.023Z</time></trkpt><trkpt lat="44.1394549" lon="11.2734483"><ele>1035.857142857143</ele><time>2026-03-28T11:17:24.901Z</time></trkpt><trkpt lat="44.1394487" lon="11.2735363"><ele>1036.142857142857</ele><time>2026-03-28T11:17:32.96Z</time></trkpt><trkpt lat="44.1393927" lon="11.2735841"><ele>1036.4285714285713</ele><time>2026-03-28T11:17:40.988Z</time></trkpt><trkpt lat="44.1393304" lon="11.2736112"><ele>1036.7142857142858</ele><time>2026-03-28T11:18:08.005Z</time></trkpt><trkpt lat="44.1392899" lon="11.2736822"><ele>1037.0</ele><time>2026-03-28T11:18:18.027Z</time></trkpt><trkpt lat="44.1392654" lon="11.2737645"><ele>1037.0</ele><time>2026-03-28T11:18:32.86Z</time></trkpt><trkpt lat="44.139244" lon="11.2738525"><ele>1037.0</ele><time>2026-03-28T11:18:45.92Z</time></trkpt><trkpt lat="44.1391975" lon="11.2739148"><ele>1037.0</ele><time>2026-03-28T11:18:55.044Z</time></trkpt><trkpt lat="44.1391775" lon="11.2740002"><ele>1037.0</ele><time>2026-03-28T11:19:05.834Z</time></trkpt><trkpt lat="44.1391531" lon="11.2740866"><ele>1037.0</ele><time>2026-03-28T11:19:20.299Z</time></trkpt><trkpt lat="44.1391398" lon="11.2741824"><ele>1037.0</ele><time>2026-03-28T11:19:36.001Z</time></trkpt><trkpt lat="44.1390853" lon="11.2742705"><ele>1037.0</ele><time>2026-03-28T11:20:01.958Z</time></trkpt><trkpt lat="44.1390553" lon="11.2743499"><ele>1039.4285714285716</ele><time>2026-03-28T11:20:08.072Z</time></trkpt><trkpt lat="44.1390035" lon="11.2744136"><ele>1041.857142857143</ele><time>2026-03-28T11:20:18.996Z</time></trkpt><trkpt lat="44.138989" lon="11.2745025"><ele>1044.2857142857142</ele><time>2026-03-28T11:20:28.02Z</time></trkpt><trkpt lat="44.1389836" lon="11.2745955"><ele>1046.7142857142858</ele><time>2026-03-28T11:20:35.85Z</time></trkpt><trkpt lat="44.138933" lon="11.2746544"><ele>1049.142857142857</ele><time>2026-03-28T11:20:58.985Z</time></trkpt><trkpt lat="44.1389264" lon="11.2747474"><ele>1051.5714285714287</ele><time>2026-03-28T11:21:28.952Z</time></trkpt><trkpt lat="44.1388866" lon="11.2748187"><ele>1054.0</ele><time>2026-03-28T11:21:36.97Z</time></trkpt><trkpt lat="44.1388257" lon="11.2748518"><ele>1055.0000000000002</ele><time>2026-03-28T11:21:44.987Z</time></trkpt><trkpt lat="44.1388046" lon="11.2749376"><ele>1056.0</ele><time>2026-03-28T11:21:51.826Z</time></trkpt><trkpt lat="44.1388061" lon="11.2750279"><ele>1057.0</ele><time>2026-03-28T11:22:03.903Z</time></trkpt><trkpt lat="44.1387474" lon="11.2750871"><ele>1058.0</ele><time>2026-03-28T11:22:38.008Z</time></trkpt><trkpt lat="44.138683" lon="11.2751135"><ele>1059.0</ele><time>2026-03-28T11:22:46.925Z</time></trkpt><trkpt lat="44.1386202" lon="11.2750724"><ele>1060.0000000000002</ele><time>2026-03-28T11:22:54.944Z</time></trkpt><trkpt lat="44.1386081" lon="11.274983"><ele>1061.0</ele><time>2026-03-28T11:23:05.968Z</time></trkpt><trkpt lat="44.138541" lon="11.2750055"><ele>1061.0000000000002</ele><time>2026-03-28T11:23:16.993Z</time></trkpt><trkpt lat="44.1384747" lon="11.2750062"><ele>1061.0</ele><time>2026-03-28T11:23:26.012Z</time></trkpt><trkpt lat="44.1384121" lon="11.2749751"><ele>1061.0</ele><time>2026-03-28T11:23:33.931Z</time></trkpt><trkpt lat="44.138353" lon="11.27492"><ele>1061.0</ele><time>2026-03-28T11:23:48.964Z</time></trkpt><trkpt lat="44.1383026" lon="11.2748523"><ele>1061.0</ele><time>2026-03-28T11:24:00.991Z</time></trkpt><trkpt lat="44.1382735" lon="11.2747697"><ele>1061.0000000000002</ele><time>2026-03-28T11:24:11.915Z</time></trkpt><trkpt lat="44.1382419" lon="11.274684"><ele>1061.0</ele><time>2026-03-28T11:24:18.931Z</time></trkpt><trkpt lat="44.1382223" lon="11.2745863"><ele>1062.7142857142858</ele><time>2026-03-28T11:24:22.94Z</time></trkpt><trkpt lat="44.1381699" lon="11.2745306"><ele>1064.4285714285716</ele><time>2026-03-28T11:24:37.973Z</time></trkpt><trkpt lat="44.1381066" lon="11.2745007"><ele>1066.142857142857</ele><time>2026-03-28T11:24:50Z</time></trkpt><trkpt lat="44.1380697" lon="11.2743963"><ele>1067.857142857143</ele><time>2026-03-28T11:24:52.892Z</time></trkpt><trkpt lat="44.138059" lon="11.274304"><ele>1069.5714285714284</ele><time>2026-03-28T11:25:11.016Z</time></trkpt><trkpt lat="44.1380557" lon="11.2742079"><ele>1071.2857142857142</ele><time>2026-03-28T11:25:18.933Z</time></trkpt><trkpt lat="44.1380633" lon="11.2741181"><ele>1073.0</ele><time>2026-03-28T11:25:30.96Z</time></trkpt><trkpt lat="44.1380578" lon="11.2740181"><ele>1070.857142857143</ele><time>2026-03-28T11:25:40.055Z</time></trkpt><trkpt lat="44.1380559" lon="11.2739216"><ele>1068.7142857142856</ele><time>2026-03-28T11:25:46.996Z</time></trkpt><trkpt lat="44.1380414" lon="11.2738241"><ele>1066.5714285714284</ele><time>2026-03-28T11:25:56.016Z</time></trkpt><trkpt lat="44.1379913" lon="11.2737667"><ele>1064.4285714285713</ele><time>2026-03-28T11:26:03.031Z</time></trkpt><trkpt lat="44.137989" lon="11.2736778"><ele>1062.2857142857142</ele><time>2026-03-28T11:26:13.956Z</time></trkpt><trkpt lat="44.1379315" lon="11.2736363"><ele>1060.142857142857</ele><time>2026-03-28T11:26:23.978Z</time></trkpt><trkpt lat="44.1378776" lon="11.2736935"><ele>1058.0</ele><time>2026-03-28T11:26:38.009Z</time></trkpt><trkpt lat="44.1378082" lon="11.2737117"><ele>1058.0</ele><time>2026-03-28T11:26:44.957Z</time></trkpt><trkpt lat="44.1377427" lon="11.2737019"><ele>1058.0</ele><time>2026-03-28T11:26:56.95Z</time></trkpt><trkpt lat="44.1376915" lon="11.2736374"><ele>1058.0</ele><time>2026-03-28T11:27:05.97Z</time></trkpt><trkpt lat="44.1376448" lon="11.2735678"><ele>1058.0</ele><time>2026-03-28T11:27:20.002Z</time></trkpt><trkpt lat="44.1375912" lon="11.2735189"><ele>1058.0</ele><time>2026-03-28T11:27:28.895Z</time></trkpt><trkpt lat="44.1375265" lon="11.2735339"><ele>1058.0</ele><time>2026-03-28T11:27:40.439Z</time></trkpt><trkpt lat="44.1374642" lon="11.2735616"><ele>1058.0</ele><time>2026-03-28T11:27:49.968Z</time></trkpt><trkpt lat="44.1374006" lon="11.2735592"><ele>1060.4285714285716</ele><time>2026-03-28T11:27:56.959Z</time></trkpt><trkpt lat="44.1373339" lon="11.2735325"><ele>1062.857142857143</ele><time>2026-03-28T11:28:20.937Z</time></trkpt><trkpt lat="44.1372845" lon="11.2734768"><ele>1065.2857142857142</ele><time>2026-03-28T11:28:26.95Z</time></trkpt><trkpt lat="44.1372278" lon="11.2734356"><ele>1067.7142857142858</ele><time>2026-03-28T11:28:35.97Z</time></trkpt><trkpt lat="44.1371719" lon="11.2733899"><ele>1070.142857142857</ele><time>2026-03-28T11:28:44.893Z</time></trkpt><trkpt lat="44.1371129" lon="11.2733557"><ele>1072.5714285714287</ele><time>2026-03-28T11:29:00.023Z</time></trkpt><trkpt lat="44.1370441" lon="11.2733495"><ele>1075.0</ele><time>2026-03-28T11:29:11.048Z</time></trkpt><trkpt lat="44.1369766" lon="11.2733256"><ele>1075.0000000000002</ele><time>2026-03-28T11:29:21.971Z</time></trkpt><trkpt lat="44.1369521" lon="11.2732396"><ele>1075.0</ele><time>2026-03-28T11:29:30.935Z</time></trkpt><trkpt lat="44.1368867" lon="11.2732205"><ele>1075.0</ele><time>2026-03-28T11:29:38.913Z</time></trkpt><trkpt lat="44.1368221" lon="11.2731944"><ele>1075.0</ele><time>2026-03-28T11:29:50.936Z</time></trkpt><trkpt lat="44.1367526" lon="11.2731931"><ele>1075.0</ele><time>2026-03-28T11:30:01.961Z</time></trkpt><trkpt lat="44.136689" lon="11.2731747"><ele>1075.0000000000002</ele><time>2026-03-28T11:30:25.012Z</time></trkpt><trkpt lat="44.1366239" lon="11.2731548"><ele>1075.0</ele><time>2026-03-28T11:30:43.956Z</time></trkpt><trkpt lat="44.1365603" lon="11.2731348"><ele>1072.7142857142858</ele><time>2026-03-28T11:30:52.974Z</time></trkpt><trkpt lat="44.1365257" lon="11.2730611"><ele>1070.4285714285716</ele><time>2026-03-28T11:30:59.972Z</time></trkpt><trkpt lat="44.1364734" lon="11.2730021"><ele>1068.142857142857</ele><time>2026-03-28T11:31:08.007Z</time></trkpt><trkpt lat="44.1364193" lon="11.2729507"><ele>1065.857142857143</ele><time>2026-03-28T11:31:22.894Z</time></trkpt><trkpt lat="44.1363587" lon="11.2729132"><ele>1063.5714285714284</ele><time>2026-03-28T11:31:34.967Z</time></trkpt><trkpt lat="44.136287" lon="11.2729316"><ele>1061.2857142857142</ele><time>2026-03-28T11:31:45.99Z</time></trkpt><trkpt lat="44.1362426" lon="11.2730024"><ele>1059.0</ele><time>2026-03-28T11:32:02.851Z</time></trkpt><trkpt lat="44.1361857" lon="11.2730416"><ele>1059.0</ele><time>2026-03-28T11:32:10.779Z</time></trkpt><trkpt lat="44.136121" lon="11.2730649"><ele>1059.0</ele><time>2026-03-28T11:32:16.939Z</time></trkpt><trkpt lat="44.1360642" lon="11.2731142"><ele>1059.0</ele><time>2026-03-28T11:32:46.908Z</time></trkpt><trkpt lat="44.1359998" lon="11.2730817"><ele>1059.0</ele><time>2026-03-28T11:32:49.645Z</time></trkpt><trkpt lat="44.1359532" lon="11.2730204"><ele>1059.0</ele><time>2026-03-28T11:32:59.938Z</time></trkpt><trkpt lat="44.1358857" lon="11.2730371"><ele>1059.0</ele><time>2026-03-28T11:33:06.955Z</time></trkpt><trkpt lat="44.1358185" lon="11.2730428"><ele>1059.0</ele><time>2026-03-28T11:33:08.959Z</time></trkpt><trkpt lat="44.1357557" lon="11.2730305"><ele>1059.0</ele><time>2026-03-28T11:33:16.978Z</time></trkpt><trkpt lat="44.1358202" lon="11.2730607"><ele>1059.0</ele><time>2026-03-28T11:33:32.99Z</time></trkpt><trkpt lat="44.135942" lon="11.2730608"><ele>1059.0</ele><time>2026-03-28T11:34:06.895Z</time></trkpt><trkpt lat="44.1360001" lon="11.2731256"><ele>1059.0</ele><time>2026-03-28T11:34:10.905Z</time></trkpt><trkpt lat="44.1359321" lon="11.2731432"><ele>1059.0</ele><time>2026-03-28T11:34:31.955Z</time></trkpt><trkpt lat="44.1359342" lon="11.2732596"><ele>1059.0</ele><time>2026-03-28T11:34:50.9Z</time></trkpt><trkpt lat="44.1358536" lon="11.2732718"><ele>1062.4285714285713</ele><time>2026-03-28T11:34:54.91Z</time></trkpt><trkpt lat="44.1358743" lon="11.2733654"><ele>1065.8571428571427</ele><time>2026-03-28T11:35:50.941Z</time></trkpt><trkpt lat="44.1359214" lon="11.2734339"><ele>1069.2857142857142</ele><time>2026-03-28T11:36:11.933Z</time></trkpt><trkpt lat="44.1359899" lon="11.2734262"><ele>1072.7142857142858</ele><time>2026-03-28T11:36:18.003Z</time></trkpt><trkpt lat="44.13605" lon="11.2733988"><ele>1076.1428571428573</ele><time>2026-03-28T11:36:28.027Z</time></trkpt><trkpt lat="44.1360971" lon="11.2734594"><ele>1079.5714285714287</ele><time>2026-03-28T11:36:40.929Z</time></trkpt><trkpt lat="44.1361052" lon="11.2735475"><ele>1083.0</ele><time>2026-03-28T11:37:02.907Z</time></trkpt><trkpt lat="44.1361491" lon="11.2736183"><ele>1083.0</ele><time>2026-03-28T11:37:13.03Z</time></trkpt><trkpt lat="44.1362132" lon="11.2736301"><ele>1083.0</ele><time>2026-03-28T11:37:33.989Z</time></trkpt><trkpt lat="44.136246" lon="11.2737158"><ele>1083.0</ele><time>2026-03-28T11:37:40.948Z</time></trkpt><trkpt lat="44.1362556" lon="11.2738072"><ele>1083.0</ele><time>2026-03-28T11:37:46.006Z</time></trkpt><trkpt lat="44.1362432" lon="11.2738944"><ele>1083.0</ele><time>2026-03-28T11:37:55.928Z</time></trkpt><trkpt lat="44.1362208" lon="11.2739814"><ele>1083.0</ele><time>2026-03-28T11:38:20.986Z</time></trkpt><trkpt lat="44.1362646" lon="11.2740491"><ele>1083.0</ele><time>2026-03-28T11:38:37.021Z</time></trkpt><trkpt lat="44.1363041" lon="11.2741236"><ele>1084.7142857142858</ele><time>2026-03-28T11:38:51.956Z</time></trkpt><trkpt lat="44.1363655" lon="11.2741581"><ele>1086.4285714285716</ele><time>2026-03-28T11:39:05.987Z</time></trkpt><trkpt lat="44.1364285" lon="11.2741518"><ele>1088.142857142857</ele><time>2026-03-28T11:39:15.008Z</time></trkpt><trkpt lat="44.1364887" lon="11.2741985"><ele>1089.857142857143</ele><time>2026-03-28T11:39:30.968Z</time></trkpt><trkpt lat="44.1365178" lon="11.2742778"><ele>1091.5714285714284</ele><time>2026-03-28T11:39:40.967Z</time></trkpt><trkpt lat="44.1365514" lon="11.2743581"><ele>1093.2857142857142</ele><time>2026-03-28T11:39:57.002Z</time></trkpt><trkpt lat="44.1365659" lon="11.2744474"><ele>1095.0</ele><time>2026-03-28T11:40:29.978Z</time></trkpt><trkpt lat="44.1365793" lon="11.2745381"><ele>1094.9999999999998</ele><time>2026-03-28T11:40:41.948Z</time></trkpt><trkpt lat="44.1366078" lon="11.27463"><ele>1095.0</ele><time>2026-03-28T11:40:53.931Z</time></trkpt><trkpt lat="44.1366051" lon="11.2747207"><ele>1095.0</ele><time>2026-03-28T11:41:20.992Z</time></trkpt><trkpt lat="44.1366181" lon="11.2748103"><ele>1095.0</ele><time>2026-03-28T11:41:54.967Z</time></trkpt><trkpt lat="44.1365771" lon="11.2748895"><ele>1095.0</ele><time>2026-03-28T11:42:23.933Z</time></trkpt><trkpt lat="44.1365335" lon="11.2749771"><ele>1094.9999999999998</ele><time>2026-03-28T11:42:26.94Z</time></trkpt><trkpt lat="44.1365275" lon="11.2748769"><ele>1095.0</ele><time>2026-03-28T11:42:33.956Z</time></trkpt><trkpt lat="44.1365349" lon="11.2747855"><ele>1096.2857142857142</ele><time>2026-03-28T11:42:53.946Z</time></trkpt><trkpt lat="44.1364869" lon="11.2747238"><ele>1097.5714285714284</ele><time>2026-03-28T11:42:59.013Z</time></trkpt><trkpt lat="44.1364238" lon="11.2747151"><ele>1098.857142857143</ele><time>2026-03-28T11:43:04.928Z</time></trkpt><trkpt lat="44.1363663" lon="11.2747713"><ele>1100.142857142857</ele><time>2026-03-28T11:43:10.785Z</time></trkpt><trkpt lat="44.1363734" lon="11.2748596"><ele>1101.4285714285716</ele><time>2026-03-28T11:43:19.962Z</time></trkpt><trkpt lat="44.1363682" lon="11.2749471"><ele>1102.7142857142858</ele><time>2026-03-28T11:43:30.987Z</time></trkpt><trkpt lat="44.1363586" lon="11.2750449"><ele>1104.0</ele><time>2026-03-28T11:43:42.012Z</time></trkpt><trkpt lat="44.1363968" lon="11.2751153"><ele>1107.2857142857142</ele><time>2026-03-28T11:43:48.025Z</time></trkpt><trkpt lat="44.1364099" lon="11.2752023"><ele>1110.5714285714287</ele><time>2026-03-28T11:43:56.946Z</time></trkpt><trkpt lat="44.1363511" lon="11.2752422"><ele>1113.857142857143</ele><time>2026-03-28T11:44:16.991Z</time></trkpt><trkpt lat="44.1363591" lon="11.2753354"><ele>1117.142857142857</ele><time>2026-03-28T11:44:28.015Z</time></trkpt><trkpt lat="44.1363357" lon="11.2754275"><ele>1120.4285714285716</ele><time>2026-03-28T11:44:46.958Z</time></trkpt><trkpt lat="44.136283" lon="11.2754943"><ele>1123.7142857142858</ele><time>2026-03-28T11:44:50.966Z</time></trkpt><trkpt lat="44.136228" lon="11.2755551"><ele>1127.0</ele><time>2026-03-28T11:44:56.981Z</time></trkpt><trkpt lat="44.1361959" lon="11.2756403"><ele>1129.0</ele><time>2026-03-28T11:45:49.922Z</time></trkpt><trkpt lat="44.1361353" lon="11.2756791"><ele>1131.0</ele><time>2026-03-28T11:46:01.024Z</time></trkpt><trkpt lat="44.1360835" lon="11.2757335"><ele>1133.0</ele><time>2026-03-28T11:46:10.945Z</time></trkpt><trkpt lat="44.1360183" lon="11.2757158"><ele>1135.0</ele><time>2026-03-28T11:46:22.973Z</time></trkpt><trkpt lat="44.1359532" lon="11.2756815"><ele>1137.0</ele><time>2026-03-28T11:46:41.051Z</time></trkpt><trkpt lat="44.1358871" lon="11.2756966"><ele>1139.0</ele><time>2026-03-28T11:46:48.029Z</time></trkpt><trkpt lat="44.1358236" lon="11.2757089"><ele>1141.0</ele><time>2026-03-28T11:46:54.944Z</time></trkpt><trkpt lat="44.1357655" lon="11.2757648"><ele>1142.2857142857142</ele><time>2026-03-28T11:47:01.96Z</time></trkpt><trkpt lat="44.1357016" lon="11.2757996"><ele>1143.5714285714284</ele><time>2026-03-28T11:47:09.977Z</time></trkpt><trkpt lat="44.1356384" lon="11.2757989"><ele>1144.857142857143</ele><time>2026-03-28T11:47:20Z</time></trkpt><trkpt lat="44.1356403" lon="11.2758872"><ele>1146.142857142857</ele><time>2026-03-28T11:47:43.051Z</time></trkpt><trkpt lat="44.1355588" lon="11.2758812"><ele>1147.4285714285713</ele><time>2026-03-28T11:48:02.995Z</time></trkpt><trkpt lat="44.1354944" lon="11.275873"><ele>1148.7142857142858</ele><time>2026-03-28T11:48:12.918Z</time></trkpt><trkpt lat="44.1354282" lon="11.2758704"><ele>1150.0</ele><time>2026-03-28T11:48:46.995Z</time></trkpt><trkpt lat="44.1353753" lon="11.2759228"><ele>1150.0</ele><time>2026-03-28T11:48:54.912Z</time></trkpt><trkpt lat="44.1353185" lon="11.2759709"><ele>1150.0</ele><time>2026-03-28T11:48:59.924Z</time></trkpt><trkpt lat="44.1352594" lon="11.2760278"><ele>1150.0</ele><time>2026-03-28T11:49:19.952Z</time></trkpt><trkpt lat="44.1351963" lon="11.2760335"><ele>1150.0</ele><time>2026-03-28T11:49:36.006Z</time></trkpt><trkpt lat="44.1351419" lon="11.2760923"><ele>1150.0</ele><time>2026-03-28T11:49:43.923Z</time></trkpt><trkpt lat="44.1350937" lon="11.2761542"><ele>1150.0</ele><time>2026-03-28T11:49:54.851Z</time></trkpt><trkpt lat="44.1350458" lon="11.276097"><ele>1150.0</ele><time>2026-03-28T11:50:24.014Z</time></trkpt><trkpt lat="44.1349789" lon="11.2760874"><ele>1150.0</ele><time>2026-03-28T11:50:39.813Z</time></trkpt><trkpt lat="44.1349316" lon="11.2761556"><ele>1150.0</ele><time>2026-03-28T11:50:56.988Z</time></trkpt><trkpt lat="44.1349174" lon="11.2762487"><ele>1150.0</ele><time>2026-03-28T11:51:15.973Z</time></trkpt><trkpt lat="44.1348657" lon="11.2763051"><ele>1150.0</ele><time>2026-03-28T11:51:28.96Z</time></trkpt><trkpt lat="44.1348066" lon="11.2763524"><ele>1150.0</ele><time>2026-03-28T11:51:35.97Z</time></trkpt><trkpt lat="44.1347549" lon="11.2764055"><ele>1150.0</ele><time>2026-03-28T11:51:50.006Z</time></trkpt><trkpt lat="44.134724" lon="11.2764858"><ele>1150.0</ele><time>2026-03-28T11:51:58.991Z</time></trkpt><trkpt lat="44.1346836" lon="11.2765619"><ele>1151.4</ele><time>2026-03-28T11:52:12.959Z</time></trkpt><trkpt lat="44.1345497" lon="11.2766582"><ele>1152.8</ele><time>2026-03-28T11:52:50.945Z</time></trkpt><trkpt lat="44.1344837" lon="11.2766607"><ele>1154.2</ele><time>2026-03-28T11:52:56.961Z</time></trkpt><trkpt lat="44.1345429" lon="11.2766132"><ele>1155.6</ele><time>2026-03-28T11:53:07.987Z</time></trkpt><trkpt lat="44.1346174" lon="11.2765115"><ele>1157.0</ele><time>2026-03-28T11:53:12.898Z</time></trkpt><trkpt lat="44.1346431" lon="11.2763043"><ele>1157.0</ele><time>2026-03-28T11:53:14.903Z</time></trkpt><trkpt lat="44.1346052" lon="11.2761757"><ele>1157.0</ele><time>2026-03-28T11:53:15.905Z</time></trkpt><trkpt lat="44.1345398" lon="11.2761823"><ele>1157.0</ele><time>2026-03-28T11:53:16.908Z</time></trkpt><trkpt lat="44.1345757" lon="11.2763838"><ele>1157.0</ele><time>2026-03-28T11:53:18.896Z</time></trkpt><trkpt lat="44.1346272" lon="11.2765192"><ele>1157.0</ele><time>2026-03-28T11:53:19.896Z</time></trkpt><trkpt lat="44.1345911" lon="11.2765976"><ele>1157.5714285714284</ele><time>2026-03-28T11:53:30.896Z</time></trkpt><trkpt lat="44.1345554" lon="11.2766741"><ele>1158.142857142857</ele><time>2026-03-28T11:53:32.896Z</time></trkpt><trkpt lat="44.1345043" lon="11.2766035"><ele>1158.7142857142858</ele><time>2026-03-28T11:53:50.931Z</time></trkpt><trkpt lat="44.1345818" lon="11.2765986"><ele>1159.2857142857142</ele><time>2026-03-28T11:54:03.896Z</time></trkpt><trkpt lat="44.1345149" lon="11.2765711"><ele>1159.857142857143</ele><time>2026-03-28T11:54:42.895Z</time></trkpt><trkpt lat="44.1345948" lon="11.2765535"><ele>1160.4285714285713</ele><time>2026-03-28T11:55:07.932Z</time></trkpt><trkpt lat="44.1346361" lon="11.2766463"><ele>1161.0</ele><time>2026-03-28T12:02:49.019Z</time></trkpt><trkpt lat="44.1346457" lon="11.2765423"><ele>1161.0</ele><time>2026-03-28T12:03:14.896Z</time></trkpt><trkpt lat="44.1346145" lon="11.276448"><ele>1161.0</ele><time>2026-03-28T12:03:19.027Z</time></trkpt><trkpt lat="44.134588" lon="11.2765609"><ele>1161.0</ele><time>2026-03-28T12:03:23.037Z</time></trkpt><trkpt lat="44.1345945" lon="11.2766679"><ele>1161.0</ele><time>2026-03-28T12:04:33.896Z</time></trkpt><trkpt lat="44.1345282" lon="11.2767019"><ele>1161.0</ele><time>2026-03-28T12:04:36.897Z</time></trkpt><trkpt lat="44.134496" lon="11.2766261"><ele>1161.0</ele><time>2026-03-28T12:04:54.897Z</time></trkpt><trkpt lat="44.1344286" lon="11.2766475"><ele>1161.0</ele><time>2026-03-28T12:05:04.897Z</time></trkpt><trkpt lat="44.1343672" lon="11.2766234"><ele>1161.0</ele><time>2026-03-28T12:05:14.897Z</time></trkpt><trkpt lat="44.1343038" lon="11.2766122"><ele>1161.0</ele><time>2026-03-28T12:05:29.897Z</time></trkpt><trkpt lat="44.1342326" lon="11.2765892"><ele>1161.0</ele><time>2026-03-28T12:05:44.897Z</time></trkpt><trkpt lat="44.1341604" lon="11.2765965"><ele>1161.0</ele><time>2026-03-28T12:05:50.898Z</time></trkpt><trkpt lat="44.1341798" lon="11.2765089"><ele>1161.0</ele><time>2026-03-28T12:06:00.898Z</time></trkpt><trkpt lat="44.1340993" lon="11.2765673"><ele>1161.0</ele><time>2026-03-28T12:06:14.897Z</time></trkpt><trkpt lat="44.1339953" lon="11.2765907"><ele>1161.857142857143</ele><time>2026-03-28T12:06:38.897Z</time></trkpt><trkpt lat="44.1339322" lon="11.276545"><ele>1162.7142857142858</ele><time>2026-03-28T12:06:45.898Z</time></trkpt><trkpt lat="44.1338658" lon="11.2765534"><ele>1163.5714285714287</ele><time>2026-03-28T12:06:54.897Z</time></trkpt><trkpt lat="44.1338067" lon="11.2765881"><ele>1164.4285714285716</ele><time>2026-03-28T12:07:02.898Z</time></trkpt><trkpt lat="44.1337524" lon="11.2766422"><ele>1165.2857142857144</ele><time>2026-03-28T12:07:25.898Z</time></trkpt><trkpt lat="44.1337032" lon="11.2767038"><ele>1166.142857142857</ele><time>2026-03-28T12:07:33.897Z</time></trkpt><trkpt lat="44.1336475" lon="11.2767565"><ele>1167.0</ele><time>2026-03-28T12:07:44.898Z</time></trkpt><trkpt lat="44.1335998" lon="11.2768152"><ele>1167.0</ele><time>2026-03-28T12:07:59.898Z</time></trkpt><trkpt lat="44.1335396" lon="11.2768667"><ele>1167.0</ele><time>2026-03-28T12:08:09.898Z</time></trkpt><trkpt lat="44.1335006" lon="11.2769384"><ele>1167.0</ele><time>2026-03-28T12:08:18.898Z</time></trkpt><trkpt lat="44.1334431" lon="11.2769971"><ele>1167.0</ele><time>2026-03-28T12:08:25.898Z</time></trkpt><trkpt lat="44.1333817" lon="11.2770281"><ele>1167.0</ele><time>2026-03-28T12:08:37.987Z</time></trkpt><trkpt lat="44.1333259" lon="11.2770745"><ele>1167.0</ele><time>2026-03-28T12:08:42.997Z</time></trkpt><trkpt lat="44.1332708" lon="11.2771275"><ele>1167.0</ele><time>2026-03-28T12:08:46.029Z</time></trkpt><trkpt lat="44.1332158" lon="11.2771713"><ele>1167.0</ele><time>2026-03-28T12:08:51.016Z</time></trkpt><trkpt lat="44.1332355" lon="11.2770652"><ele>1167.0</ele><time>2026-03-28T12:09:34.029Z</time></trkpt><trkpt lat="44.1331923" lon="11.2771362"><ele>1167.0</ele><time>2026-03-28T12:10:27.938Z</time></trkpt><trkpt lat="44.133124" lon="11.2771617"><ele>1167.0</ele><time>2026-03-28T12:10:36.056Z</time></trkpt><trkpt lat="44.1330567" lon="11.2771845"><ele>1167.0</ele><time>2026-03-28T12:10:43.974Z</time></trkpt><trkpt lat="44.1329917" lon="11.2772089"><ele>1167.0</ele><time>2026-03-28T12:10:51.947Z</time></trkpt><trkpt lat="44.1329339" lon="11.2772463"><ele>1167.0</ele><time>2026-03-28T12:11:09.03Z</time></trkpt><trkpt lat="44.1329013" lon="11.2773276"><ele>1170.142857142857</ele><time>2026-03-28T12:11:18.954Z</time></trkpt><trkpt lat="44.132864" lon="11.2774128"><ele>1173.2857142857144</ele><time>2026-03-28T12:11:33.987Z</time></trkpt><trkpt lat="44.1328366" lon="11.277505"><ele>1176.4285714285716</ele><time>2026-03-28T12:11:53.031Z</time></trkpt><trkpt lat="44.1327356" lon="11.2775454"><ele>1179.5714285714287</ele><time>2026-03-28T12:12:29.013Z</time></trkpt><trkpt lat="44.1327399" lon="11.2776357"><ele>1182.7142857142858</ele><time>2026-03-28T12:12:47.956Z</time></trkpt><trkpt lat="44.132746" lon="11.2777302"><ele>1185.857142857143</ele><time>2026-03-28T12:12:57.978Z</time></trkpt><trkpt lat="44.1327271" lon="11.2778208"><ele>1189.0</ele><time>2026-03-28T12:13:02.903Z</time></trkpt><trkpt lat="44.1326879" lon="11.2778955"><ele>1189.0</ele><time>2026-03-28T12:13:34.961Z</time></trkpt><trkpt lat="44.1326867" lon="11.2779855"><ele>1189.0</ele><time>2026-03-28T12:13:44.985Z</time></trkpt><trkpt lat="44.1327022" lon="11.2780715"><ele>1189.0</ele><time>2026-03-28T12:14:04.028Z</time></trkpt><trkpt lat="44.1327078" lon="11.278159"><ele>1189.0</ele><time>2026-03-28T12:14:11.96Z</time></trkpt><trkpt lat="44.1326975" lon="11.2782517"><ele>1189.0</ele><time>2026-03-28T12:14:19.963Z</time></trkpt><trkpt lat="44.1326355" lon="11.2782997"><ele>1189.0</ele><time>2026-03-28T12:14:27.983Z</time></trkpt><trkpt lat="44.1325772" lon="11.2783359"><ele>1189.0</ele><time>2026-03-28T12:14:36.001Z</time></trkpt><trkpt lat="44.1325327" lon="11.2784043"><ele>1190.1666666666665</ele><time>2026-03-28T12:14:48.028Z</time></trkpt><trkpt lat="44.132507" lon="11.2784881"><ele>1191.3333333333333</ele><time>2026-03-28T12:14:56.947Z</time></trkpt><trkpt lat="44.1324449" lon="11.2785289"><ele>1192.5</ele><time>2026-03-28T12:15:16.994Z</time></trkpt><trkpt lat="44.1323915" lon="11.2785876"><ele>1193.6666666666667</ele><time>2026-03-28T12:15:27.016Z</time></trkpt><trkpt lat="44.1323254" lon="11.2786244"><ele>1194.8333333333335</ele><time>2026-03-28T12:15:34.867Z</time></trkpt><trkpt lat="44.1322649" lon="11.278653"><ele>1196.0</ele><time>2026-03-28T12:15:42.952Z</time></trkpt><trkpt lat="44.1321696" lon="11.2787897"><ele>1197.142857142857</ele><time>2026-03-28T12:16:00.994Z</time></trkpt><trkpt lat="44.1321241" lon="11.2788735"><ele>1198.2857142857142</ele><time>2026-03-28T12:16:06.004Z</time></trkpt><trkpt lat="44.1320582" lon="11.2788576"><ele>1199.4285714285716</ele><time>2026-03-28T12:16:32.949Z</time></trkpt><trkpt lat="44.1319905" lon="11.2788359"><ele>1200.5714285714284</ele><time>2026-03-28T12:16:45.995Z</time></trkpt><trkpt lat="44.1319448" lon="11.2789229"><ele>1201.7142857142858</ele><time>2026-03-28T12:16:52.009Z</time></trkpt><trkpt lat="44.131887" lon="11.2789731"><ele>1202.857142857143</ele><time>2026-03-28T12:17:00.027Z</time></trkpt><trkpt lat="44.131822" lon="11.2790022"><ele>1204.0</ele><time>2026-03-28T12:17:05.941Z</time></trkpt><trkpt lat="44.1317551" lon="11.2789686"><ele>1204.0</ele><time>2026-03-28T12:17:13.056Z</time></trkpt><trkpt lat="44.1316926" lon="11.2789356"><ele>1204.0</ele><time>2026-03-28T12:17:21.977Z</time></trkpt><trkpt lat="44.1316677" lon="11.2788437"><ele>1204.0</ele><time>2026-03-28T12:17:29.995Z</time></trkpt><trkpt lat="44.1316256" lon="11.2787777"><ele>1204.0</ele><time>2026-03-28T12:17:42.924Z</time></trkpt><trkpt lat="44.1315604" lon="11.278813"><ele>1204.0</ele><time>2026-03-28T12:17:49.783Z</time></trkpt><trkpt lat="44.1315263" lon="11.2788886"><ele>1204.0</ele><time>2026-03-28T12:17:56.956Z</time></trkpt><trkpt lat="44.1314697" lon="11.2789573"><ele>1204.0</ele><time>2026-03-28T12:18:01.967Z</time></trkpt><trkpt lat="44.1314358" lon="11.279032"><ele>1204.4285714285713</ele><time>2026-03-28T12:18:09.986Z</time></trkpt><trkpt lat="44.1314014" lon="11.2791083"><ele>1204.857142857143</ele><time>2026-03-28T12:18:22.013Z</time></trkpt><trkpt lat="44.1313306" lon="11.2791073"><ele>1205.2857142857142</ele><time>2026-03-28T12:18:43.06Z</time></trkpt><trkpt lat="44.131289" lon="11.2790297"><ele>1205.7142857142858</ele><time>2026-03-28T12:18:50.978Z</time></trkpt><trkpt lat="44.1312242" lon="11.2790438"><ele>1206.142857142857</ele><time>2026-03-28T12:18:56.992Z</time></trkpt><trkpt lat="44.1311624" lon="11.2790703"><ele>1206.5714285714284</ele><time>2026-03-28T12:19:06.011Z</time></trkpt><trkpt lat="44.1311141" lon="11.2791283"><ele>1207.0</ele><time>2026-03-28T12:19:16.939Z</time></trkpt><trkpt lat="44.1311381" lon="11.2792117"><ele>1206.9999999999998</ele><time>2026-03-28T12:20:11.961Z</time></trkpt><trkpt lat="44.1310779" lon="11.2791785"><ele>1207.0</ele><time>2026-03-28T12:20:34.99Z</time></trkpt><trkpt lat="44.1309788" lon="11.2791626"><ele>1207.0</ele><time>2026-03-28T12:20:36.9Z</time></trkpt><trkpt lat="44.1309108" lon="11.2791222"><ele>1207.0</ele><time>2026-03-28T12:20:38.899Z</time></trkpt><trkpt lat="44.130977" lon="11.279146"><ele>1207.0</ele><time>2026-03-28T12:20:41.941Z</time></trkpt><trkpt lat="44.1310021" lon="11.2790541"><ele>1206.9999999999998</ele><time>2026-03-28T12:21:01.899Z</time></trkpt><trkpt lat="44.1310067" lon="11.2791423"><ele>1207.0</ele><time>2026-03-28T12:21:27.863Z</time></trkpt><trkpt lat="44.1310552" lon="11.2791983"><ele>1207.0</ele><time>2026-03-28T12:21:34.968Z</time></trkpt><trkpt lat="44.1311026" lon="11.2791324"><ele>1207.0</ele><time>2026-03-28T12:21:51.909Z</time></trkpt><trkpt lat="44.1311544" lon="11.2790791"><ele>1207.0</ele><time>2026-03-28T12:22:06.945Z</time></trkpt><trkpt lat="44.1311573" lon="11.2791761"><ele>1207.0</ele><time>2026-03-28T12:22:12.961Z</time></trkpt><trkpt lat="44.1311196" lon="11.2792799"><ele>1207.0</ele><time>2026-03-28T12:22:17.973Z</time></trkpt><trkpt lat="44.1310751" lon="11.2790993"><ele>1207.0</ele><time>2026-03-28T12:22:18.976Z</time></trkpt><trkpt lat="44.1310262" lon="11.2790123"><ele>1206.9999999999998</ele><time>2026-03-28T12:22:20.981Z</time></trkpt><trkpt lat="44.131055" lon="11.2791052"><ele>1207.0</ele><time>2026-03-28T12:22:27.899Z</time></trkpt><trkpt lat="44.1311184" lon="11.279112"><ele>1207.0</ele><time>2026-03-28T12:23:32.9Z</time></trkpt><trkpt lat="44.1311999" lon="11.2791233"><ele>1207.0</ele><time>2026-03-28T12:23:34.9Z</time></trkpt><trkpt lat="44.1311398" lon="11.2791577"><ele>1207.0</ele><time>2026-03-28T12:23:41.9Z</time></trkpt><trkpt lat="44.1310904" lon="11.2791007"><ele>1206.9999999999998</ele><time>2026-03-28T12:23:47.899Z</time></trkpt><trkpt lat="44.1311468" lon="11.279034"><ele>1207.0</ele><time>2026-03-28T12:23:55.9Z</time></trkpt><trkpt lat="44.1310839" lon="11.2790619"><ele>1207.0</ele><time>2026-03-28T12:23:59.899Z</time></trkpt><trkpt lat="44.131012" lon="11.2791613"><ele>1207.0</ele><time>2026-03-28T12:24:14.9Z</time></trkpt><trkpt lat="44.1309646" lon="11.2792719"><ele>1207.0</ele><time>2026-03-28T12:24:16.9Z</time></trkpt><trkpt lat="44.1309575" lon="11.2791748"><ele>1207.0</ele><time>2026-03-28T12:24:24.9Z</time></trkpt><trkpt lat="44.1310185" lon="11.27912"><ele>1207.0</ele><time>2026-03-28T12:24:33.899Z</time></trkpt><trkpt lat="44.1310772" lon="11.2790864"><ele>1207.0</ele><time>2026-03-28T12:24:54.9Z</time></trkpt><trkpt lat="44.1310439" lon="11.279195"><ele>1206.9999999999998</ele><time>2026-03-28T12:25:09.9Z</time></trkpt><trkpt lat="44.1309897" lon="11.2791367"><ele>1207.0</ele><time>2026-03-28T12:25:13.9Z</time></trkpt><trkpt lat="44.1309464" lon="11.2790641"><ele>1207.0</ele><time>2026-03-28T12:25:15.9Z</time></trkpt><trkpt lat="44.1308735" lon="11.2790477"><ele>1207.0</ele><time>2026-03-28T12:25:29.899Z</time></trkpt><trkpt lat="44.1308154" lon="11.2789972"><ele>1207.0</ele><time>2026-03-28T12:25:40.9Z</time></trkpt><trkpt lat="44.1307566" lon="11.2789653"><ele>1206.9999999999998</ele><time>2026-03-28T12:25:54.9Z</time></trkpt><trkpt lat="44.1306925" lon="11.2789587"><ele>1207.0</ele><time>2026-03-28T12:26:04.9Z</time></trkpt><trkpt lat="44.1306256" lon="11.2789553"><ele>1205.8571428571427</ele><time>2026-03-28T12:26:11.9Z</time></trkpt><trkpt lat="44.1305583" lon="11.2789669"><ele>1204.7142857142858</ele><time>2026-03-28T12:26:22.899Z</time></trkpt><trkpt lat="44.1304864" lon="11.2789639"><ele>1203.5714285714284</ele><time>2026-03-28T12:26:30.9Z</time></trkpt><trkpt lat="44.1304181" lon="11.2789616"><ele>1202.4285714285713</ele><time>2026-03-28T12:26:37.9Z</time></trkpt><trkpt lat="44.1303421" lon="11.2789577"><ele>1201.2857142857142</ele><time>2026-03-28T12:26:45.9Z</time></trkpt><trkpt lat="44.1302824" lon="11.2789184"><ele>1200.142857142857</ele><time>2026-03-28T12:26:53.9Z</time></trkpt><trkpt lat="44.1302161" lon="11.2788991"><ele>1199.0</ele><time>2026-03-28T12:27:05.899Z</time></trkpt><trkpt lat="44.1301459" lon="11.278901"><ele>1198.5714285714287</ele><time>2026-03-28T12:27:12.9Z</time></trkpt><trkpt lat="44.1300862" lon="11.2788603"><ele>1198.142857142857</ele><time>2026-03-28T12:27:20.9Z</time></trkpt><trkpt lat="44.1300227" lon="11.2788192"><ele>1197.7142857142858</ele><time>2026-03-28T12:27:40.9Z</time></trkpt><trkpt lat="44.1299657" lon="11.2787737"><ele>1197.2857142857142</ele><time>2026-03-28T12:27:48.9Z</time></trkpt><trkpt lat="44.1299195" lon="11.2787139"><ele>1196.857142857143</ele><time>2026-03-28T12:27:50.9Z</time></trkpt><trkpt lat="44.1298711" lon="11.2786252"><ele>1196.4285714285713</ele><time>2026-03-28T12:27:53.9Z</time></trkpt><trkpt lat="44.1298064" lon="11.2786179"><ele>1196.0</ele><time>2026-03-28T12:28:05.9Z</time></trkpt><trkpt lat="44.1297419" lon="11.2786195"><ele>1194.857142857143</ele><time>2026-03-28T12:28:37.9Z</time></trkpt><trkpt lat="44.129682" lon="11.2785898"><ele>1193.7142857142858</ele><time>2026-03-28T12:28:46.9Z</time></trkpt><trkpt lat="44.1296307" lon="11.2785334"><ele>1192.5714285714287</ele><time>2026-03-28T12:28:57.9Z</time></trkpt><trkpt lat="44.1295684" lon="11.2785127"><ele>1191.4285714285716</ele><time>2026-03-28T12:29:10.9Z</time></trkpt><trkpt lat="44.1295058" lon="11.2785336"><ele>1190.2857142857144</ele><time>2026-03-28T12:29:17.899Z</time></trkpt><trkpt lat="44.1294372" lon="11.2785366"><ele>1189.142857142857</ele><time>2026-03-28T12:29:28.899Z</time></trkpt><trkpt lat="44.1293765" lon="11.2785601"><ele>1188.0</ele><time>2026-03-28T12:29:35.9Z</time></trkpt><trkpt lat="44.1293055" lon="11.2785773"><ele>1188.0</ele><time>2026-03-28T12:29:45.9Z</time></trkpt><trkpt lat="44.1292385" lon="11.2786123"><ele>1188.0</ele><time>2026-03-28T12:29:52.9Z</time></trkpt><trkpt lat="44.1291673" lon="11.2786395"><ele>1188.0</ele><time>2026-03-28T12:30:03.9Z</time></trkpt><trkpt lat="44.1291069" lon="11.2786792"><ele>1188.0</ele><time>2026-03-28T12:30:09.978Z</time></trkpt><trkpt lat="44.1290351" lon="11.2786764"><ele>1188.0</ele><time>2026-03-28T12:30:17.997Z</time></trkpt><trkpt lat="44.1289789" lon="11.2786093"><ele>1188.0</ele><time>2026-03-28T12:30:22.007Z</time></trkpt><trkpt lat="44.1289122" lon="11.2785681"><ele>1188.0</ele><time>2026-03-28T12:30:26.017Z</time></trkpt><trkpt lat="44.1288464" lon="11.2785378"><ele>1188.142857142857</ele><time>2026-03-28T12:30:32.031Z</time></trkpt><trkpt lat="44.1287821" lon="11.2785475"><ele>1188.2857142857144</ele><time>2026-03-28T12:30:52.98Z</time></trkpt><trkpt lat="44.128718" lon="11.2785175"><ele>1188.4285714285716</ele><time>2026-03-28T12:31:02.001Z</time></trkpt><trkpt lat="44.1286539" lon="11.2785352"><ele>1188.5714285714287</ele><time>2026-03-28T12:31:09.018Z</time></trkpt><trkpt lat="44.1285902" lon="11.2785231"><ele>1188.7142857142858</ele><time>2026-03-28T12:31:22.994Z</time></trkpt><trkpt lat="44.1285359" lon="11.278471"><ele>1188.857142857143</ele><time>2026-03-28T12:31:33.075Z</time></trkpt><trkpt lat="44.1284726" lon="11.2784329"><ele>1189.0</ele><time>2026-03-28T12:31:41.996Z</time></trkpt><trkpt lat="44.1284117" lon="11.2784014"><ele>1189.0</ele><time>2026-03-28T12:31:52.975Z</time></trkpt><trkpt lat="44.1283509" lon="11.2783641"><ele>1189.0</ele><time>2026-03-28T12:32:01.926Z</time></trkpt><trkpt lat="44.1283042" lon="11.2783041"><ele>1189.0</ele><time>2026-03-28T12:32:13.069Z</time></trkpt><trkpt lat="44.1282579" lon="11.2782316"><ele>1189.0</ele><time>2026-03-28T12:32:21.989Z</time></trkpt><trkpt lat="44.1281916" lon="11.2782373"><ele>1189.0</ele><time>2026-03-28T12:32:33.016Z</time></trkpt><trkpt lat="44.1281304" lon="11.2782609"><ele>1189.0</ele><time>2026-03-28T12:32:40.032Z</time></trkpt><trkpt lat="44.1280727" lon="11.2782177"><ele>1189.0</ele><time>2026-03-28T12:32:47.951Z</time></trkpt><trkpt lat="44.128033" lon="11.2781395"><ele>1188.7142857142858</ele><time>2026-03-28T12:32:57.948Z</time></trkpt><trkpt lat="44.1279747" lon="11.2781011"><ele>1188.4285714285716</ele><time>2026-03-28T12:33:03.912Z</time></trkpt><trkpt lat="44.1279036" lon="11.2780784"><ele>1188.1428571428573</ele><time>2026-03-28T12:33:11.049Z</time></trkpt><trkpt lat="44.1278364" lon="11.2780697"><ele>1187.857142857143</ele><time>2026-03-28T12:33:21.029Z</time></trkpt><trkpt lat="44.1277694" lon="11.2780793"><ele>1187.5714285714287</ele><time>2026-03-28T12:33:29.849Z</time></trkpt><trkpt lat="44.1277046" lon="11.2781147"><ele>1187.2857142857144</ele><time>2026-03-28T12:33:36.989Z</time></trkpt><trkpt lat="44.1276406" lon="11.2780798"><ele>1187.0</ele><time>2026-03-28T12:33:47.895Z</time></trkpt><trkpt lat="44.1275765" lon="11.2780506"><ele>1187.1428571428573</ele><time>2026-03-28T12:33:57.013Z</time></trkpt><trkpt lat="44.1275119" lon="11.2780526"><ele>1187.2857142857142</ele><time>2026-03-28T12:34:03.93Z</time></trkpt><trkpt lat="44.1274523" lon="11.2780204"><ele>1187.4285714285716</ele><time>2026-03-28T12:34:09.946Z</time></trkpt><trkpt lat="44.1273913" lon="11.2779745"><ele>1187.5714285714287</ele><time>2026-03-28T12:34:19.968Z</time></trkpt><trkpt lat="44.1273237" lon="11.2779535"><ele>1187.7142857142858</ele><time>2026-03-28T12:34:27.986Z</time></trkpt><trkpt lat="44.1272627" lon="11.2779248"><ele>1187.857142857143</ele><time>2026-03-28T12:34:36.004Z</time></trkpt><trkpt lat="44.1271942" lon="11.277925"><ele>1188.0</ele><time>2026-03-28T12:34:45.026Z</time></trkpt><trkpt lat="44.1271351" lon="11.2778804"><ele>1188.0</ele><time>2026-03-28T12:34:52.047Z</time></trkpt><trkpt lat="44.1270699" lon="11.2778665"><ele>1188.0</ele><time>2026-03-28T12:34:59.961Z</time></trkpt><trkpt lat="44.1270003" lon="11.277854"><ele>1188.0</ele><time>2026-03-28T12:35:09.044Z</time></trkpt><trkpt lat="44.1269374" lon="11.2778337"><ele>1188.0</ele><time>2026-03-28T12:35:16.034Z</time></trkpt><trkpt lat="44.1268798" lon="11.2777856"><ele>1188.0</ele><time>2026-03-28T12:35:25.02Z</time></trkpt><trkpt lat="44.1268173" lon="11.2777513"><ele>1188.0</ele><time>2026-03-28T12:35:34.041Z</time></trkpt><trkpt lat="44.1267536" lon="11.277729"><ele>1188.0</ele><time>2026-03-28T12:35:42.06Z</time></trkpt><trkpt lat="44.1266872" lon="11.2777346"><ele>1188.0</ele><time>2026-03-28T12:35:48.975Z</time></trkpt><trkpt lat="44.1266246" lon="11.277749"><ele>1188.0</ele><time>2026-03-28T12:35:57.997Z</time></trkpt><trkpt lat="44.1265634" lon="11.277791"><ele>1188.0</ele><time>2026-03-28T12:36:06.015Z</time></trkpt><trkpt lat="44.1265011" lon="11.2778363"><ele>1188.0</ele><time>2026-03-28T12:36:14.936Z</time></trkpt><trkpt lat="44.1264555" lon="11.2779059"><ele>1188.0</ele><time>2026-03-28T12:36:21.375Z</time></trkpt><trkpt lat="44.126384" lon="11.2779162"><ele>1188.0</ele><time>2026-03-28T12:36:32.978Z</time></trkpt><trkpt lat="44.1263179" lon="11.277866"><ele>1188.0</ele><time>2026-03-28T12:36:40.997Z</time></trkpt><trkpt lat="44.126252" lon="11.2778641"><ele>1186.0</ele><time>2026-03-28T12:36:48.012Z</time></trkpt><trkpt lat="44.1261946" lon="11.2779243"><ele>1184.0</ele><time>2026-03-28T12:37:05.052Z</time></trkpt><trkpt lat="44.126131" lon="11.2779337"><ele>1182.0</ele><time>2026-03-28T12:37:11.968Z</time></trkpt><trkpt lat="44.1260671" lon="11.277917"><ele>1180.0</ele><time>2026-03-28T12:37:17.983Z</time></trkpt><trkpt lat="44.1260258" lon="11.2778498"><ele>1178.0</ele><time>2026-03-28T12:37:26.054Z</time></trkpt><trkpt lat="44.1259484" lon="11.2776858"><ele>1176.0</ele><time>2026-03-28T12:38:09.905Z</time></trkpt><trkpt lat="44.1259965" lon="11.2776064"><ele>1176.0</ele><time>2026-03-28T12:38:50.901Z</time></trkpt><trkpt lat="44.1259704" lon="11.2775204"><ele>1176.0</ele><time>2026-03-28T12:39:12.901Z</time></trkpt><trkpt lat="44.1259901" lon="11.2774205"><ele>1176.0</ele><time>2026-03-28T12:39:26.9Z</time></trkpt><trkpt lat="44.125996" lon="11.2773267"><ele>1176.0</ele><time>2026-03-28T12:39:32.9Z</time></trkpt><trkpt lat="44.1260293" lon="11.2772362"><ele>1176.0</ele><time>2026-03-28T12:39:42.901Z</time></trkpt><trkpt lat="44.1260497" lon="11.2771445"><ele>1176.0</ele><time>2026-03-28T12:39:52.901Z</time></trkpt><trkpt lat="44.126081" lon="11.2770538"><ele>1176.0</ele><time>2026-03-28T12:40:00.901Z</time></trkpt><trkpt lat="44.1261293" lon="11.276996"><ele>1175.1666666666667</ele><time>2026-03-28T12:40:04.9Z</time></trkpt><trkpt lat="44.126125" lon="11.2768995"><ele>1174.3333333333333</ele><time>2026-03-28T12:40:08.9Z</time></trkpt><trkpt lat="44.1261097" lon="11.2767613"><ele>1173.5</ele><time>2026-03-28T12:40:41.901Z</time></trkpt><trkpt lat="44.1260862" lon="11.2766686"><ele>1172.6666666666665</ele><time>2026-03-28T12:40:50.901Z</time></trkpt><trkpt lat="44.1260583" lon="11.2765656"><ele>1171.8333333333333</ele><time>2026-03-28T12:41:01.9Z</time></trkpt><trkpt lat="44.1260686" lon="11.2764607"><ele>1171.0</ele><time>2026-03-28T12:41:04.9Z</time></trkpt><trkpt lat="44.1259759" lon="11.2765106"><ele>1171.0</ele><time>2026-03-28T12:41:40.901Z</time></trkpt><trkpt lat="44.1259138" lon="11.2764883"><ele>1171.0</ele><time>2026-03-28T12:41:47.901Z</time></trkpt><trkpt lat="44.125844" lon="11.2764734"><ele>1171.0</ele><time>2026-03-28T12:41:58.901Z</time></trkpt><trkpt lat="44.1257825" lon="11.2764466"><ele>1171.0</ele><time>2026-03-28T12:42:06.9Z</time></trkpt><trkpt lat="44.1257985" lon="11.276331"><ele>1171.0</ele><time>2026-03-28T12:42:17.901Z</time></trkpt><trkpt lat="44.1257232" lon="11.2763253"><ele>1171.0</ele><time>2026-03-28T12:42:27.901Z</time></trkpt><trkpt lat="44.1256583" lon="11.2763105"><ele>1171.0</ele><time>2026-03-28T12:42:31.901Z</time></trkpt><trkpt lat="44.1256019" lon="11.2762704"><ele>1169.857142857143</ele><time>2026-03-28T12:42:33.9Z</time></trkpt><trkpt lat="44.1255361" lon="11.276258"><ele>1168.7142857142856</ele><time>2026-03-28T12:42:38.901Z</time></trkpt><trkpt lat="44.1254706" lon="11.2762681"><ele>1167.5714285714284</ele><time>2026-03-28T12:43:00.901Z</time></trkpt><trkpt lat="44.1254062" lon="11.2762577"><ele>1166.4285714285713</ele><time>2026-03-28T12:43:08.901Z</time></trkpt><trkpt lat="44.1253432" lon="11.2762679"><ele>1165.2857142857142</ele><time>2026-03-28T12:43:20.901Z</time></trkpt><trkpt lat="44.1252867" lon="11.2763189"><ele>1164.142857142857</ele><time>2026-03-28T12:43:29.901Z</time></trkpt><trkpt lat="44.1252216" lon="11.2763172"><ele>1163.0</ele><time>2026-03-28T12:43:39.901Z</time></trkpt><trkpt lat="44.1251826" lon="11.2762444"><ele>1163.0</ele><time>2026-03-28T12:43:50.9Z</time></trkpt><trkpt lat="44.1251256" lon="11.2762062"><ele>1163.0</ele><time>2026-03-28T12:44:01.893Z</time></trkpt><trkpt lat="44.1250807" lon="11.276133"><ele>1163.0</ele><time>2026-03-28T12:44:12.976Z</time></trkpt><trkpt lat="44.1250174" lon="11.2761133"><ele>1163.0</ele><time>2026-03-28T12:44:25.907Z</time></trkpt><trkpt lat="44.1249589" lon="11.2760736"><ele>1163.0</ele><time>2026-03-28T12:44:37.033Z</time></trkpt><trkpt lat="44.124897" lon="11.2760221"><ele>1163.0</ele><time>2026-03-28T12:44:46.956Z</time></trkpt><trkpt lat="44.1248654" lon="11.2759376"><ele>1163.0</ele><time>2026-03-28T12:44:52.971Z</time></trkpt><trkpt lat="44.1247969" lon="11.2759702"><ele>1161.857142857143</ele><time>2026-03-28T12:45:06.958Z</time></trkpt><trkpt lat="44.1247492" lon="11.2760394"><ele>1160.7142857142858</ele><time>2026-03-28T12:45:11.916Z</time></trkpt><trkpt lat="44.1246908" lon="11.2760781"><ele>1159.5714285714284</ele><time>2026-03-28T12:45:21.939Z</time></trkpt><trkpt lat="44.1246226" lon="11.2760988"><ele>1158.4285714285716</ele><time>2026-03-28T12:45:31.997Z</time></trkpt><trkpt lat="44.1245669" lon="11.2761404"><ele>1157.2857142857142</ele><time>2026-03-28T12:45:41.987Z</time></trkpt><trkpt lat="44.1245123" lon="11.2761982"><ele>1156.142857142857</ele><time>2026-03-28T12:45:49.859Z</time></trkpt><trkpt lat="44.1244498" lon="11.2762355"><ele>1155.0</ele><time>2026-03-28T12:45:57.023Z</time></trkpt><trkpt lat="44.1243801" lon="11.2762273"><ele>1155.0</ele><time>2026-03-28T12:46:10.053Z</time></trkpt><trkpt lat="44.1243199" lon="11.2762721"><ele>1155.0</ele><time>2026-03-28T12:46:17.971Z</time></trkpt><trkpt lat="44.124253" lon="11.276284"><ele>1155.0</ele><time>2026-03-28T12:46:28.998Z</time></trkpt><trkpt lat="44.1241881" lon="11.2762453"><ele>1155.0</ele><time>2026-03-28T12:46:58.968Z</time></trkpt><trkpt lat="44.1242206" lon="11.2763278"><ele>1155.0</ele><time>2026-03-28T12:47:08.901Z</time></trkpt><trkpt lat="44.12425" lon="11.2762498"><ele>1155.0</ele><time>2026-03-28T12:47:20.901Z</time></trkpt><trkpt lat="44.1241909" lon="11.276208"><ele>1155.0</ele><time>2026-03-28T12:47:44.9Z</time></trkpt><trkpt lat="44.1241073" lon="11.2762122"><ele>1155.0</ele><time>2026-03-28T12:47:46.9Z</time></trkpt><trkpt lat="44.1241627" lon="11.2761448"><ele>1155.0</ele><time>2026-03-28T12:47:51.901Z</time></trkpt><trkpt lat="44.124132" lon="11.2760645"><ele>1155.0</ele><time>2026-03-28T12:48:12.901Z</time></trkpt><trkpt lat="44.1240702" lon="11.2760098"><ele>1155.0</ele><time>2026-03-28T12:48:25.901Z</time></trkpt><trkpt lat="44.1240233" lon="11.2759422"><ele>1155.0</ele><time>2026-03-28T12:48:35.901Z</time></trkpt><trkpt lat="44.123958" lon="11.2759376"><ele>1155.0</ele><time>2026-03-28T12:48:50.901Z</time></trkpt><trkpt lat="44.1239157" lon="11.2758701"><ele>1155.0</ele><time>2026-03-28T12:48:54.901Z</time></trkpt><trkpt lat="44.1238757" lon="11.2757981"><ele>1154.2857142857142</ele><time>2026-03-28T12:48:58.901Z</time></trkpt><trkpt lat="44.1238265" lon="11.275723"><ele>1153.5714285714284</ele><time>2026-03-28T12:49:06.901Z</time></trkpt><trkpt lat="44.123756" lon="11.2758026"><ele>1152.857142857143</ele><time>2026-03-28T12:49:25.901Z</time></trkpt><trkpt lat="44.1236925" lon="11.275814"><ele>1152.142857142857</ele><time>2026-03-28T12:49:34.9Z</time></trkpt><trkpt lat="44.1236546" lon="11.275743"><ele>1151.4285714285713</ele><time>2026-03-28T12:49:49.901Z</time></trkpt><trkpt lat="44.1235988" lon="11.2756616"><ele>1150.7142857142858</ele><time>2026-03-28T12:49:58.901Z</time></trkpt><trkpt lat="44.1235534" lon="11.2755857"><ele>1150.0</ele><time>2026-03-28T12:50:02.901Z</time></trkpt><trkpt lat="44.1235198" lon="11.2755033"><ele>1150.0</ele><time>2026-03-28T12:50:08.902Z</time></trkpt><trkpt lat="44.1234817" lon="11.2754265"><ele>1150.0</ele><time>2026-03-28T12:50:17.902Z</time></trkpt><trkpt lat="44.1234742" lon="11.2753389"><ele>1150.0</ele><time>2026-03-28T12:50:27.902Z</time></trkpt><trkpt lat="44.1234591" lon="11.2752226"><ele>1150.0</ele><time>2026-03-28T12:50:35.902Z</time></trkpt><trkpt lat="44.1234461" lon="11.2751265"><ele>1150.0</ele><time>2026-03-28T12:50:44.901Z</time></trkpt><trkpt lat="44.1233879" lon="11.2750821"><ele>1150.0</ele><time>2026-03-28T12:50:57.901Z</time></trkpt><trkpt lat="44.1233328" lon="11.2750324"><ele>1150.0</ele><time>2026-03-28T12:51:10.902Z</time></trkpt><trkpt lat="44.1232647" lon="11.2750369"><ele>1148.2857142857142</ele><time>2026-03-28T12:51:17.902Z</time></trkpt><trkpt lat="44.1232187" lon="11.2749671"><ele>1146.5714285714284</ele><time>2026-03-28T12:51:31.902Z</time></trkpt><trkpt lat="44.1231351" lon="11.2749242"><ele>1144.857142857143</ele><time>2026-03-28T12:51:44.902Z</time></trkpt><trkpt lat="44.1230722" lon="11.2748584"><ele>1143.142857142857</ele><time>2026-03-28T12:51:47.902Z</time></trkpt><trkpt lat="44.123013" lon="11.2748166"><ele>1141.4285714285716</ele><time>2026-03-28T12:51:57.902Z</time></trkpt><trkpt lat="44.122971" lon="11.2747405"><ele>1139.7142857142858</ele><time>2026-03-28T12:52:27.028Z</time></trkpt><trkpt lat="44.1229629" lon="11.2746411"><ele>1138.0</ele><time>2026-03-28T12:52:36.015Z</time></trkpt><trkpt lat="44.1229394" lon="11.2745595"><ele>1138.0000000000002</ele><time>2026-03-28T12:52:47.942Z</time></trkpt><trkpt lat="44.1228853" lon="11.2744907"><ele>1138.0</ele><time>2026-03-28T12:52:57.967Z</time></trkpt><trkpt lat="44.1228267" lon="11.27445"><ele>1138.0</ele><time>2026-03-28T12:53:04.966Z</time></trkpt><trkpt lat="44.1227631" lon="11.2744553"><ele>1138.0</ele><time>2026-03-28T12:53:20.018Z</time></trkpt><trkpt lat="44.1227009" lon="11.2744989"><ele>1138.0</ele><time>2026-03-28T12:53:26.046Z</time></trkpt><trkpt lat="44.122635" lon="11.2744709"><ele>1138.0000000000002</ele><time>2026-03-28T12:53:32.949Z</time></trkpt><trkpt lat="44.122601" lon="11.2743785"><ele>1138.0</ele><time>2026-03-28T12:53:38.962Z</time></trkpt><trkpt lat="44.1225673" lon="11.2743042"><ele>1138.0000000000002</ele><time>2026-03-28T12:53:51.946Z</time></trkpt><trkpt lat="44.1225064" lon="11.2742785"><ele>1138.0</ele><time>2026-03-28T12:54:07.931Z</time></trkpt><trkpt lat="44.1224967" lon="11.274137"><ele>1138.0</ele><time>2026-03-28T12:54:29.982Z</time></trkpt><trkpt lat="44.1224993" lon="11.2740352"><ele>1138.0</ele><time>2026-03-28T12:54:36.008Z</time></trkpt><trkpt lat="44.1224926" lon="11.2739412"><ele>1138.0</ele><time>2026-03-28T12:54:46.019Z</time></trkpt><trkpt lat="44.1224548" lon="11.2738652"><ele>1138.0000000000002</ele><time>2026-03-28T12:54:54.985Z</time></trkpt><trkpt lat="44.1223913" lon="11.2738619"><ele>1138.0</ele><time>2026-03-28T12:55:01.055Z</time></trkpt><trkpt lat="44.1223563" lon="11.2737833"><ele>1137.5714285714287</ele><time>2026-03-28T12:55:22.004Z</time></trkpt><trkpt lat="44.1223026" lon="11.2737354"><ele>1137.142857142857</ele><time>2026-03-28T12:55:33.029Z</time></trkpt><trkpt lat="44.122236" lon="11.2737022"><ele>1136.7142857142858</ele><time>2026-03-28T12:55:45.057Z</time></trkpt><trkpt lat="44.12217" lon="11.2737028"><ele>1136.2857142857142</ele><time>2026-03-28T12:55:51.987Z</time></trkpt><trkpt lat="44.1221004" lon="11.2736985"><ele>1135.857142857143</ele><time>2026-03-28T12:55:59.992Z</time></trkpt><trkpt lat="44.1220305" lon="11.2736964"><ele>1135.4285714285716</ele><time>2026-03-28T12:56:08.011Z</time></trkpt><trkpt lat="44.1219638" lon="11.2736694"><ele>1135.0</ele><time>2026-03-28T12:56:19.01Z</time></trkpt><trkpt lat="44.1218962" lon="11.2736409"><ele>1135.0</ele><time>2026-03-28T12:56:27.956Z</time></trkpt><trkpt lat="44.1218337" lon="11.2736119"><ele>1135.0</ele><time>2026-03-28T12:56:38.986Z</time></trkpt><trkpt lat="44.1217939" lon="11.2735308"><ele>1135.0</ele><time>2026-03-28T12:56:47.947Z</time></trkpt><trkpt lat="44.1217274" lon="11.2735079"><ele>1135.0</ele><time>2026-03-28T12:56:57.024Z</time></trkpt><trkpt lat="44.1216612" lon="11.273514"><ele>1135.0</ele><time>2026-03-28T12:57:03.883Z</time></trkpt><trkpt lat="44.1216022" lon="11.2734504"><ele>1135.0</ele><time>2026-03-28T12:57:12.984Z</time></trkpt><trkpt lat="44.121537" lon="11.273437"><ele>1135.0</ele><time>2026-03-28T12:57:21.982Z</time></trkpt><trkpt lat="44.121469" lon="11.2734324"><ele>1133.4285714285716</ele><time>2026-03-28T12:57:32.005Z</time></trkpt><trkpt lat="44.121405" lon="11.2734112"><ele>1131.857142857143</ele><time>2026-03-28T12:57:43.03Z</time></trkpt><trkpt lat="44.1213348" lon="11.27344"><ele>1130.2857142857142</ele><time>2026-03-28T12:57:57.964Z</time></trkpt><trkpt lat="44.1212728" lon="11.2734775"><ele>1128.7142857142858</ele><time>2026-03-28T12:58:07.085Z</time></trkpt><trkpt lat="44.121217" lon="11.2734266"><ele>1127.142857142857</ele><time>2026-03-28T12:58:20.115Z</time></trkpt><trkpt lat="44.1211793" lon="11.273343"><ele>1125.5714285714287</ele><time>2026-03-28T12:58:26.931Z</time></trkpt><trkpt lat="44.1211235" lon="11.2733006"><ele>1124.0</ele><time>2026-03-28T12:58:36.346Z</time></trkpt><trkpt lat="44.1211063" lon="11.2732081"><ele>1124.0000000000002</ele><time>2026-03-28T12:58:45.929Z</time></trkpt><trkpt lat="44.1210829" lon="11.2731189"><ele>1124.0</ele><time>2026-03-28T12:58:52.964Z</time></trkpt><trkpt lat="44.1210639" lon="11.2730298"><ele>1124.0</ele><time>2026-03-28T12:58:59.97Z</time></trkpt><trkpt lat="44.1209984" lon="11.2730406"><ele>1124.0</ele><time>2026-03-28T12:59:10.932Z</time></trkpt><trkpt lat="44.1209319" lon="11.2730766"><ele>1124.0</ele><time>2026-03-28T12:59:18.914Z</time></trkpt><trkpt lat="44.1208751" lon="11.2731291"><ele>1124.0000000000002</ele><time>2026-03-28T12:59:23.962Z</time></trkpt><trkpt lat="44.1208184" lon="11.2730887"><ele>1124.0</ele><time>2026-03-28T13:00:01.791Z</time></trkpt><trkpt lat="44.1207593" lon="11.2730293"><ele>1123.7142857142858</ele><time>2026-03-28T13:00:12.975Z</time></trkpt><trkpt lat="44.1206964" lon="11.273016"><ele>1123.4285714285716</ele><time>2026-03-28T13:00:17.987Z</time></trkpt><trkpt lat="44.1206286" lon="11.2730312"><ele>1123.142857142857</ele><time>2026-03-28T13:00:27.007Z</time></trkpt><trkpt lat="44.1205798" lon="11.2729755"><ele>1122.857142857143</ele><time>2026-03-28T13:00:35.025Z</time></trkpt><trkpt lat="44.120528" lon="11.2729248"><ele>1122.5714285714284</ele><time>2026-03-28T13:00:42.944Z</time></trkpt><trkpt lat="44.1204592" lon="11.2729129"><ele>1122.2857142857142</ele><time>2026-03-28T13:00:54.971Z</time></trkpt><trkpt lat="44.1203999" lon="11.2728697"><ele>1122.0</ele><time>2026-03-28T13:01:04.994Z</time></trkpt><trkpt lat="44.1203424" lon="11.2728069"><ele>1122.0</ele><time>2026-03-28T13:01:13.013Z</time></trkpt><trkpt lat="44.1202889" lon="11.2727603"><ele>1122.0</ele><time>2026-03-28T13:01:20.993Z</time></trkpt><trkpt lat="44.1202324" lon="11.2727088"><ele>1122.0</ele><time>2026-03-28T13:01:30.052Z</time></trkpt><trkpt lat="44.1201766" lon="11.2726571"><ele>1122.0</ele><time>2026-03-28T13:01:38.972Z</time></trkpt><trkpt lat="44.1201121" lon="11.2726288"><ele>1122.0</ele><time>2026-03-28T13:01:45.988Z</time></trkpt><trkpt lat="44.1200482" lon="11.2726196"><ele>1122.0</ele><time>2026-03-28T13:01:53.019Z</time></trkpt><trkpt lat="44.1199687" lon="11.2726323"><ele>1122.0</ele><time>2026-03-28T13:02:03.928Z</time></trkpt><trkpt lat="44.1199019" lon="11.2726256"><ele>1122.4285714285713</ele><time>2026-03-28T13:02:08.038Z</time></trkpt><trkpt lat="44.1198288" lon="11.2726207"><ele>1122.8571428571427</ele><time>2026-03-28T13:02:14.954Z</time></trkpt><trkpt lat="44.1197698" lon="11.2726589"><ele>1123.2857142857142</ele><time>2026-03-28T13:02:20.88Z</time></trkpt><trkpt lat="44.1197026" lon="11.2726672"><ele>1123.7142857142858</ele><time>2026-03-28T13:02:26.981Z</time></trkpt><trkpt lat="44.1196417" lon="11.2727146"><ele>1124.1428571428573</ele><time>2026-03-28T13:02:47.039Z</time></trkpt><trkpt lat="44.1195939" lon="11.2726541"><ele>1124.5714285714287</ele><time>2026-03-28T13:02:51.036Z</time></trkpt><trkpt lat="44.1195535" lon="11.2725807"><ele>1125.0</ele><time>2026-03-28T13:02:56.994Z</time></trkpt><trkpt lat="44.1194913" lon="11.2726077"><ele>1125.0</ele><time>2026-03-28T13:03:06.972Z</time></trkpt><trkpt lat="44.1194274" lon="11.2726157"><ele>1125.0</ele><time>2026-03-28T13:03:25.013Z</time></trkpt><trkpt lat="44.1194028" lon="11.2727043"><ele>1125.0</ele><time>2026-03-28T13:03:49.97Z</time></trkpt><trkpt lat="44.1193371" lon="11.2727121"><ele>1125.0</ele><time>2026-03-28T13:03:54.913Z</time></trkpt><trkpt lat="44.1192719" lon="11.2727223"><ele>1125.0</ele><time>2026-03-28T13:04:01.996Z</time></trkpt><trkpt lat="44.1192083" lon="11.2727094"><ele>1125.0</ele><time>2026-03-28T13:04:09.013Z</time></trkpt><trkpt lat="44.1191547" lon="11.2727701"><ele>1125.0</ele><time>2026-03-28T13:04:28.958Z</time></trkpt><trkpt lat="44.1190891" lon="11.2727779"><ele>1124.7142857142858</ele><time>2026-03-28T13:04:36.976Z</time></trkpt><trkpt lat="44.1190242" lon="11.2727653"><ele>1124.4285714285716</ele><time>2026-03-28T13:04:43.915Z</time></trkpt><trkpt lat="44.1189674" lon="11.2728197"><ele>1124.142857142857</ele><time>2026-03-28T13:04:52.01Z</time></trkpt><trkpt lat="44.1189136" lon="11.2728765"><ele>1123.857142857143</ele><time>2026-03-28T13:05:00.028Z</time></trkpt><trkpt lat="44.1188462" lon="11.2728864"><ele>1123.5714285714284</ele><time>2026-03-28T13:05:10.054Z</time></trkpt><trkpt lat="44.1187783" lon="11.272896"><ele>1123.2857142857142</ele><time>2026-03-28T13:05:18.971Z</time></trkpt><trkpt lat="44.1187139" lon="11.2729242"><ele>1123.0</ele><time>2026-03-28T13:05:26Z</time></trkpt><trkpt lat="44.1186508" lon="11.2729467"><ele>1122.9999999999998</ele><time>2026-03-28T13:05:34.004Z</time></trkpt><trkpt lat="44.1185859" lon="11.2729463"><ele>1123.0</ele><time>2026-03-28T13:05:42.023Z</time></trkpt><trkpt lat="44.1185187" lon="11.2729376"><ele>1123.0</ele><time>2026-03-28T13:05:52.238Z</time></trkpt><trkpt lat="44.1184488" lon="11.2729262"><ele>1123.0</ele><time>2026-03-28T13:05:59.963Z</time></trkpt><trkpt lat="44.1183819" lon="11.2729326"><ele>1123.0</ele><time>2026-03-28T13:06:07.03Z</time></trkpt><trkpt lat="44.1183372" lon="11.2728637"><ele>1122.9999999999998</ele><time>2026-03-28T13:06:15.991Z</time></trkpt><trkpt lat="44.1182682" lon="11.27288"><ele>1123.0</ele><time>2026-03-28T13:06:23.015Z</time></trkpt><trkpt lat="44.1182103" lon="11.2729293"><ele>1120.7142857142856</ele><time>2026-03-28T13:06:29.028Z</time></trkpt><trkpt lat="44.1181452" lon="11.2729543"><ele>1118.4285714285713</ele><time>2026-03-28T13:06:37.948Z</time></trkpt><trkpt lat="44.11808" lon="11.2729711"><ele>1116.142857142857</ele><time>2026-03-28T13:06:46.066Z</time></trkpt><trkpt lat="44.1180125" lon="11.2730031"><ele>1113.8571428571427</ele><time>2026-03-28T13:06:55.988Z</time></trkpt><trkpt lat="44.1179723" lon="11.27308"><ele>1111.5714285714284</ele><time>2026-03-28T13:07:01.901Z</time></trkpt><trkpt lat="44.1179195" lon="11.273032"><ele>1109.2857142857142</ele><time>2026-03-28T13:07:09.953Z</time></trkpt><trkpt lat="44.1178694" lon="11.2729672"><ele>1107.0</ele><time>2026-03-28T13:07:16.033Z</time></trkpt><trkpt lat="44.1178244" lon="11.2728926"><ele>1107.0</ele><time>2026-03-28T13:07:24.051Z</time></trkpt><trkpt lat="44.1177627" lon="11.2728604"><ele>1107.0</ele><time>2026-03-28T13:07:30.966Z</time></trkpt><trkpt lat="44.1177016" lon="11.2728908"><ele>1107.0</ele><time>2026-03-28T13:07:54.017Z</time></trkpt><trkpt lat="44.1176404" lon="11.2729493"><ele>1107.0</ele><time>2026-03-28T13:08:02.036Z</time></trkpt><trkpt lat="44.1175827" lon="11.2729856"><ele>1107.0</ele><time>2026-03-28T13:08:09.055Z</time></trkpt><trkpt lat="44.117521" lon="11.2730164"><ele>1107.0</ele><time>2026-03-28T13:08:19.976Z</time></trkpt><trkpt lat="44.1174572" lon="11.273018"><ele>1107.0</ele><time>2026-03-28T13:08:45.933Z</time></trkpt><trkpt lat="44.1173988" lon="11.2729844"><ele>1105.857142857143</ele><time>2026-03-28T13:08:51.902Z</time></trkpt><trkpt lat="44.1173194" lon="11.2729651"><ele>1104.7142857142858</ele><time>2026-03-28T13:08:58.052Z</time></trkpt><trkpt lat="44.1172475" lon="11.2729536"><ele>1103.5714285714284</ele><time>2026-03-28T13:09:02.972Z</time></trkpt><trkpt lat="44.1171783" lon="11.2729651"><ele>1102.4285714285716</ele><time>2026-03-28T13:09:07.936Z</time></trkpt><trkpt lat="44.1171222" lon="11.2729208"><ele>1101.2857142857142</ele><time>2026-03-28T13:09:18.006Z</time></trkpt><trkpt lat="44.11706" lon="11.2728942"><ele>1100.142857142857</ele><time>2026-03-28T13:09:25.032Z</time></trkpt><trkpt lat="44.1169939" lon="11.2728769"><ele>1099.0</ele><time>2026-03-28T13:09:33.039Z</time></trkpt><trkpt lat="44.1169176" lon="11.2728654"><ele>1099.0</ele><time>2026-03-28T13:09:40.991Z</time></trkpt><trkpt lat="44.1168557" lon="11.2728472"><ele>1099.0</ele><time>2026-03-28T13:09:48.975Z</time></trkpt><trkpt lat="44.1167938" lon="11.2729024"><ele>1099.0</ele><time>2026-03-28T13:09:53.987Z</time></trkpt><trkpt lat="44.1167367" lon="11.2729604"><ele>1099.0</ele><time>2026-03-28T13:09:59.031Z</time></trkpt><trkpt lat="44.1166895" lon="11.2730186"><ele>1099.0</ele><time>2026-03-28T13:10:03.006Z</time></trkpt><trkpt lat="44.116625" lon="11.2730254"><ele>1099.0</ele><time>2026-03-28T13:10:10.023Z</time></trkpt><trkpt lat="44.1165744" lon="11.2729594"><ele>1099.0</ele><time>2026-03-28T13:10:14.536Z</time></trkpt><trkpt lat="44.116529" lon="11.272873"><ele>1099.2857142857142</ele><time>2026-03-28T13:10:19.043Z</time></trkpt><trkpt lat="44.1164987" lon="11.2727794"><ele>1099.5714285714284</ele><time>2026-03-28T13:10:25.028Z</time></trkpt><trkpt lat="44.1164656" lon="11.2726955"><ele>1099.857142857143</ele><time>2026-03-28T13:10:31.972Z</time></trkpt><trkpt lat="44.1164183" lon="11.272622"><ele>1100.142857142857</ele><time>2026-03-28T13:10:40.991Z</time></trkpt><trkpt lat="44.1163588" lon="11.2725879"><ele>1100.4285714285713</ele><time>2026-03-28T13:10:48.007Z</time></trkpt><trkpt lat="44.1162959" lon="11.2726243"><ele>1100.7142857142858</ele><time>2026-03-28T13:10:54.021Z</time></trkpt><trkpt lat="44.1162316" lon="11.2726569"><ele>1101.0</ele><time>2026-03-28T13:11:00.034Z</time></trkpt><trkpt lat="44.1161613" lon="11.2727075"><ele>1101.0</ele><time>2026-03-28T13:11:06.046Z</time></trkpt><trkpt lat="44.1160973" lon="11.2727504"><ele>1101.0</ele><time>2026-03-28T13:11:12.955Z</time></trkpt><trkpt lat="44.1160305" lon="11.2727713"><ele>1101.0</ele><time>2026-03-28T13:11:21.982Z</time></trkpt><trkpt lat="44.1159639" lon="11.272782"><ele>1101.0</ele><time>2026-03-28T13:11:31.017Z</time></trkpt><trkpt lat="44.1158956" lon="11.272759"><ele>1101.0</ele><time>2026-03-28T13:11:36.949Z</time></trkpt><trkpt lat="44.1158273" lon="11.2727695"><ele>1101.0</ele><time>2026-03-28T13:11:46.036Z</time></trkpt><trkpt lat="44.1157742" lon="11.2728229"><ele>1101.0</ele><time>2026-03-28T13:11:54.955Z</time></trkpt><trkpt lat="44.1157091" lon="11.2728333"><ele>1100.0</ele><time>2026-03-28T13:12:04.878Z</time></trkpt><trkpt lat="44.115641" lon="11.2728603"><ele>1099.0</ele><time>2026-03-28T13:12:12.988Z</time></trkpt><trkpt lat="44.1155829" lon="11.272916"><ele>1098.0</ele><time>2026-03-28T13:12:38.953Z</time></trkpt><trkpt lat="44.1155269" lon="11.272968"><ele>1097.0</ele><time>2026-03-28T13:12:41.96Z</time></trkpt><trkpt lat="44.1155866" lon="11.2729334"><ele>1096.0</ele><time>2026-03-28T13:13:07.905Z</time></trkpt><trkpt lat="44.1156352" lon="11.2728758"><ele>1095.0</ele><time>2026-03-28T13:13:15.905Z</time></trkpt><trkpt lat="44.1155731" lon="11.2729171"><ele>1094.0</ele><time>2026-03-28T13:13:46.904Z</time></trkpt><trkpt lat="44.1155718" lon="11.2730123"><ele>1094.0</ele><time>2026-03-28T13:13:50.905Z</time></trkpt><trkpt lat="44.1155051" lon="11.2729863"><ele>1094.0</ele><time>2026-03-28T13:13:57.905Z</time></trkpt><trkpt lat="44.1154938" lon="11.2728982"><ele>1094.0</ele><time>2026-03-28T13:14:00.905Z</time></trkpt><trkpt lat="44.1154298" lon="11.272924"><ele>1094.0</ele><time>2026-03-28T13:14:06.905Z</time></trkpt><trkpt lat="44.1153876" lon="11.2729899"><ele>1094.0</ele><time>2026-03-28T13:14:13.905Z</time></trkpt><trkpt lat="44.1153154" lon="11.272996"><ele>1094.0</ele><time>2026-03-28T13:14:20.906Z</time></trkpt><trkpt lat="44.1152549" lon="11.2729699"><ele>1094.0</ele><time>2026-03-28T13:14:29.926Z</time></trkpt><trkpt lat="44.1151974" lon="11.2729172"><ele>1094.0</ele><time>2026-03-28T13:14:39.047Z</time></trkpt><trkpt lat="44.1151333" lon="11.2729035"><ele>1094.0</ele><time>2026-03-28T13:14:55.985Z</time></trkpt><trkpt lat="44.1150872" lon="11.2729635"><ele>1094.0</ele><time>2026-03-28T13:15:03.987Z</time></trkpt><trkpt lat="44.1150374" lon="11.2730288"><ele>1094.0</ele><time>2026-03-28T13:15:14.025Z</time></trkpt><trkpt lat="44.1149747" lon="11.2730602"><ele>1094.0</ele><time>2026-03-28T13:15:21.943Z</time></trkpt><trkpt lat="44.1149114" lon="11.2730977"><ele>1094.0</ele><time>2026-03-28T13:15:28.862Z</time></trkpt><trkpt lat="44.1148474" lon="11.2730698"><ele>1094.0</ele><time>2026-03-28T13:15:55.018Z</time></trkpt><trkpt lat="44.1148975" lon="11.2731329"><ele>1093.7142857142858</ele><time>2026-03-28T13:16:13.959Z</time></trkpt><trkpt lat="44.1148362" lon="11.2731555"><ele>1093.4285714285713</ele><time>2026-03-28T13:16:50.04Z</time></trkpt><trkpt lat="44.1147734" lon="11.2731743"><ele>1093.142857142857</ele><time>2026-03-28T13:16:59.962Z</time></trkpt><trkpt lat="44.1147084" lon="11.2732002"><ele>1092.857142857143</ele><time>2026-03-28T13:17:09.887Z</time></trkpt><trkpt lat="44.1146462" lon="11.2732162"><ele>1092.5714285714284</ele><time>2026-03-28T13:17:18.001Z</time></trkpt><trkpt lat="44.1145814" lon="11.2732518"><ele>1092.2857142857142</ele><time>2026-03-28T13:17:24.015Z</time></trkpt><trkpt lat="44.1145193" lon="11.2732715"><ele>1092.0</ele><time>2026-03-28T13:17:29.927Z</time></trkpt><trkpt lat="44.1144574" lon="11.2733105"><ele>1092.0</ele><time>2026-03-28T13:17:39.951Z</time></trkpt><trkpt lat="44.1144" lon="11.2733503"><ele>1092.0</ele><time>2026-03-28T13:17:53.982Z</time></trkpt><trkpt lat="44.1143381" lon="11.2733184"><ele>1092.0</ele><time>2026-03-28T13:18:00.997Z</time></trkpt><trkpt lat="44.1142694" lon="11.2733033"><ele>1092.0</ele><time>2026-03-28T13:18:08.013Z</time></trkpt><trkpt lat="44.1142034" lon="11.2732767"><ele>1092.0</ele><time>2026-03-28T13:18:15.029Z</time></trkpt><trkpt lat="44.1141384" lon="11.2732728"><ele>1092.0</ele><time>2026-03-28T13:18:22.044Z</time></trkpt><trkpt lat="44.1140779" lon="11.2733308"><ele>1092.0</ele><time>2026-03-28T13:18:29.026Z</time></trkpt><trkpt lat="44.1140222" lon="11.2733844"><ele>1090.2857142857142</ele><time>2026-03-28T13:18:35.072Z</time></trkpt><trkpt lat="44.1139601" lon="11.2734282"><ele>1088.5714285714284</ele><time>2026-03-28T13:18:42.991Z</time></trkpt><trkpt lat="44.1139013" lon="11.2734684"><ele>1086.857142857143</ele><time>2026-03-28T13:18:51.008Z</time></trkpt><trkpt lat="44.1138381" lon="11.273501"><ele>1085.142857142857</ele><time>2026-03-28T13:18:57.085Z</time></trkpt><trkpt lat="44.113774" lon="11.2734911"><ele>1083.4285714285713</ele><time>2026-03-28T13:19:01.932Z</time></trkpt><trkpt lat="44.1137184" lon="11.2735476"><ele>1081.7142857142858</ele><time>2026-03-28T13:19:10.952Z</time></trkpt><trkpt lat="44.1136573" lon="11.2735203"><ele>1080.0</ele><time>2026-03-28T13:19:20.975Z</time></trkpt><trkpt lat="44.113593" lon="11.2735159"><ele>1080.0</ele><time>2026-03-28T13:19:28.992Z</time></trkpt><trkpt lat="44.1135291" lon="11.2735241"><ele>1080.0</ele><time>2026-03-28T13:19:36.008Z</time></trkpt><trkpt lat="44.1134656" lon="11.2735412"><ele>1080.0</ele><time>2026-03-28T13:19:43.988Z</time></trkpt><trkpt lat="44.1134007" lon="11.2735691"><ele>1080.0</ele><time>2026-03-28T13:19:52.043Z</time></trkpt><trkpt lat="44.1133418" lon="11.2736101"><ele>1080.0</ele><time>2026-03-28T13:19:59.96Z</time></trkpt><trkpt lat="44.1132744" lon="11.2736287"><ele>1080.0</ele><time>2026-03-28T13:20:09.982Z</time></trkpt><trkpt lat="44.1132109" lon="11.2736479"><ele>1080.0</ele><time>2026-03-28T13:20:17.999Z</time></trkpt><trkpt lat="44.1131448" lon="11.2736798"><ele>1078.0</ele><time>2026-03-28T13:20:27.922Z</time></trkpt><trkpt lat="44.1130737" lon="11.2736937"><ele>1076.0</ele><time>2026-03-28T13:20:41.051Z</time></trkpt><trkpt lat="44.1129897" lon="11.2737207"><ele>1074.0</ele><time>2026-03-28T13:21:00.994Z</time></trkpt><trkpt lat="44.1129252" lon="11.2737445"><ele>1072.0</ele><time>2026-03-28T13:21:10.014Z</time></trkpt><trkpt lat="44.1128608" lon="11.2737578"><ele>1070.0</ele><time>2026-03-28T13:21:19.034Z</time></trkpt><trkpt lat="44.1127971" lon="11.2737984"><ele>1068.0</ele><time>2026-03-28T13:21:26.968Z</time></trkpt><trkpt lat="44.1127527" lon="11.2738749"><ele>1066.0</ele><time>2026-03-28T13:21:33.967Z</time></trkpt><trkpt lat="44.1126903" lon="11.2739001"><ele>1066.0</ele><time>2026-03-28T13:21:43.983Z</time></trkpt><trkpt lat="44.112621" lon="11.2738961"><ele>1066.0</ele><time>2026-03-28T13:21:52.007Z</time></trkpt><trkpt lat="44.1125534" lon="11.2738835"><ele>1066.0</ele><time>2026-03-28T13:22:01.026Z</time></trkpt><trkpt lat="44.1124907" lon="11.2738942"><ele>1066.0</ele><time>2026-03-28T13:22:08.944Z</time></trkpt><trkpt lat="44.1124309" lon="11.273922"><ele>1066.0</ele><time>2026-03-28T13:22:18.006Z</time></trkpt><trkpt lat="44.112356" lon="11.2739304"><ele>1066.0</ele><time>2026-03-28T13:22:24.979Z</time></trkpt><trkpt lat="44.1122879" lon="11.27395"><ele>1066.0</ele><time>2026-03-28T13:22:32.997Z</time></trkpt><trkpt lat="44.1122344" lon="11.2739974"><ele>1066.7142857142858</ele><time>2026-03-28T13:22:41.014Z</time></trkpt><trkpt lat="44.1121818" lon="11.2740574"><ele>1067.4285714285713</ele><time>2026-03-28T13:22:53.041Z</time></trkpt><trkpt lat="44.1121153" lon="11.2740581"><ele>1068.142857142857</ele><time>2026-03-28T13:23:00.861Z</time></trkpt><trkpt lat="44.1120581" lon="11.2740185"><ele>1068.857142857143</ele><time>2026-03-28T13:23:11.906Z</time></trkpt><trkpt lat="44.1120206" lon="11.2739477"><ele>1069.5714285714284</ele><time>2026-03-28T13:23:25.01Z</time></trkpt><trkpt lat="44.1119892" lon="11.2738531"><ele>1070.2857142857142</ele><time>2026-03-28T13:23:45.878Z</time></trkpt><trkpt lat="44.1119781" lon="11.2737603"><ele>1071.0</ele><time>2026-03-28T13:23:53.972Z</time></trkpt><trkpt lat="44.1119878" lon="11.2736697"><ele>1068.142857142857</ele><time>2026-03-28T13:24:04.997Z</time></trkpt><trkpt lat="44.1120118" lon="11.2735759"><ele>1065.2857142857142</ele><time>2026-03-28T13:24:13.96Z</time></trkpt><trkpt lat="44.1120474" lon="11.2734981"><ele>1062.4285714285716</ele><time>2026-03-28T13:24:23.036Z</time></trkpt><trkpt lat="44.1120557" lon="11.2733865"><ele>1059.5714285714284</ele><time>2026-03-28T13:24:52.907Z</time></trkpt><trkpt lat="44.1120169" lon="11.2732843"><ele>1056.7142857142858</ele><time>2026-03-28T13:24:57.914Z</time></trkpt><trkpt lat="44.1119731" lon="11.2732112"><ele>1053.857142857143</ele><time>2026-03-28T13:25:03.927Z</time></trkpt><trkpt lat="44.1119043" lon="11.2732475"><ele>1051.0</ele><time>2026-03-28T13:25:23.972Z</time></trkpt><trkpt lat="44.1118509" lon="11.2732975"><ele>1051.0</ele><time>2026-03-28T13:25:30.988Z</time></trkpt><trkpt lat="44.1118212" lon="11.273391"><ele>1051.0</ele><time>2026-03-28T13:25:52.438Z</time></trkpt><trkpt lat="44.1117606" lon="11.2734336"><ele>1051.0</ele><time>2026-03-28T13:26:06.966Z</time></trkpt><trkpt lat="44.1116957" lon="11.273419"><ele>1051.0</ele><time>2026-03-28T13:26:15.986Z</time></trkpt><trkpt lat="44.1116357" lon="11.2734594"><ele>1051.0</ele><time>2026-03-28T13:26:26.008Z</time></trkpt><trkpt lat="44.1115839" lon="11.2735111"><ele>1051.0</ele><time>2026-03-28T13:26:31.976Z</time></trkpt><trkpt lat="44.1115268" lon="11.2735499"><ele>1051.0</ele><time>2026-03-28T13:26:42.945Z</time></trkpt><trkpt lat="44.1114635" lon="11.273587"><ele>1048.857142857143</ele><time>2026-03-28T13:26:52.99Z</time></trkpt><trkpt lat="44.1114015" lon="11.2736232"><ele>1046.7142857142858</ele><time>2026-03-28T13:26:59.983Z</time></trkpt><trkpt lat="44.1113321" lon="11.2736417"><ele>1044.5714285714284</ele><time>2026-03-28T13:27:09.002Z</time></trkpt><trkpt lat="44.1112687" lon="11.2736518"><ele>1042.4285714285716</ele><time>2026-03-28T13:27:18.924Z</time></trkpt><trkpt lat="44.1112064" lon="11.273669"><ele>1040.2857142857142</ele><time>2026-03-28T13:27:27.943Z</time></trkpt><trkpt lat="44.1111388" lon="11.2736778"><ele>1038.142857142857</ele><time>2026-03-28T13:27:36.963Z</time></trkpt><trkpt lat="44.1110768" lon="11.2736945"><ele>1036.0</ele><time>2026-03-28T13:27:46.985Z</time></trkpt><trkpt lat="44.1110155" lon="11.2736516"><ele>1036.0</ele><time>2026-03-28T13:27:57.007Z</time></trkpt><trkpt lat="44.1109753" lon="11.2737313"><ele>1036.0</ele><time>2026-03-28T13:28:25.97Z</time></trkpt><trkpt lat="44.110934" lon="11.2737984"><ele>1036.0</ele><time>2026-03-28T13:28:30.98Z</time></trkpt><trkpt lat="44.1108709" lon="11.2738434"><ele>1036.0</ele><time>2026-03-28T13:28:38.998Z</time></trkpt><trkpt lat="44.1108083" lon="11.2738565"><ele>1036.0</ele><time>2026-03-28T13:28:46.013Z</time></trkpt><trkpt lat="44.1107331" lon="11.2738457"><ele>1036.0</ele><time>2026-03-28T13:28:54.03Z</time></trkpt><trkpt lat="44.1106676" lon="11.2738282"><ele>1036.0</ele><time>2026-03-28T13:28:59.996Z</time></trkpt><trkpt lat="44.1106052" lon="11.2737868"><ele>1036.2857142857142</ele><time>2026-03-28T13:29:07.059Z</time></trkpt><trkpt lat="44.1105498" lon="11.2737251"><ele>1036.5714285714284</ele><time>2026-03-28T13:29:15.977Z</time></trkpt><trkpt lat="44.1104778" lon="11.2737057"><ele>1036.857142857143</ele><time>2026-03-28T13:29:30.008Z</time></trkpt><trkpt lat="44.1104286" lon="11.2736356"><ele>1037.142857142857</ele><time>2026-03-28T13:30:06.908Z</time></trkpt><trkpt lat="44.1103588" lon="11.2736476"><ele>1037.4285714285713</ele><time>2026-03-28T13:30:16.908Z</time></trkpt><trkpt lat="44.1102999" lon="11.2736068"><ele>1037.7142857142858</ele><time>2026-03-28T13:30:26.976Z</time></trkpt><trkpt lat="44.1102433" lon="11.2736609"><ele>1038.0</ele><time>2026-03-28T13:30:41.005Z</time></trkpt><trkpt lat="44.110181" lon="11.27368"><ele>1038.0</ele><time>2026-03-28T13:30:54.879Z</time></trkpt><trkpt lat="44.1101335" lon="11.2736159"><ele>1038.0</ele><time>2026-03-28T13:31:06.016Z</time></trkpt><trkpt lat="44.1100687" lon="11.2735866"><ele>1038.0</ele><time>2026-03-28T13:31:11.973Z</time></trkpt><trkpt lat="44.1100003" lon="11.2735915"><ele>1038.0</ele><time>2026-03-28T13:31:18.989Z</time></trkpt><trkpt lat="44.1099401" lon="11.2736402"><ele>1038.0</ele><time>2026-03-28T13:31:25.002Z</time></trkpt><trkpt lat="44.1098782" lon="11.2736804"><ele>1038.0</ele><time>2026-03-28T13:31:35.023Z</time></trkpt><trkpt lat="44.1098132" lon="11.2737105"><ele>1038.0</ele><time>2026-03-28T13:31:43.042Z</time></trkpt><trkpt lat="44.1097503" lon="11.2737296"><ele>1037.2857142857142</ele><time>2026-03-28T13:31:50.959Z</time></trkpt><trkpt lat="44.1096818" lon="11.2737296"><ele>1036.5714285714284</ele><time>2026-03-28T13:31:57.974Z</time></trkpt><trkpt lat="44.1096187" lon="11.2737601"><ele>1035.857142857143</ele><time>2026-03-28T13:32:04.989Z</time></trkpt><trkpt lat="44.1095523" lon="11.2737809"><ele>1035.142857142857</ele><time>2026-03-28T13:32:11.002Z</time></trkpt><trkpt lat="44.1094857" lon="11.2738004"><ele>1034.4285714285716</ele><time>2026-03-28T13:32:18.018Z</time></trkpt><trkpt lat="44.1094251" lon="11.2737766"><ele>1033.7142857142858</ele><time>2026-03-28T13:32:26.038Z</time></trkpt><trkpt lat="44.1093588" lon="11.2737913"><ele>1033.0</ele><time>2026-03-28T13:32:33.952Z</time></trkpt><trkpt lat="44.1092907" lon="11.2738008"><ele>1033.0000000000002</ele><time>2026-03-28T13:33:24.035Z</time></trkpt><trkpt lat="44.1092263" lon="11.2738232"><ele>1033.0</ele><time>2026-03-28T13:33:31.977Z</time></trkpt><trkpt lat="44.1091599" lon="11.2737978"><ele>1033.0</ele><time>2026-03-28T13:33:41.041Z</time></trkpt><trkpt lat="44.1090943" lon="11.273831"><ele>1033.0</ele><time>2026-03-28T13:33:49.015Z</time></trkpt><trkpt lat="44.1090455" lon="11.2738918"><ele>1033.0</ele><time>2026-03-28T13:33:54.026Z</time></trkpt><trkpt lat="44.1089776" lon="11.2738554"><ele>1033.0000000000002</ele><time>2026-03-28T13:33:56.934Z</time></trkpt><trkpt lat="44.1089091" lon="11.27383"><ele>1033.0</ele><time>2026-03-28T13:34:01.041Z</time></trkpt><trkpt lat="44.1088395" lon="11.2738346"><ele>1033.0000000000002</ele><time>2026-03-28T13:34:16.958Z</time></trkpt><trkpt lat="44.1087757" lon="11.2738215"><ele>1033.0</ele><time>2026-03-28T13:34:27.999Z</time></trkpt><trkpt lat="44.1087173" lon="11.2738554"><ele>1033.0</ele><time>2026-03-28T13:34:36.762Z</time></trkpt><trkpt lat="44.1086562" lon="11.2738867"><ele>1033.0</ele><time>2026-03-28T13:34:45.981Z</time></trkpt><trkpt lat="44.1085968" lon="11.2739344"><ele>1033.0</ele><time>2026-03-28T13:34:54.958Z</time></trkpt><trkpt lat="44.1085361" lon="11.2738859"><ele>1033.0000000000002</ele><time>2026-03-28T13:35:08.001Z</time></trkpt><trkpt lat="44.1084716" lon="11.2738506"><ele>1033.0</ele><time>2026-03-28T13:35:15.997Z</time></trkpt><trkpt lat="44.1084427" lon="11.2737687"><ele>1033.0000000000002</ele><time>2026-03-28T13:35:25.024Z</time></trkpt><trkpt lat="44.1083893" lon="11.2738193"><ele>1033.0</ele><time>2026-03-28T13:35:53.985Z</time></trkpt><trkpt lat="44.1083201" lon="11.2738487"><ele>1033.0</ele><time>2026-03-28T13:36:03.006Z</time></trkpt><trkpt lat="44.1082595" lon="11.2738056"><ele>1033.0</ele><time>2026-03-28T13:36:11.023Z</time></trkpt><trkpt lat="44.1081903" lon="11.273802"><ele>1033.0</ele><time>2026-03-28T13:36:20.945Z</time></trkpt><trkpt lat="44.1081246" lon="11.2737937"><ele>1033.0000000000002</ele><time>2026-03-28T13:36:31.067Z</time></trkpt><trkpt lat="44.1080571" lon="11.2738256"><ele>1033.0</ele><time>2026-03-28T13:36:41.99Z</time></trkpt><trkpt lat="44.1079886" lon="11.2738128"><ele>1032.5714285714287</ele><time>2026-03-28T13:36:51.01Z</time></trkpt><trkpt lat="44.1079193" lon="11.2738257"><ele>1032.142857142857</ele><time>2026-03-28T13:36:59.027Z</time></trkpt><trkpt lat="44.1078601" lon="11.2738591"><ele>1031.7142857142858</ele><time>2026-03-28T13:37:02.898Z</time></trkpt><trkpt lat="44.1078083" lon="11.2739192"><ele>1031.2857142857142</ele><time>2026-03-28T13:37:09.049Z</time></trkpt><trkpt lat="44.1077548" lon="11.2739673"><ele>1030.857142857143</ele><time>2026-03-28T13:37:24.983Z</time></trkpt><trkpt lat="44.1077004" lon="11.2740227"><ele>1030.4285714285716</ele><time>2026-03-28T13:37:32.917Z</time></trkpt><trkpt lat="44.1076329" lon="11.2740602"><ele>1030.0</ele><time>2026-03-28T13:37:36.945Z</time></trkpt><trkpt lat="44.1075683" lon="11.2741143"><ele>1030.2857142857142</ele><time>2026-03-28T13:37:39.915Z</time></trkpt><trkpt lat="44.1075108" lon="11.2741641"><ele>1030.5714285714284</ele><time>2026-03-28T13:37:45.026Z</time></trkpt><trkpt lat="44.1074483" lon="11.2741858"><ele>1030.8571428571427</ele><time>2026-03-28T13:37:53.946Z</time></trkpt><trkpt lat="44.1073815" lon="11.27418"><ele>1031.142857142857</ele><time>2026-03-28T13:38:07.939Z</time></trkpt><trkpt lat="44.1073256" lon="11.2741243"><ele>1031.4285714285713</ele><time>2026-03-28T13:38:52.976Z</time></trkpt><trkpt lat="44.1072759" lon="11.2740673"><ele>1031.7142857142856</ele><time>2026-03-28T13:38:59.059Z</time></trkpt><trkpt lat="44.1072223" lon="11.2740154"><ele>1032.0</ele><time>2026-03-28T13:39:08.009Z</time></trkpt><trkpt lat="44.1071563" lon="11.2740166"><ele>1031.9999999999998</ele><time>2026-03-28T13:39:14.924Z</time></trkpt><trkpt lat="44.107078" lon="11.2740294"><ele>1032.0</ele><time>2026-03-28T13:39:20.036Z</time></trkpt><trkpt lat="44.1070103" lon="11.2740147"><ele>1032.0</ele><time>2026-03-28T13:39:28.053Z</time></trkpt><trkpt lat="44.1069702" lon="11.2739444"><ele>1032.0</ele><time>2026-03-28T13:39:37.035Z</time></trkpt><trkpt lat="44.1069206" lon="11.2738733"><ele>1032.0</ele><time>2026-03-28T13:39:46.016Z</time></trkpt><trkpt lat="44.106853" lon="11.2738492"><ele>1031.9999999999998</ele><time>2026-03-28T13:39:54.009Z</time></trkpt><trkpt lat="44.1068112" lon="11.2737796"><ele>1032.0</ele><time>2026-03-28T13:40:01.024Z</time></trkpt><trkpt lat="44.1067561" lon="11.2737296"><ele>1030.8571428571427</ele><time>2026-03-28T13:40:09.043Z</time></trkpt><trkpt lat="44.1066875" lon="11.2737081"><ele>1029.7142857142858</ele><time>2026-03-28T13:40:16.96Z</time></trkpt><trkpt lat="44.1066256" lon="11.2736905"><ele>1028.5714285714284</ele><time>2026-03-28T13:40:24.977Z</time></trkpt><trkpt lat="44.1065741" lon="11.2736199"><ele>1027.4285714285713</ele><time>2026-03-28T13:40:48.027Z</time></trkpt><trkpt lat="44.1065266" lon="11.2735493"><ele>1026.2857142857142</ele><time>2026-03-28T13:40:55.042Z</time></trkpt><trkpt lat="44.1064628" lon="11.2735336"><ele>1025.142857142857</ele><time>2026-03-28T13:41:03.961Z</time></trkpt><trkpt lat="44.1064061" lon="11.2734806"><ele>1024.0</ele><time>2026-03-28T13:41:15.988Z</time></trkpt><trkpt lat="44.1063461" lon="11.2734531"><ele>1022.2857142857142</ele><time>2026-03-28T13:41:29.96Z</time></trkpt><trkpt lat="44.1062789" lon="11.273428"><ele>1020.5714285714284</ele><time>2026-03-28T13:41:38.035Z</time></trkpt><trkpt lat="44.10621" lon="11.2734153"><ele>1018.8571428571429</ele><time>2026-03-28T13:41:46.034Z</time></trkpt><trkpt lat="44.1061492" lon="11.2733859"><ele>1017.1428571428571</ele><time>2026-03-28T13:41:53.068Z</time></trkpt><trkpt lat="44.1060876" lon="11.2733647"><ele>1015.4285714285714</ele><time>2026-03-28T13:42:00.985Z</time></trkpt><trkpt lat="44.1060278" lon="11.2734022"><ele>1013.7142857142858</ele><time>2026-03-28T13:42:10.981Z</time></trkpt><trkpt lat="44.105961" lon="11.2734089"><ele>1012.0000000000001</ele><time>2026-03-28T13:42:19.078Z</time></trkpt><trkpt lat="44.1058935" lon="11.2734149"><ele>1012.0000000000001</ele><time>2026-03-28T13:42:32.052Z</time></trkpt><trkpt lat="44.1058359" lon="11.2733637"><ele>1012.0</ele><time>2026-03-28T13:42:44.923Z</time></trkpt><trkpt lat="44.1058009" lon="11.2732834"><ele>1012.0000000000001</ele><time>2026-03-28T13:42:55.001Z</time></trkpt><trkpt lat="44.105737" lon="11.2732722"><ele>1012.0000000000001</ele><time>2026-03-28T13:43:11.036Z</time></trkpt><trkpt lat="44.1056767" lon="11.2732301"><ele>1012.0</ele><time>2026-03-28T13:43:22.962Z</time></trkpt><trkpt lat="44.1056189" lon="11.2731633"><ele>1012.0000000000001</ele><time>2026-03-28T13:43:39.082Z</time></trkpt><trkpt lat="44.1055493" lon="11.2731711"><ele>1012.0000000000001</ele><time>2026-03-28T13:43:47.014Z</time></trkpt><trkpt lat="44.1054973" lon="11.2731215"><ele>1009.7142857142858</ele><time>2026-03-28T13:43:58.038Z</time></trkpt><trkpt lat="44.1054635" lon="11.2730424"><ele>1007.4285714285714</ele><time>2026-03-28T13:44:09.062Z</time></trkpt><trkpt lat="44.1054199" lon="11.2729732"><ele>1005.1428571428571</ele><time>2026-03-28T13:44:23.001Z</time></trkpt><trkpt lat="44.1053906" lon="11.2728887"><ele>1002.8571428571429</ele><time>2026-03-28T13:44:39.036Z</time></trkpt><trkpt lat="44.1053359" lon="11.2728319"><ele>1000.5714285714284</ele><time>2026-03-28T13:45:05.993Z</time></trkpt><trkpt lat="44.1053018" lon="11.2727573"><ele>998.2857142857142</ele><time>2026-03-28T13:45:14.054Z</time></trkpt><trkpt lat="44.1052729" lon="11.272678"><ele>996.0</ele><time>2026-03-28T13:45:26.939Z</time></trkpt><trkpt lat="44.1052822" lon="11.272583"><ele>996.0</ele><time>2026-03-28T13:45:36.961Z</time></trkpt><trkpt lat="44.1052766" lon="11.2724941"><ele>995.9999999999999</ele><time>2026-03-28T13:46:03.017Z</time></trkpt><trkpt lat="44.1052899" lon="11.2724004"><ele>996.0</ele><time>2026-03-28T13:46:19.952Z</time></trkpt><trkpt lat="44.1053028" lon="11.2723072"><ele>996.0</ele><time>2026-03-28T13:46:33.915Z</time></trkpt><trkpt lat="44.1052862" lon="11.2722217"><ele>995.9999999999999</ele><time>2026-03-28T13:46:44.939Z</time></trkpt><trkpt lat="44.1053352" lon="11.2722774"><ele>996.0</ele><time>2026-03-28T13:47:39.911Z</time></trkpt><trkpt lat="44.1053041" lon="11.2721763"><ele>996.0</ele><time>2026-03-28T13:48:01.911Z</time></trkpt><trkpt lat="44.1052767" lon="11.2720958"><ele>993.8571428571428</ele><time>2026-03-28T13:50:05.912Z</time></trkpt><trkpt lat="44.1052475" lon="11.2720179"><ele>991.7142857142856</ele><time>2026-03-28T13:50:13.912Z</time></trkpt><trkpt lat="44.1052108" lon="11.2719346"><ele>989.5714285714286</ele><time>2026-03-28T13:50:20.912Z</time></trkpt><trkpt lat="44.105158" lon="11.2718799"><ele>987.4285714285713</ele><time>2026-03-28T13:50:27.912Z</time></trkpt><trkpt lat="44.1050905" lon="11.2718662"><ele>985.2857142857142</ele><time>2026-03-28T13:50:35.912Z</time></trkpt><trkpt lat="44.1050379" lon="11.2719297"><ele>983.1428571428571</ele><time>2026-03-28T13:50:55.912Z</time></trkpt><trkpt lat="44.104972" lon="11.2719468"><ele>981.0</ele><time>2026-03-28T13:51:05.911Z</time></trkpt><trkpt lat="44.1049073" lon="11.2719718"><ele>981.0</ele><time>2026-03-28T13:51:14.912Z</time></trkpt><trkpt lat="44.1048795" lon="11.2720577"><ele>981.0</ele><time>2026-03-28T13:51:18.912Z</time></trkpt><trkpt lat="44.1048164" lon="11.2720083"><ele>981.0</ele><time>2026-03-28T13:51:26.912Z</time></trkpt><trkpt lat="44.1047441" lon="11.2720118"><ele>981.0</ele><time>2026-03-28T13:51:35.912Z</time></trkpt><trkpt lat="44.1046794" lon="11.2719804"><ele>981.0</ele><time>2026-03-28T13:51:43.911Z</time></trkpt><trkpt lat="44.1046196" lon="11.2719425"><ele>981.0</ele><time>2026-03-28T13:51:49.912Z</time></trkpt><trkpt lat="44.1045477" lon="11.2719299"><ele>981.0</ele><time>2026-03-28T13:51:54.912Z</time></trkpt><trkpt lat="44.1045002" lon="11.2718717"><ele>981.0</ele><time>2026-03-28T13:52:06.912Z</time></trkpt><trkpt lat="44.1044844" lon="11.2717779"><ele>981.0</ele><time>2026-03-28T13:52:14.912Z</time></trkpt><trkpt lat="44.1044223" lon="11.2717533"><ele>981.0</ele><time>2026-03-28T13:52:21.912Z</time></trkpt><trkpt lat="44.1043695" lon="11.2716913"><ele>981.0</ele><time>2026-03-28T13:52:31.912Z</time></trkpt><trkpt lat="44.1043226" lon="11.2716316"><ele>981.0</ele><time>2026-03-28T13:52:38.912Z</time></trkpt><trkpt lat="44.1042673" lon="11.2715715"><ele>981.0</ele><time>2026-03-28T13:52:45.912Z</time></trkpt><trkpt lat="44.1042093" lon="11.2715188"><ele>981.0</ele><time>2026-03-28T13:52:53.912Z</time></trkpt><trkpt lat="44.1041453" lon="11.2715092"><ele>981.0</ele><time>2026-03-28T13:53:02.912Z</time></trkpt><trkpt lat="44.1040827" lon="11.2714996"><ele>981.0</ele><time>2026-03-28T13:53:09.017Z</time></trkpt><trkpt lat="44.1040184" lon="11.2714979"><ele>981.0</ele><time>2026-03-28T13:53:16.059Z</time></trkpt><trkpt lat="44.103951" lon="11.2714863"><ele>981.0</ele><time>2026-03-28T13:53:22.897Z</time></trkpt><trkpt lat="44.1038826" lon="11.2714636"><ele>981.0</ele><time>2026-03-28T13:53:28.987Z</time></trkpt><trkpt lat="44.1038143" lon="11.2714405"><ele>981.0</ele><time>2026-03-28T13:53:36.036Z</time></trkpt><trkpt lat="44.1037514" lon="11.2714289"><ele>981.0</ele><time>2026-03-28T13:53:43.016Z</time></trkpt><trkpt lat="44.1036831" lon="11.2714342"><ele>980.2857142857143</ele><time>2026-03-28T13:53:51.061Z</time></trkpt><trkpt lat="44.1036165" lon="11.2714398"><ele>979.5714285714284</ele><time>2026-03-28T13:53:56.946Z</time></trkpt><trkpt lat="44.103552" lon="11.2714485"><ele>978.8571428571428</ele><time>2026-03-28T13:54:02.96Z</time></trkpt><trkpt lat="44.103489" lon="11.2714695"><ele>978.1428571428571</ele><time>2026-03-28T13:54:08.916Z</time></trkpt><trkpt lat="44.1034212" lon="11.2714722"><ele>977.4285714285713</ele><time>2026-03-28T13:54:15.988Z</time></trkpt><trkpt lat="44.1033528" lon="11.271448"><ele>976.7142857142856</ele><time>2026-03-28T13:54:22.917Z</time></trkpt><trkpt lat="44.1032937" lon="11.2714119"><ele>975.9999999999999</ele><time>2026-03-28T13:54:30.018Z</time></trkpt><trkpt lat="44.1032295" lon="11.2713941"><ele>975.9999999999999</ele><time>2026-03-28T13:54:38.035Z</time></trkpt><trkpt lat="44.1031637" lon="11.2713911"><ele>976.0</ele><time>2026-03-28T13:54:45.05Z</time></trkpt><trkpt lat="44.1030974" lon="11.2714146"><ele>975.9999999999999</ele><time>2026-03-28T13:54:53.067Z</time></trkpt><trkpt lat="44.1030354" lon="11.2714584"><ele>975.9999999999999</ele><time>2026-03-28T13:54:58.98Z</time></trkpt><trkpt lat="44.1029754" lon="11.2714997"><ele>976.0</ele><time>2026-03-28T13:55:06.997Z</time></trkpt><trkpt lat="44.1029565" lon="11.2715947"><ele>975.9999999999999</ele><time>2026-03-28T13:55:13.996Z</time></trkpt><trkpt lat="44.1028936" lon="11.2716376"><ele>975.9999999999999</ele><time>2026-03-28T13:55:38.576Z</time></trkpt><trkpt lat="44.1028301" lon="11.271631"><ele>975.9999999999999</ele><time>2026-03-28T13:55:44.979Z</time></trkpt><trkpt lat="44.1027638" lon="11.2716206"><ele>976.0</ele><time>2026-03-28T13:55:52.996Z</time></trkpt><trkpt lat="44.102698" lon="11.2715878"><ele>975.9999999999999</ele><time>2026-03-28T13:55:58.942Z</time></trkpt><trkpt lat="44.1026321" lon="11.2715584"><ele>975.9999999999999</ele><time>2026-03-28T13:56:06.024Z</time></trkpt><trkpt lat="44.1025685" lon="11.2715298"><ele>976.0</ele><time>2026-03-28T13:56:14.041Z</time></trkpt><trkpt lat="44.1024974" lon="11.2715563"><ele>975.9999999999999</ele><time>2026-03-28T13:56:22.058Z</time></trkpt><trkpt lat="44.1024451" lon="11.2716055"><ele>975.9999999999999</ele><time>2026-03-28T13:56:30.057Z</time></trkpt><trkpt lat="44.1023854" lon="11.271644"><ele>975.9999999999999</ele><time>2026-03-28T13:56:40.999Z</time></trkpt><trkpt lat="44.1023232" lon="11.2716941"><ele>976.0</ele><time>2026-03-28T13:56:52.022Z</time></trkpt><trkpt lat="44.1022605" lon="11.2717212"><ele>975.9999999999999</ele><time>2026-03-28T13:57:02.044Z</time></trkpt><trkpt lat="44.1021981" lon="11.2717441"><ele>975.9999999999999</ele><time>2026-03-28T13:57:08.057Z</time></trkpt><trkpt lat="44.1021285" lon="11.2717801"><ele>976.0</ele><time>2026-03-28T13:57:15.072Z</time></trkpt><trkpt lat="44.1020581" lon="11.2717825"><ele>975.9999999999999</ele><time>2026-03-28T13:57:22.988Z</time></trkpt><trkpt lat="44.1019928" lon="11.2717786"><ele>975.9999999999999</ele><time>2026-03-28T13:57:31.082Z</time></trkpt><trkpt lat="44.1019469" lon="11.27184"><ele>975.9999999999999</ele><time>2026-03-28T13:57:36.016Z</time></trkpt><trkpt lat="44.1018901" lon="11.2718877"><ele>976.0</ele><time>2026-03-28T13:57:44.033Z</time></trkpt><trkpt lat="44.1018327" lon="11.2718481"><ele>975.9999999999999</ele><time>2026-03-28T13:57:51.047Z</time></trkpt><trkpt lat="44.1017624" lon="11.2718601"><ele>975.9999999999999</ele><time>2026-03-28T13:57:59.164Z</time></trkpt><trkpt lat="44.1016973" lon="11.2718658"><ele>976.0</ele><time>2026-03-28T13:58:07.917Z</time></trkpt><trkpt lat="44.1016333" lon="11.2718922"><ele>975.9999999999999</ele><time>2026-03-28T13:58:17.003Z</time></trkpt><trkpt lat="44.1015774" lon="11.2719471"><ele>975.9999999999999</ele><time>2026-03-28T13:58:24.017Z</time></trkpt><trkpt lat="44.10152" lon="11.2720045"><ele>975.7142857142856</ele><time>2026-03-28T13:58:31.032Z</time></trkpt><trkpt lat="44.1014625" lon="11.2720433"><ele>975.4285714285713</ele><time>2026-03-28T13:58:41.054Z</time></trkpt><trkpt lat="44.1013937" lon="11.2720415"><ele>975.1428571428571</ele><time>2026-03-28T13:58:49.972Z</time></trkpt><trkpt lat="44.1013423" lon="11.2720935"><ele>974.8571428571428</ele><time>2026-03-28T13:58:59.995Z</time></trkpt><trkpt lat="44.1012889" lon="11.27214"><ele>974.5714285714284</ele><time>2026-03-28T13:59:10.016Z</time></trkpt><trkpt lat="44.101227" lon="11.2721634"><ele>974.2857142857143</ele><time>2026-03-28T13:59:17.031Z</time></trkpt><trkpt lat="44.101158" lon="11.272167"><ele>974.0</ele><time>2026-03-28T13:59:24.046Z</time></trkpt><trkpt lat="44.1010978" lon="11.2721292"><ele>974.0</ele><time>2026-03-28T13:59:31.363Z</time></trkpt><trkpt lat="44.1010505" lon="11.2720641"><ele>974.0</ele><time>2026-03-28T13:59:38.981Z</time></trkpt><trkpt lat="44.1010184" lon="11.2719764"><ele>974.0</ele><time>2026-03-28T13:59:47.469Z</time></trkpt><trkpt lat="44.1009827" lon="11.271904"><ele>974.0</ele><time>2026-03-28T13:59:54.008Z</time></trkpt><trkpt lat="44.1009415" lon="11.271824"><ele>974.0</ele><time>2026-03-28T14:00:02.026Z</time></trkpt><trkpt lat="44.1009021" lon="11.271749"><ele>974.0</ele><time>2026-03-28T14:00:11.007Z</time></trkpt><trkpt lat="44.1008506" lon="11.2716975"><ele>974.0</ele><time>2026-03-28T14:00:18.962Z</time></trkpt><trkpt lat="44.1007886" lon="11.2716636"><ele>973.0</ele><time>2026-03-28T14:00:24.047Z</time></trkpt><trkpt lat="44.1007221" lon="11.2716425"><ele>972.0</ele><time>2026-03-28T14:00:32.044Z</time></trkpt><trkpt lat="44.1006575" lon="11.2716178"><ele>971.0</ele><time>2026-03-28T14:00:38.968Z</time></trkpt><trkpt lat="44.100601" lon="11.2715658"><ele>970.0</ele><time>2026-03-28T14:00:46.019Z</time></trkpt><trkpt lat="44.1005748" lon="11.2714856"><ele>969.0</ele><time>2026-03-28T14:00:59.047Z</time></trkpt><trkpt lat="44.1005195" lon="11.2714431"><ele>968.0</ele><time>2026-03-28T14:01:07.064Z</time></trkpt><trkpt lat="44.1004543" lon="11.2714261"><ele>967.0</ele><time>2026-03-28T14:01:14.984Z</time></trkpt><trkpt lat="44.1003953" lon="11.2714689"><ele>967.0</ele><time>2026-03-28T14:01:24Z</time></trkpt><trkpt lat="44.1003482" lon="11.2715283"><ele>967.0</ele><time>2026-03-28T14:01:32.101Z</time></trkpt><trkpt lat="44.100276" lon="11.2715093"><ele>967.0</ele><time>2026-03-28T14:01:41.037Z</time></trkpt><trkpt lat="44.1002196" lon="11.271447"><ele>967.0</ele><time>2026-03-28T14:01:47.049Z</time></trkpt><trkpt lat="44.1001615" lon="11.2714019"><ele>967.0</ele><time>2026-03-28T14:01:54.966Z</time></trkpt><trkpt lat="44.1001103" lon="11.2714567"><ele>967.0</ele><time>2026-03-28T14:02:00.979Z</time></trkpt><trkpt lat="44.1000456" lon="11.2714981"><ele>967.0</ele><time>2026-03-28T14:02:06.992Z</time></trkpt><trkpt lat="44.099984" lon="11.2715194"><ele>966.2857142857143</ele><time>2026-03-28T14:02:15.946Z</time></trkpt><trkpt lat="44.0999154" lon="11.2715159"><ele>965.5714285714284</ele><time>2026-03-28T14:02:25.945Z</time></trkpt><trkpt lat="44.0998516" lon="11.2715397"><ele>964.8571428571428</ele><time>2026-03-28T14:02:35.927Z</time></trkpt><trkpt lat="44.0997967" lon="11.2715832"><ele>964.1428571428571</ele><time>2026-03-28T14:02:45.974Z</time></trkpt><trkpt lat="44.0997359" lon="11.2716239"><ele>963.4285714285713</ele><time>2026-03-28T14:02:53.927Z</time></trkpt><trkpt lat="44.0996738" lon="11.2716725"><ele>962.7142857142856</ele><time>2026-03-28T14:03:03.011Z</time></trkpt><trkpt lat="44.0996145" lon="11.2717033"><ele>961.9999999999999</ele><time>2026-03-28T14:03:10.026Z</time></trkpt><trkpt lat="44.0995501" lon="11.2717034"><ele>961.9999999999999</ele><time>2026-03-28T14:03:19.046Z</time></trkpt><trkpt lat="44.0994833" lon="11.271696"><ele>962.0</ele><time>2026-03-28T14:03:26.06Z</time></trkpt><trkpt lat="44.0994198" lon="11.27168"><ele>961.9999999999999</ele><time>2026-03-28T14:03:32.072Z</time></trkpt><trkpt lat="44.0993458" lon="11.2716975"><ele>961.9999999999999</ele><time>2026-03-28T14:03:37.986Z</time></trkpt><trkpt lat="44.0992705" lon="11.2717012"><ele>962.0</ele><time>2026-03-28T14:03:46.006Z</time></trkpt><trkpt lat="44.0992067" lon="11.2717066"><ele>961.9999999999999</ele><time>2026-03-28T14:03:50.926Z</time></trkpt><trkpt lat="44.0991429" lon="11.2717523"><ele>961.9999999999999</ele><time>2026-03-28T14:03:56.033Z</time></trkpt><trkpt lat="44.0990758" lon="11.2717964"><ele>959.7142857142856</ele><time>2026-03-28T14:04:00.967Z</time></trkpt><trkpt lat="44.0990139" lon="11.2718228"><ele>957.4285714285713</ele><time>2026-03-28T14:04:07.96Z</time></trkpt><trkpt lat="44.0989915" lon="11.2719133"><ele>955.1428571428571</ele><time>2026-03-28T14:04:15.977Z</time></trkpt><trkpt lat="44.0989638" lon="11.2719962"><ele>952.8571428571428</ele><time>2026-03-28T14:04:28.002Z</time></trkpt><trkpt lat="44.0989083" lon="11.2720508"><ele>950.5714285714284</ele><time>2026-03-28T14:04:39.025Z</time></trkpt><trkpt lat="44.0988674" lon="11.272122"><ele>948.2857142857143</ele><time>2026-03-28T14:04:47.044Z</time></trkpt><trkpt lat="44.0988295" lon="11.2721937"><ele>946.0</ele><time>2026-03-28T14:04:55.075Z</time></trkpt><trkpt lat="44.0987628" lon="11.27223"><ele>946.0</ele><time>2026-03-28T14:05:07.086Z</time></trkpt><trkpt lat="44.0986944" lon="11.2722119"><ele>946.0</ele><time>2026-03-28T14:05:12.998Z</time></trkpt><trkpt lat="44.0986311" lon="11.2721945"><ele>946.0</ele><time>2026-03-28T14:05:18.008Z</time></trkpt><trkpt lat="44.098562" lon="11.2721826"><ele>946.0</ele><time>2026-03-28T14:05:23.974Z</time></trkpt><trkpt lat="44.0984917" lon="11.2721706"><ele>946.0</ele><time>2026-03-28T14:05:31.037Z</time></trkpt><trkpt lat="44.0984273" lon="11.2721609"><ele>946.0</ele><time>2026-03-28T14:05:37.05Z</time></trkpt><trkpt lat="44.0983635" lon="11.2721627"><ele>946.0</ele><time>2026-03-28T14:05:46.925Z</time></trkpt><trkpt lat="44.0982996" lon="11.2721444"><ele>945.4285714285714</ele><time>2026-03-28T14:05:52.984Z</time></trkpt><trkpt lat="44.09823" lon="11.2721679"><ele>944.8571428571429</ele><time>2026-03-28T14:06:01.574Z</time></trkpt><trkpt lat="44.0981755" lon="11.2722268"><ele>944.2857142857143</ele><time>2026-03-28T14:06:12.025Z</time></trkpt><trkpt lat="44.098106" lon="11.2722448"><ele>943.7142857142858</ele><time>2026-03-28T14:06:20.042Z</time></trkpt><trkpt lat="44.0980384" lon="11.2722592"><ele>943.1428571428571</ele><time>2026-03-28T14:06:27.957Z</time></trkpt><trkpt lat="44.0979779" lon="11.2722252"><ele>942.5714285714287</ele><time>2026-03-28T14:06:37.078Z</time></trkpt><trkpt lat="44.0979179" lon="11.2721834"><ele>942.0000000000001</ele><time>2026-03-28T14:06:51.007Z</time></trkpt><trkpt lat="44.0978493" lon="11.2722087"><ele>942.0000000000001</ele><time>2026-03-28T14:07:02.965Z</time></trkpt><trkpt lat="44.0977801" lon="11.2722353"><ele>942.0</ele><time>2026-03-28T14:07:10.048Z</time></trkpt><trkpt lat="44.097714" lon="11.2722427"><ele>942.0000000000001</ele><time>2026-03-28T14:07:15.961Z</time></trkpt><trkpt lat="44.0976458" lon="11.272246"><ele>942.0000000000001</ele><time>2026-03-28T14:07:23.076Z</time></trkpt><trkpt lat="44.0975827" lon="11.2722685"><ele>942.0</ele><time>2026-03-28T14:07:31.092Z</time></trkpt><trkpt lat="44.0975218" lon="11.2723068"><ele>942.0000000000001</ele><time>2026-03-28T14:07:37.49Z</time></trkpt><trkpt lat="44.0974681" lon="11.272354"><ele>942.0000000000001</ele><time>2026-03-28T14:07:45.022Z</time></trkpt><trkpt lat="44.0974117" lon="11.2724095"><ele>942.0000000000001</ele><time>2026-03-28T14:07:52.037Z</time></trkpt><trkpt lat="44.0973608" lon="11.2724648"><ele>942.0</ele><time>2026-03-28T14:07:57.871Z</time></trkpt><trkpt lat="44.0972986" lon="11.2725105"><ele>942.0000000000001</ele><time>2026-03-28T14:08:15.989Z</time></trkpt><trkpt lat="44.0972404" lon="11.2724556"><ele>942.0000000000001</ele><time>2026-03-28T14:08:18.996Z</time></trkpt><trkpt lat="44.0971866" lon="11.2725141"><ele>942.0</ele><time>2026-03-28T14:08:25.009Z</time></trkpt><trkpt lat="44.0971872" lon="11.2726107"><ele>942.0000000000001</ele><time>2026-03-28T14:08:30.021Z</time></trkpt><trkpt lat="44.0972373" lon="11.27267"><ele>942.0000000000001</ele><time>2026-03-28T14:08:36.034Z</time></trkpt><trkpt lat="44.0972132" lon="11.2725826"><ele>942.0</ele><time>2026-03-28T14:09:09.005Z</time></trkpt><trkpt lat="44.097259" lon="11.2725134"><ele>942.0</ele><time>2026-03-28T14:09:14.017Z</time></trkpt><trkpt lat="44.0972782" lon="11.2724261"><ele>942.0</ele><time>2026-03-28T14:09:25.041Z</time></trkpt><trkpt lat="44.0973144" lon="11.2723355"><ele>942.0</ele><time>2026-03-28T14:09:30.916Z</time></trkpt><trkpt lat="44.097355" lon="11.2722648"><ele>942.0</ele><time>2026-03-28T14:09:36.065Z</time></trkpt></trkseg><trkseg><trkpt lat="43.9208435" lon="11.317855"><ele>503.0</ele><time>2026-03-30T09:30:23.97Z</time></trkpt><trkpt lat="43.9209405" lon="11.3178937"><ele>502.99999999999994</ele><time>2026-03-30T09:30:42.159Z</time></trkpt><trkpt lat="43.9208749" lon="11.3179387"><ele>502.99999999999994</ele><time>2026-03-30T09:32:25.225Z</time></trkpt><trkpt lat="43.9208125" lon="11.3178057"><ele>503.0</ele><time>2026-03-30T09:32:37.555Z</time></trkpt><trkpt lat="43.9207277" lon="11.3177158"><ele>503.0</ele><time>2026-03-30T09:32:49.887Z</time></trkpt><trkpt lat="43.9206278" lon="11.3177163"><ele>502.99999999999994</ele><time>2026-03-30T09:33:02.219Z</time></trkpt><trkpt lat="43.9205444" lon="11.3176859"><ele>503.0</ele><time>2026-03-30T09:33:14.55Z</time></trkpt><trkpt lat="43.9204509" lon="11.3177373"><ele>503.0</ele><time>2026-03-30T09:33:26.981Z</time></trkpt><trkpt lat="43.9203594" lon="11.317709"><ele>503.0</ele><time>2026-03-30T09:33:39.367Z</time></trkpt><trkpt lat="43.9202725" lon="11.3177325"><ele>502.99999999999994</ele><time>2026-03-30T09:33:51.644Z</time></trkpt><trkpt lat="43.9202121" lon="11.3177727"><ele>503.0</ele><time>2026-03-30T09:34:03.874Z</time></trkpt><trkpt lat="43.9201504" lon="11.3178016"><ele>507.2</ele><time>2026-03-30T09:34:16.306Z</time></trkpt><trkpt lat="43.9200493" lon="11.3177973"><ele>511.4</ele><time>2026-03-30T09:34:40.968Z</time></trkpt><trkpt lat="43.9199682" lon="11.3177465"><ele>515.5999999999999</ele><time>2026-03-30T09:34:53.198Z</time></trkpt><trkpt lat="43.9199297" lon="11.3176186"><ele>519.8</ele><time>2026-03-30T09:35:11.745Z</time></trkpt><trkpt lat="43.9198982" lon="11.3175204"><ele>524.0</ele><time>2026-03-30T09:35:24.176Z</time></trkpt><trkpt lat="43.9198805" lon="11.3173672"><ele>524.0</ele><time>2026-03-30T09:35:42.521Z</time></trkpt><trkpt lat="43.9198438" lon="11.3172706"><ele>524.0</ele><time>2026-03-30T09:35:54.752Z</time></trkpt><trkpt lat="43.9197928" lon="11.317205"><ele>524.0</ele><time>2026-03-30T09:36:07.137Z</time></trkpt><trkpt lat="43.9197131" lon="11.3172965"><ele>524.0</ele><time>2026-03-30T09:36:19.414Z</time></trkpt><trkpt lat="43.9196677" lon="11.3173728"><ele>524.0</ele><time>2026-03-30T09:36:31.745Z</time></trkpt><trkpt lat="43.919605" lon="11.3174294"><ele>524.0</ele><time>2026-03-30T09:36:44.076Z</time></trkpt><trkpt lat="43.9195324" lon="11.3174613"><ele>524.0</ele><time>2026-03-30T09:36:56.405Z</time></trkpt><trkpt lat="43.9194581" lon="11.3175221"><ele>524.0</ele><time>2026-03-30T09:37:08.737Z</time></trkpt><trkpt lat="43.9193806" lon="11.3175993"><ele>524.0</ele><time>2026-03-30T09:37:21.168Z</time></trkpt><trkpt lat="43.9193307" lon="11.3176661"><ele>524.0</ele><time>2026-03-30T09:37:27.383Z</time></trkpt><trkpt lat="43.9192555" lon="11.3177626"><ele>524.0</ele><time>2026-03-30T09:37:39.838Z</time></trkpt><trkpt lat="43.9191899" lon="11.317775"><ele>524.0</ele><time>2026-03-30T09:37:52.145Z</time></trkpt><trkpt lat="43.9191111" lon="11.3178257"><ele>526.3333333333333</ele><time>2026-03-30T09:38:04.375Z</time></trkpt><trkpt lat="43.9190471" lon="11.3178052"><ele>528.6666666666666</ele><time>2026-03-30T09:38:16.738Z</time></trkpt><trkpt lat="43.9189819" lon="11.3177549"><ele>531.0</ele><time>2026-03-30T09:38:29.036Z</time></trkpt><trkpt lat="43.9188823" lon="11.3176882"><ele>533.3333333333334</ele><time>2026-03-30T09:38:41.367Z</time></trkpt><trkpt lat="43.9188209" lon="11.3176623"><ele>535.6666666666667</ele><time>2026-03-30T09:38:47.582Z</time></trkpt><trkpt lat="43.9187523" lon="11.3175522"><ele>538.0</ele><time>2026-03-30T09:38:59.812Z</time></trkpt><trkpt lat="43.9186166" lon="11.3175793"><ele>538.0</ele><time>2026-03-30T09:39:36.003Z</time></trkpt><trkpt lat="43.9185323" lon="11.3175788"><ele>538.0</ele><time>2026-03-30T09:39:42.018Z</time></trkpt><trkpt lat="43.9184491" lon="11.3176223"><ele>538.0</ele><time>2026-03-30T09:39:48.034Z</time></trkpt><trkpt lat="43.9183627" lon="11.3175875"><ele>538.0</ele><time>2026-03-30T09:40:18.211Z</time></trkpt><trkpt lat="43.9183058" lon="11.3176938"><ele>538.0</ele><time>2026-03-30T09:40:24.326Z</time></trkpt><trkpt lat="43.9182281" lon="11.3176051"><ele>539.5</ele><time>2026-03-30T09:40:36.366Z</time></trkpt><trkpt lat="43.9181813" lon="11.3177272"><ele>541.0</ele><time>2026-03-30T09:41:18.569Z</time></trkpt><trkpt lat="43.9181156" lon="11.317759"><ele>542.5</ele><time>2026-03-30T09:41:30.601Z</time></trkpt><trkpt lat="43.9180537" lon="11.3176949"><ele>544.0</ele><time>2026-03-30T09:41:54.765Z</time></trkpt><trkpt lat="43.9179831" lon="11.3176868"><ele>545.5</ele><time>2026-03-30T09:42:19.072Z</time></trkpt><trkpt lat="43.9179506" lon="11.3175586"><ele>547.0</ele><time>2026-03-30T09:42:25.046Z</time></trkpt><trkpt lat="43.9179267" lon="11.3174541"><ele>547.0</ele><time>2026-03-30T09:42:31.061Z</time></trkpt><trkpt lat="43.9178202" lon="11.3173653"><ele>547.0</ele><time>2026-03-30T09:42:43.193Z</time></trkpt><trkpt lat="43.9177601" lon="11.3173341"><ele>547.0</ele><time>2026-03-30T09:42:49.229Z</time></trkpt><trkpt lat="43.9176481" lon="11.317285"><ele>547.0</ele><time>2026-03-30T09:43:01.239Z</time></trkpt><trkpt lat="43.9175328" lon="11.317262"><ele>547.0</ele><time>2026-03-30T09:43:13.472Z</time></trkpt><trkpt lat="43.9174485" lon="11.317189"><ele>547.2</ele><time>2026-03-30T09:43:25.501Z</time></trkpt><trkpt lat="43.9173656" lon="11.3171369"><ele>547.4000000000001</ele><time>2026-03-30T09:43:31.616Z</time></trkpt><trkpt lat="43.9173052" lon="11.3171022"><ele>547.5999999999999</ele><time>2026-03-30T09:43:55.678Z</time></trkpt><trkpt lat="43.917163" lon="11.3171611"><ele>547.8</ele><time>2026-03-30T09:44:01.738Z</time></trkpt><trkpt lat="43.9170884" lon="11.3171466"><ele>548.0</ele><time>2026-03-30T09:44:07.809Z</time></trkpt><trkpt lat="43.9170165" lon="11.317106"><ele>548.0</ele><time>2026-03-30T09:44:13.925Z</time></trkpt><trkpt lat="43.9169491" lon="11.3170567"><ele>548.0</ele><time>2026-03-30T09:44:20.04Z</time></trkpt><trkpt lat="43.9168845" lon="11.3170076"><ele>548.0</ele><time>2026-03-30T09:44:26.055Z</time></trkpt><trkpt lat="43.916813" lon="11.3169781"><ele>548.0</ele><time>2026-03-30T09:44:32.171Z</time></trkpt><trkpt lat="43.9167803" lon="11.3167711"><ele>548.0</ele><time>2026-03-30T09:44:44.201Z</time></trkpt><trkpt lat="43.9167584" lon="11.3166737"><ele>547.8333333333333</ele><time>2026-03-30T09:44:50.316Z</time></trkpt><trkpt lat="43.9167113" lon="11.3166066"><ele>547.6666666666666</ele><time>2026-03-30T09:44:56.415Z</time></trkpt><trkpt lat="43.9166323" lon="11.3165302"><ele>547.5</ele><time>2026-03-30T09:45:02.447Z</time></trkpt><trkpt lat="43.9165933" lon="11.3164412"><ele>547.3333333333334</ele><time>2026-03-30T09:45:08.462Z</time></trkpt><trkpt lat="43.9165913" lon="11.3162849"><ele>547.1666666666667</ele><time>2026-03-30T09:45:20.692Z</time></trkpt><trkpt lat="43.9166834" lon="11.3162387"><ele>547.0</ele><time>2026-03-30T09:45:26.808Z</time></trkpt><trkpt lat="43.9168223" lon="11.3161711"><ele>547.0</ele><time>2026-03-30T09:45:44.953Z</time></trkpt><trkpt lat="43.9168487" lon="11.3160717"><ele>547.0</ele><time>2026-03-30T09:45:51.069Z</time></trkpt><trkpt lat="43.9167904" lon="11.3159652"><ele>547.0</ele><time>2026-03-30T09:45:57.084Z</time></trkpt><trkpt lat="43.916789" lon="11.3158632"><ele>547.0</ele><time>2026-03-30T09:46:03.1Z</time></trkpt><trkpt lat="43.9167662" lon="11.3157692"><ele>547.0</ele><time>2026-03-30T09:46:15.23Z</time></trkpt><trkpt lat="43.9167537" lon="11.3156311"><ele>547.0</ele><time>2026-03-30T09:46:33.276Z</time></trkpt><trkpt lat="43.9167638" lon="11.3155292"><ele>547.2</ele><time>2026-03-30T09:46:39.292Z</time></trkpt><trkpt lat="43.9167115" lon="11.315434"><ele>547.4000000000001</ele><time>2026-03-30T09:46:45.367Z</time></trkpt><trkpt lat="43.9167023" lon="11.3153122"><ele>547.5999999999999</ele><time>2026-03-30T09:46:51.367Z</time></trkpt><trkpt lat="43.9167079" lon="11.3152038"><ele>547.8</ele><time>2026-03-30T09:46:57.367Z</time></trkpt><trkpt lat="43.9167723" lon="11.3153949"><ele>548.0</ele><time>2026-03-30T09:47:45.763Z</time></trkpt><trkpt lat="43.9166909" lon="11.3154494"><ele>552.3333333333333</ele><time>2026-03-30T09:47:57.897Z</time></trkpt><trkpt lat="43.9165743" lon="11.3154648"><ele>556.6666666666666</ele><time>2026-03-30T09:48:09.925Z</time></trkpt><trkpt lat="43.9165011" lon="11.3154853"><ele>561.0</ele><time>2026-03-30T09:48:16.14Z</time></trkpt><trkpt lat="43.9164668" lon="11.315567"><ele>565.3333333333334</ele><time>2026-03-30T09:48:22.179Z</time></trkpt><trkpt lat="43.9164192" lon="11.3157119"><ele>569.6666666666667</ele><time>2026-03-30T09:48:28.271Z</time></trkpt><trkpt lat="43.9163885" lon="11.3157958"><ele>574.0</ele><time>2026-03-30T09:48:34.4Z</time></trkpt><trkpt lat="43.916383" lon="11.3159235"><ele>574.0</ele><time>2026-03-30T09:48:46.516Z</time></trkpt><trkpt lat="43.916405" lon="11.3160176"><ele>574.0</ele><time>2026-03-30T09:48:52.531Z</time></trkpt><trkpt lat="43.9164367" lon="11.3160933"><ele>574.0</ele><time>2026-03-30T09:48:58.647Z</time></trkpt><trkpt lat="43.9163194" lon="11.3161816"><ele>574.0</ele><time>2026-03-30T09:49:35.24Z</time></trkpt><trkpt lat="43.9162445" lon="11.3161542"><ele>574.0</ele><time>2026-03-30T09:49:41.356Z</time></trkpt><trkpt lat="43.9162334" lon="11.3160027"><ele>574.0</ele><time>2026-03-30T09:49:53.487Z</time></trkpt><trkpt lat="43.9162176" lon="11.3158926"><ele>574.0</ele><time>2026-03-30T09:50:11.636Z</time></trkpt><trkpt lat="43.9161724" lon="11.3157824"><ele>574.0</ele><time>2026-03-30T09:50:23.762Z</time></trkpt><trkpt lat="43.9161502" lon="11.3156768"><ele>574.0</ele><time>2026-03-30T09:50:35.993Z</time></trkpt><trkpt lat="43.9160603" lon="11.3155745"><ele>574.0</ele><time>2026-03-30T09:50:48.122Z</time></trkpt><trkpt lat="43.9160127" lon="11.3155172"><ele>574.0</ele><time>2026-03-30T09:50:54.238Z</time></trkpt><trkpt lat="43.9159616" lon="11.3154593"><ele>574.3333333333334</ele><time>2026-03-30T09:51:00.352Z</time></trkpt><trkpt lat="43.9159109" lon="11.3154022"><ele>574.6666666666667</ele><time>2026-03-30T09:51:06.477Z</time></trkpt><trkpt lat="43.9158548" lon="11.315356"><ele>575.0</ele><time>2026-03-30T09:51:12.483Z</time></trkpt><trkpt lat="43.9157742" lon="11.3152476"><ele>575.3333333333334</ele><time>2026-03-30T09:51:24.914Z</time></trkpt><trkpt lat="43.915701" lon="11.3152111"><ele>575.6666666666666</ele><time>2026-03-30T09:51:31.029Z</time></trkpt><trkpt lat="43.9156427" lon="11.3151619"><ele>576.0</ele><time>2026-03-30T09:51:37.243Z</time></trkpt><trkpt lat="43.9155936" lon="11.3150972"><ele>578.7142857142858</ele><time>2026-03-30T09:51:43.359Z</time></trkpt><trkpt lat="43.9155423" lon="11.3150438"><ele>581.4285714285714</ele><time>2026-03-30T09:51:49.474Z</time></trkpt><trkpt lat="43.9154802" lon="11.3150121"><ele>584.1428571428571</ele><time>2026-03-30T09:51:55.69Z</time></trkpt><trkpt lat="43.9153947" lon="11.3149911"><ele>586.8571428571429</ele><time>2026-03-30T09:52:01.905Z</time></trkpt><trkpt lat="43.9153174" lon="11.314963"><ele>589.5714285714286</ele><time>2026-03-30T09:52:08.02Z</time></trkpt><trkpt lat="43.9152449" lon="11.31492"><ele>592.2857142857143</ele><time>2026-03-30T09:52:14.235Z</time></trkpt><trkpt lat="43.9151885" lon="11.3148546"><ele>595.0</ele><time>2026-03-30T09:52:20.353Z</time></trkpt><trkpt lat="43.9151308" lon="11.3148066"><ele>596.2</ele><time>2026-03-30T09:52:26.567Z</time></trkpt><trkpt lat="43.9150184" lon="11.3147347"><ele>597.4</ele><time>2026-03-30T09:52:38.696Z</time></trkpt><trkpt lat="43.9149214" lon="11.3146299"><ele>598.6</ele><time>2026-03-30T09:52:50.726Z</time></trkpt><trkpt lat="43.9148724" lon="11.3145433"><ele>599.8</ele><time>2026-03-30T09:52:56.741Z</time></trkpt><trkpt lat="43.9147936" lon="11.3145366"><ele>601.0</ele><time>2026-03-30T09:53:02.756Z</time></trkpt><trkpt lat="43.9147046" lon="11.3145561"><ele>601.0</ele><time>2026-03-30T09:53:08.872Z</time></trkpt><trkpt lat="43.9146031" lon="11.3144951"><ele>601.0</ele><time>2026-03-30T09:53:20.902Z</time></trkpt><trkpt lat="43.9145809" lon="11.3143969"><ele>601.0</ele><time>2026-03-30T09:53:27.017Z</time></trkpt><trkpt lat="43.9146001" lon="11.3143135"><ele>601.0</ele><time>2026-03-30T09:53:33.036Z</time></trkpt><trkpt lat="43.9144691" lon="11.3143694"><ele>601.0</ele><time>2026-03-30T09:53:45.162Z</time></trkpt><trkpt lat="43.9143837" lon="11.3144086"><ele>601.0</ele><time>2026-03-30T09:53:51.277Z</time></trkpt><trkpt lat="43.9143039" lon="11.314458"><ele>601.0</ele><time>2026-03-30T09:53:57.392Z</time></trkpt><trkpt lat="43.9142409" lon="11.3145306"><ele>601.0</ele><time>2026-03-30T09:54:03.507Z</time></trkpt><trkpt lat="43.9141859" lon="11.314595"><ele>601.0</ele><time>2026-03-30T09:54:09.622Z</time></trkpt><trkpt lat="43.9140983" lon="11.3147119"><ele>601.0</ele><time>2026-03-30T09:54:21.852Z</time></trkpt><trkpt lat="43.9140436" lon="11.3147688"><ele>601.0</ele><time>2026-03-30T09:54:27.866Z</time></trkpt><trkpt lat="43.9139883" lon="11.3148134"><ele>600.6666666666667</ele><time>2026-03-30T09:54:33.881Z</time></trkpt><trkpt lat="43.9139303" lon="11.3148528"><ele>600.3333333333334</ele><time>2026-03-30T09:54:39.896Z</time></trkpt><trkpt lat="43.913818" lon="11.3148415"><ele>600.0</ele><time>2026-03-30T09:54:52.059Z</time></trkpt><trkpt lat="43.91374" lon="11.3148418"><ele>599.6666666666666</ele><time>2026-03-30T09:54:58.14Z</time></trkpt><trkpt lat="43.9136778" lon="11.3147766"><ele>599.3333333333333</ele><time>2026-03-30T09:55:04.255Z</time></trkpt><trkpt lat="43.9136612" lon="11.3146887"><ele>599.0</ele><time>2026-03-30T09:55:10.37Z</time></trkpt><trkpt lat="43.9136633" lon="11.3145996"><ele>599.5</ele><time>2026-03-30T09:55:16.485Z</time></trkpt><trkpt lat="43.913613" lon="11.3145357"><ele>600.0</ele><time>2026-03-30T09:55:22.6Z</time></trkpt><trkpt lat="43.9135618" lon="11.3144717"><ele>600.5</ele><time>2026-03-30T09:55:28.815Z</time></trkpt><trkpt lat="43.9135161" lon="11.3144025"><ele>601.0</ele><time>2026-03-30T09:55:35.03Z</time></trkpt><trkpt lat="43.9134339" lon="11.3142471"><ele>601.5</ele><time>2026-03-30T09:55:47.36Z</time></trkpt><trkpt lat="43.9133896" lon="11.3141491"><ele>602.0</ele><time>2026-03-30T09:55:53.474Z</time></trkpt><trkpt lat="43.9133608" lon="11.3140604"><ele>601.1666666666666</ele><time>2026-03-30T09:55:59.589Z</time></trkpt><trkpt lat="43.913306" lon="11.3138954"><ele>600.3333333333333</ele><time>2026-03-30T09:56:12.019Z</time></trkpt><trkpt lat="43.913263" lon="11.3138303"><ele>599.5</ele><time>2026-03-30T09:56:18.234Z</time></trkpt><trkpt lat="43.9132572" lon="11.3137077"><ele>598.6666666666666</ele><time>2026-03-30T09:56:30.563Z</time></trkpt><trkpt lat="43.9133032" lon="11.3136268"><ele>597.8333333333334</ele><time>2026-03-30T09:56:42.794Z</time></trkpt><trkpt lat="43.9133575" lon="11.3135629"><ele>597.0</ele><time>2026-03-30T09:56:55.224Z</time></trkpt><trkpt lat="43.9133134" lon="11.3136534"><ele>597.0</ele><time>2026-03-30T09:58:09.403Z</time></trkpt><trkpt lat="43.9133386" lon="11.3137436"><ele>597.0</ele><time>2026-03-30T09:59:46.741Z</time></trkpt><trkpt lat="43.9130909" lon="11.3136945"><ele>597.0</ele><time>2026-03-30T10:06:37.963Z</time></trkpt><trkpt lat="43.9132279" lon="11.313712"><ele>597.0</ele><time>2026-03-30T10:06:56.11Z</time></trkpt><trkpt lat="43.9133497" lon="11.3136259"><ele>597.0</ele><time>2026-03-30T10:07:08.141Z</time></trkpt><trkpt lat="43.9132531" lon="11.3136351"><ele>597.0</ele><time>2026-03-30T10:14:03.61Z</time></trkpt><trkpt lat="43.9132208" lon="11.3137665"><ele>597.0</ele><time>2026-03-30T10:14:16.042Z</time></trkpt><trkpt lat="43.9131533" lon="11.3139032"><ele>598.0</ele><time>2026-03-30T10:14:46.318Z</time></trkpt><trkpt lat="43.9131098" lon="11.3139807"><ele>599.0</ele><time>2026-03-30T10:14:52.333Z</time></trkpt><trkpt lat="43.9130228" lon="11.3140339"><ele>600.0</ele><time>2026-03-30T10:15:04.564Z</time></trkpt><trkpt lat="43.912943" lon="11.3140992"><ele>601.0</ele><time>2026-03-30T10:15:16.739Z</time></trkpt><trkpt lat="43.9128735" lon="11.3141911"><ele>602.0</ele><time>2026-03-30T10:15:28.925Z</time></trkpt><trkpt lat="43.9127751" lon="11.3142908"><ele>602.0</ele><time>2026-03-30T10:15:41.056Z</time></trkpt><trkpt lat="43.9126988" lon="11.3144037"><ele>602.0</ele><time>2026-03-30T10:15:53.186Z</time></trkpt><trkpt lat="43.9126136" lon="11.3144638"><ele>602.0</ele><time>2026-03-30T10:16:05.417Z</time></trkpt><trkpt lat="43.9125516" lon="11.3145303"><ele>602.0</ele><time>2026-03-30T10:16:17.547Z</time></trkpt><trkpt lat="43.9124667" lon="11.3145823"><ele>602.0</ele><time>2026-03-30T10:16:29.777Z</time></trkpt><trkpt lat="43.9123816" lon="11.314592"><ele>604.2</ele><time>2026-03-30T10:16:42.131Z</time></trkpt><trkpt lat="43.9122879" lon="11.3146038"><ele>606.4000000000001</ele><time>2026-03-30T10:16:54.338Z</time></trkpt><trkpt lat="43.9122037" lon="11.3145306"><ele>608.5999999999999</ele><time>2026-03-30T10:17:06.669Z</time></trkpt><trkpt lat="43.9121548" lon="11.3145887"><ele>610.8</ele><time>2026-03-30T10:17:12.887Z</time></trkpt><trkpt lat="43.9120691" lon="11.3145103"><ele>613.0</ele><time>2026-03-30T10:17:25.219Z</time></trkpt><trkpt lat="43.9119732" lon="11.3144703"><ele>613.0</ele><time>2026-03-30T10:17:37.546Z</time></trkpt><trkpt lat="43.9118843" lon="11.3144058"><ele>613.0</ele><time>2026-03-30T10:17:49.977Z</time></trkpt><trkpt lat="43.9118074" lon="11.3144046"><ele>613.0</ele><time>2026-03-30T10:18:02.407Z</time></trkpt><trkpt lat="43.9117338" lon="11.3143799"><ele>613.0</ele><time>2026-03-30T10:18:14.638Z</time></trkpt><trkpt lat="43.9116744" lon="11.3143021"><ele>613.0</ele><time>2026-03-30T10:18:27.069Z</time></trkpt><trkpt lat="43.9116226" lon="11.3142441"><ele>613.0</ele><time>2026-03-30T10:18:39.399Z</time></trkpt><trkpt lat="43.911559" lon="11.314243"><ele>616.3333333333334</ele><time>2026-03-30T10:18:51.732Z</time></trkpt><trkpt lat="43.9115244" lon="11.3143266"><ele>619.6666666666667</ele><time>2026-03-30T10:19:04.06Z</time></trkpt><trkpt lat="43.9114443" lon="11.3143439"><ele>623.0</ele><time>2026-03-30T10:19:16.39Z</time></trkpt><trkpt lat="43.9113993" lon="11.3144366"><ele>626.3333333333334</ele><time>2026-03-30T10:19:35.035Z</time></trkpt><trkpt lat="43.9113482" lon="11.3145587"><ele>629.6666666666666</ele><time>2026-03-30T10:19:47.367Z</time></trkpt><trkpt lat="43.9113159" lon="11.3146778"><ele>633.0</ele><time>2026-03-30T10:19:59.796Z</time></trkpt><trkpt lat="43.9112415" lon="11.3147911"><ele>633.6666666666666</ele><time>2026-03-30T10:20:12.228Z</time></trkpt><trkpt lat="43.9112469" lon="11.3148793"><ele>634.3333333333334</ele><time>2026-03-30T10:20:18.343Z</time></trkpt><trkpt lat="43.9112469" lon="11.3150199"><ele>635.0</ele><time>2026-03-30T10:20:30.774Z</time></trkpt><trkpt lat="43.9112254" lon="11.3151241"><ele>635.6666666666667</ele><time>2026-03-30T10:20:43.004Z</time></trkpt><trkpt lat="43.9111907" lon="11.3152049"><ele>636.3333333333334</ele><time>2026-03-30T10:20:55.334Z</time></trkpt><trkpt lat="43.9111563" lon="11.3153227"><ele>637.0</ele><time>2026-03-30T10:21:07.765Z</time></trkpt><trkpt lat="43.9111808" lon="11.3154245"><ele>637.0</ele><time>2026-03-30T10:21:26.31Z</time></trkpt><trkpt lat="43.9111763" lon="11.3155268"><ele>637.0</ele><time>2026-03-30T10:21:44.756Z</time></trkpt><trkpt lat="43.9111454" lon="11.3156317"><ele>637.0</ele><time>2026-03-30T10:21:57.186Z</time></trkpt><trkpt lat="43.9110922" lon="11.3157075"><ele>637.0</ele><time>2026-03-30T10:22:09.516Z</time></trkpt><trkpt lat="43.9110276" lon="11.3157427"><ele>637.0</ele><time>2026-03-30T10:22:21.746Z</time></trkpt><trkpt lat="43.9109173" lon="11.3158769"><ele>637.0</ele><time>2026-03-30T10:22:34.077Z</time></trkpt><trkpt lat="43.9108445" lon="11.3159116"><ele>641.3333333333334</ele><time>2026-03-30T10:22:40.292Z</time></trkpt><trkpt lat="43.9107818" lon="11.3159259"><ele>645.6666666666667</ele><time>2026-03-30T10:22:46.407Z</time></trkpt><trkpt lat="43.9106656" lon="11.3159876"><ele>650.0</ele><time>2026-03-30T10:22:58.838Z</time></trkpt><trkpt lat="43.9106151" lon="11.3160428"><ele>654.3333333333334</ele><time>2026-03-30T10:23:04.953Z</time></trkpt><trkpt lat="43.9105402" lon="11.3160338"><ele>658.6666666666666</ele><time>2026-03-30T10:23:11.168Z</time></trkpt><trkpt lat="43.9104286" lon="11.3160129"><ele>663.0</ele><time>2026-03-30T10:23:23.398Z</time></trkpt><trkpt lat="43.9103113" lon="11.3160563"><ele>663.0</ele><time>2026-03-30T10:23:35.728Z</time></trkpt><trkpt lat="43.910245" lon="11.3160267"><ele>663.0</ele><time>2026-03-30T10:23:48.158Z</time></trkpt><trkpt lat="43.9101866" lon="11.3159716"><ele>663.0</ele><time>2026-03-30T10:24:18.534Z</time></trkpt><trkpt lat="43.9100993" lon="11.3160643"><ele>663.0</ele><time>2026-03-30T10:24:30.664Z</time></trkpt><trkpt lat="43.9100629" lon="11.316149"><ele>663.0</ele><time>2026-03-30T10:24:36.853Z</time></trkpt><trkpt lat="43.9100315" lon="11.3162941"><ele>663.0</ele><time>2026-03-30T10:24:48.909Z</time></trkpt><trkpt lat="43.9099849" lon="11.3164343"><ele>665.0</ele><time>2026-03-30T10:25:01.039Z</time></trkpt><trkpt lat="43.909919" lon="11.3164684"><ele>667.0</ele><time>2026-03-30T10:25:07.153Z</time></trkpt><trkpt lat="43.9098605" lon="11.3165467"><ele>669.0</ele><time>2026-03-30T10:25:19.283Z</time></trkpt><trkpt lat="43.9098088" lon="11.3166768"><ele>671.0</ele><time>2026-03-30T10:25:31.513Z</time></trkpt><trkpt lat="43.9097739" lon="11.3167538"><ele>673.0</ele><time>2026-03-30T10:25:37.527Z</time></trkpt><trkpt lat="43.9097819" lon="11.3168556"><ele>675.0</ele><time>2026-03-30T10:25:43.642Z</time></trkpt><trkpt lat="43.9096726" lon="11.3169044"><ele>675.0</ele><time>2026-03-30T10:26:14.032Z</time></trkpt><trkpt lat="43.9097308" lon="11.3169836"><ele>675.0</ele><time>2026-03-30T10:26:20.147Z</time></trkpt><trkpt lat="43.9096845" lon="11.3168861"><ele>675.0</ele><time>2026-03-30T10:27:08.686Z</time></trkpt><trkpt lat="43.9097727" lon="11.3168364"><ele>675.0</ele><time>2026-03-30T10:27:20.887Z</time></trkpt><trkpt lat="43.9098217" lon="11.3169239"><ele>675.0</ele><time>2026-03-30T10:27:26.951Z</time></trkpt><trkpt lat="43.9099144" lon="11.3169131"><ele>675.0</ele><time>2026-03-30T10:28:21.292Z</time></trkpt><trkpt lat="43.9096783" lon="11.3168976"><ele>675.0</ele><time>2026-03-30T10:28:45.452Z</time></trkpt><trkpt lat="43.9096806" lon="11.316778"><ele>675.0</ele><time>2026-03-30T10:31:35.183Z</time></trkpt><trkpt lat="43.909642" lon="11.3166877"><ele>675.0</ele><time>2026-03-30T10:31:41.298Z</time></trkpt><trkpt lat="43.9095853" lon="11.3166419"><ele>675.0</ele><time>2026-03-30T10:31:47.513Z</time></trkpt><trkpt lat="43.9095122" lon="11.3165003"><ele>675.0</ele><time>2026-03-30T10:32:00.043Z</time></trkpt><trkpt lat="43.9094795" lon="11.3163778"><ele>675.0</ele><time>2026-03-30T10:32:12.373Z</time></trkpt><trkpt lat="43.9094429" lon="11.3162809"><ele>673.0</ele><time>2026-03-30T10:32:24.704Z</time></trkpt><trkpt lat="43.909405" lon="11.3162043"><ele>671.0</ele><time>2026-03-30T10:32:30.919Z</time></trkpt><trkpt lat="43.9093356" lon="11.316067"><ele>669.0</ele><time>2026-03-30T10:32:43.248Z</time></trkpt><trkpt lat="43.9092902" lon="11.3160006"><ele>667.0</ele><time>2026-03-30T10:32:49.464Z</time></trkpt><trkpt lat="43.9092882" lon="11.3158579"><ele>665.0</ele><time>2026-03-30T10:33:01.894Z</time></trkpt><trkpt lat="43.909194" lon="11.3157779"><ele>665.0</ele><time>2026-03-30T10:33:14.223Z</time></trkpt><trkpt lat="43.9091037" lon="11.3157379"><ele>665.0</ele><time>2026-03-30T10:33:26.553Z</time></trkpt><trkpt lat="43.9090545" lon="11.3156734"><ele>665.0</ele><time>2026-03-30T10:33:32.668Z</time></trkpt><trkpt lat="43.9090022" lon="11.3155236"><ele>665.0</ele><time>2026-03-30T10:33:45.098Z</time></trkpt><trkpt lat="43.9089496" lon="11.3154131"><ele>665.0</ele><time>2026-03-30T10:33:57.428Z</time></trkpt><trkpt lat="43.9088872" lon="11.3153125"><ele>661.2</ele><time>2026-03-30T10:34:09.657Z</time></trkpt><trkpt lat="43.9088169" lon="11.3152074"><ele>657.4</ele><time>2026-03-30T10:34:21.987Z</time></trkpt><trkpt lat="43.9087686" lon="11.3150544"><ele>653.5999999999999</ele><time>2026-03-30T10:34:34.416Z</time></trkpt><trkpt lat="43.9087068" lon="11.314923"><ele>649.8</ele><time>2026-03-30T10:34:46.875Z</time></trkpt><trkpt lat="43.9086601" lon="11.3148438"><ele>646.0</ele><time>2026-03-30T10:34:53.061Z</time></trkpt><trkpt lat="43.9086004" lon="11.3147617"><ele>643.5</ele><time>2026-03-30T10:34:59.276Z</time></trkpt><trkpt lat="43.9085642" lon="11.3146777"><ele>641.0</ele><time>2026-03-30T10:35:05.553Z</time></trkpt><trkpt lat="43.90858" lon="11.3145696"><ele>638.5</ele><time>2026-03-30T10:35:17.887Z</time></trkpt><trkpt lat="43.9085098" lon="11.3144516"><ele>636.0</ele><time>2026-03-30T10:35:30.25Z</time></trkpt><trkpt lat="43.9084516" lon="11.3143854"><ele>633.5</ele><time>2026-03-30T10:35:42.58Z</time></trkpt><trkpt lat="43.9084657" lon="11.3142797"><ele>631.0</ele><time>2026-03-30T10:35:54.909Z</time></trkpt><trkpt lat="43.9084005" lon="11.3142257"><ele>631.0</ele><time>2026-03-30T10:36:01.123Z</time></trkpt><trkpt lat="43.9083072" lon="11.3141502"><ele>631.0</ele><time>2026-03-30T10:36:13.353Z</time></trkpt><trkpt lat="43.9082479" lon="11.3140471"><ele>631.0</ele><time>2026-03-30T10:36:25.895Z</time></trkpt><trkpt lat="43.9081816" lon="11.3140327"><ele>631.0</ele><time>2026-03-30T10:36:31.997Z</time></trkpt><trkpt lat="43.9080908" lon="11.3139653"><ele>631.0</ele><time>2026-03-30T10:36:44.326Z</time></trkpt><trkpt lat="43.9080064" lon="11.3138906"><ele>628.2</ele><time>2026-03-30T10:36:56.555Z</time></trkpt><trkpt lat="43.9079135" lon="11.3138652"><ele>625.4000000000001</ele><time>2026-03-30T10:37:02.774Z</time></trkpt><trkpt lat="43.9078335" lon="11.313856"><ele>622.6</ele><time>2026-03-30T10:37:08.985Z</time></trkpt><trkpt lat="43.9077233" lon="11.3138374"><ele>619.8000000000001</ele><time>2026-03-30T10:37:21.314Z</time></trkpt><trkpt lat="43.9076224" lon="11.3138391"><ele>617.0</ele><time>2026-03-30T10:37:33.743Z</time></trkpt><trkpt lat="43.907527" lon="11.3138678"><ele>615.8000000000001</ele><time>2026-03-30T10:37:46.136Z</time></trkpt><trkpt lat="43.9074571" lon="11.3138582"><ele>614.6</ele><time>2026-03-30T10:37:52.287Z</time></trkpt><trkpt lat="43.9073701" lon="11.3138474"><ele>613.4000000000001</ele><time>2026-03-30T10:38:04.615Z</time></trkpt><trkpt lat="43.9072804" lon="11.3138576"><ele>612.2</ele><time>2026-03-30T10:38:17.146Z</time></trkpt><trkpt lat="43.9071701" lon="11.3138733"><ele>611.0</ele><time>2026-03-30T10:38:29.475Z</time></trkpt><trkpt lat="43.9070355" lon="11.3138585"><ele>611.0</ele><time>2026-03-30T10:38:41.778Z</time></trkpt><trkpt lat="43.9069618" lon="11.3138331"><ele>611.0</ele><time>2026-03-30T10:38:47.887Z</time></trkpt><trkpt lat="43.9068867" lon="11.3138319"><ele>611.0</ele><time>2026-03-30T10:38:54.158Z</time></trkpt><trkpt lat="43.9067738" lon="11.3138263"><ele>611.0</ele><time>2026-03-30T10:39:06.362Z</time></trkpt><trkpt lat="43.9066669" lon="11.3137954"><ele>611.0</ele><time>2026-03-30T10:39:18.691Z</time></trkpt><trkpt lat="43.9065874" lon="11.3137789"><ele>610.1666666666666</ele><time>2026-03-30T10:39:31.02Z</time></trkpt><trkpt lat="43.9065418" lon="11.3137076"><ele>609.3333333333333</ele><time>2026-03-30T10:39:37.134Z</time></trkpt><trkpt lat="43.9064408" lon="11.3136684"><ele>608.5</ele><time>2026-03-30T10:39:49.563Z</time></trkpt><trkpt lat="43.906358" lon="11.3136577"><ele>607.6666666666666</ele><time>2026-03-30T10:40:08.14Z</time></trkpt><trkpt lat="43.9063001" lon="11.3135659"><ele>606.8333333333334</ele><time>2026-03-30T10:40:20.503Z</time></trkpt><trkpt lat="43.9062222" lon="11.3134796"><ele>606.0</ele><time>2026-03-30T10:40:32.887Z</time></trkpt><trkpt lat="43.9061113" lon="11.3135018"><ele>606.0</ele><time>2026-03-30T10:40:45.194Z</time></trkpt><trkpt lat="43.906006" lon="11.3134775"><ele>606.0</ele><time>2026-03-30T10:40:57.422Z</time></trkpt><trkpt lat="43.9059001" lon="11.3134657"><ele>606.0</ele><time>2026-03-30T10:41:09.751Z</time></trkpt><trkpt lat="43.9058099" lon="11.3134569"><ele>606.0</ele><time>2026-03-30T10:41:15.966Z</time></trkpt><trkpt lat="43.9056984" lon="11.3134052"><ele>606.0</ele><time>2026-03-30T10:41:28.395Z</time></trkpt><trkpt lat="43.9056086" lon="11.3133699"><ele>607.0</ele><time>2026-03-30T10:41:40.723Z</time></trkpt><trkpt lat="43.9055104" lon="11.3134591"><ele>608.0</ele><time>2026-03-30T10:41:53.152Z</time></trkpt><trkpt lat="43.9054077" lon="11.3135154"><ele>609.0</ele><time>2026-03-30T10:42:05.481Z</time></trkpt><trkpt lat="43.9053005" lon="11.3136214"><ele>610.0</ele><time>2026-03-30T10:42:17.813Z</time></trkpt><trkpt lat="43.9052169" lon="11.3137136"><ele>610.0</ele><time>2026-03-30T10:42:30.139Z</time></trkpt><trkpt lat="43.9051157" lon="11.3138042"><ele>610.0</ele><time>2026-03-30T10:42:42.468Z</time></trkpt><trkpt lat="43.9050525" lon="11.313828"><ele>610.0</ele><time>2026-03-30T10:42:48.582Z</time></trkpt><trkpt lat="43.9049666" lon="11.3138991"><ele>610.0</ele><time>2026-03-30T10:43:01.011Z</time></trkpt><trkpt lat="43.9048633" lon="11.3138779"><ele>610.0</ele><time>2026-03-30T10:43:13.34Z</time></trkpt><trkpt lat="43.9048271" lon="11.3139528"><ele>612.6</ele><time>2026-03-30T10:43:19.554Z</time></trkpt><trkpt lat="43.9047571" lon="11.3140723"><ele>615.2</ele><time>2026-03-30T10:43:31.876Z</time></trkpt><trkpt lat="43.9046945" lon="11.3141623"><ele>617.8</ele><time>2026-03-30T10:43:44.211Z</time></trkpt><trkpt lat="43.9046422" lon="11.314284"><ele>620.4</ele><time>2026-03-30T10:43:56.44Z</time></trkpt><trkpt lat="43.9045421" lon="11.3142824"><ele>623.0</ele><time>2026-03-30T10:44:08.891Z</time></trkpt><trkpt lat="43.9044388" lon="11.3142672"><ele>623.0</ele><time>2026-03-30T10:44:21.198Z</time></trkpt><trkpt lat="43.9043305" lon="11.3143149"><ele>623.0</ele><time>2026-03-30T10:44:33.627Z</time></trkpt><trkpt lat="43.904265" lon="11.31432"><ele>623.0</ele><time>2026-03-30T10:44:39.995Z</time></trkpt><trkpt lat="43.9042015" lon="11.3143493"><ele>623.0</ele><time>2026-03-30T10:44:46.156Z</time></trkpt><trkpt lat="43.904092" lon="11.3144016"><ele>623.0</ele><time>2026-03-30T10:44:58.485Z</time></trkpt><trkpt lat="43.9039918" lon="11.3144462"><ele>621.5</ele><time>2026-03-30T10:45:10.887Z</time></trkpt><trkpt lat="43.903902" lon="11.3145052"><ele>620.0</ele><time>2026-03-30T10:45:35.571Z</time></trkpt><trkpt lat="43.9038343" lon="11.3145526"><ele>618.5</ele><time>2026-03-30T10:45:41.759Z</time></trkpt><trkpt lat="43.9037427" lon="11.3146781"><ele>617.0</ele><time>2026-03-30T10:45:54.114Z</time></trkpt><trkpt lat="43.903677" lon="11.314734"><ele>615.5</ele><time>2026-03-30T10:46:00.228Z</time></trkpt><trkpt lat="43.9036318" lon="11.3148029"><ele>614.0</ele><time>2026-03-30T10:46:06.342Z</time></trkpt><trkpt lat="43.9035657" lon="11.3148606"><ele>614.9999999999999</ele><time>2026-03-30T10:46:12.557Z</time></trkpt><trkpt lat="43.9035131" lon="11.3149099"><ele>616.0</ele><time>2026-03-30T10:46:18.771Z</time></trkpt><trkpt lat="43.903457" lon="11.3149659"><ele>617.0</ele><time>2026-03-30T10:46:24.887Z</time></trkpt><trkpt lat="43.9034015" lon="11.315019"><ele>618.0</ele><time>2026-03-30T10:46:31.153Z</time></trkpt><trkpt lat="43.9033306" lon="11.3150671"><ele>619.0</ele><time>2026-03-30T10:46:37.213Z</time></trkpt><trkpt lat="43.9032528" lon="11.3150923"><ele>619.9999999999999</ele><time>2026-03-30T10:46:43.428Z</time></trkpt><trkpt lat="43.9031897" lon="11.315104"><ele>621.0</ele><time>2026-03-30T10:46:49.543Z</time></trkpt><trkpt lat="43.903065" lon="11.3151509"><ele>621.0</ele><time>2026-03-30T10:47:01.887Z</time></trkpt><trkpt lat="43.9029977" lon="11.3151186"><ele>621.0</ele><time>2026-03-30T10:47:08.085Z</time></trkpt><trkpt lat="43.9029237" lon="11.315103"><ele>621.0</ele><time>2026-03-30T10:47:14.3Z</time></trkpt><trkpt lat="43.9028266" lon="11.3150804"><ele>621.0</ele><time>2026-03-30T10:47:26.729Z</time></trkpt><trkpt lat="43.9027234" lon="11.315003"><ele>621.0</ele><time>2026-03-30T10:47:39.157Z</time></trkpt><trkpt lat="43.9025726" lon="11.3150481"><ele>619.3333333333334</ele><time>2026-03-30T10:47:51.496Z</time></trkpt><trkpt lat="43.9024966" lon="11.3150474"><ele>617.6666666666666</ele><time>2026-03-30T10:47:57.61Z</time></trkpt><trkpt lat="43.9024297" lon="11.3150613"><ele>616.0</ele><time>2026-03-30T10:48:03.937Z</time></trkpt><trkpt lat="43.9023071" lon="11.3151291"><ele>614.3333333333333</ele><time>2026-03-30T10:48:16.153Z</time></trkpt><trkpt lat="43.9022384" lon="11.3151529"><ele>612.6666666666666</ele><time>2026-03-30T10:48:22.44Z</time></trkpt><trkpt lat="43.9021681" lon="11.3151913"><ele>611.0</ele><time>2026-03-30T10:48:28.582Z</time></trkpt><trkpt lat="43.9020756" lon="11.3152907"><ele>611.0</ele><time>2026-03-30T10:48:41.011Z</time></trkpt><trkpt lat="43.9020194" lon="11.3154363"><ele>611.0</ele><time>2026-03-30T10:48:53.439Z</time></trkpt><trkpt lat="43.9020069" lon="11.3156076"><ele>611.0</ele><time>2026-03-30T10:49:05.768Z</time></trkpt><trkpt lat="43.9019959" lon="11.3156987"><ele>611.0</ele><time>2026-03-30T10:49:11.982Z</time></trkpt><trkpt lat="43.9019448" lon="11.3158159"><ele>611.0</ele><time>2026-03-30T10:49:24.311Z</time></trkpt><trkpt lat="43.9018297" lon="11.3158835"><ele>610.8333333333333</ele><time>2026-03-30T10:49:36.639Z</time></trkpt><trkpt lat="43.9018052" lon="11.3159773"><ele>610.6666666666666</ele><time>2026-03-30T10:49:42.853Z</time></trkpt><trkpt lat="43.9017267" lon="11.3159419"><ele>610.5</ele><time>2026-03-30T10:49:48.967Z</time></trkpt><trkpt lat="43.9016631" lon="11.3159502"><ele>610.3333333333334</ele><time>2026-03-30T10:49:55.182Z</time></trkpt><trkpt lat="43.9015524" lon="11.3160336"><ele>610.1666666666667</ele><time>2026-03-30T10:50:07.41Z</time></trkpt><trkpt lat="43.9015126" lon="11.3161019"><ele>610.0</ele><time>2026-03-30T10:50:13.624Z</time></trkpt><trkpt lat="43.9014038" lon="11.3161904"><ele>610.0</ele><time>2026-03-30T10:50:25.953Z</time></trkpt><trkpt lat="43.9012961" lon="11.3162629"><ele>610.0</ele><time>2026-03-30T10:50:38.381Z</time></trkpt><trkpt lat="43.9012333" lon="11.3162875"><ele>610.0</ele><time>2026-03-30T10:50:44.495Z</time></trkpt><trkpt lat="43.9011663" lon="11.3162786"><ele>610.0</ele><time>2026-03-30T10:50:50.61Z</time></trkpt><trkpt lat="43.9010616" lon="11.3163255"><ele>610.0</ele><time>2026-03-30T10:51:03.038Z</time></trkpt><trkpt lat="43.9009997" lon="11.3163738"><ele>610.0</ele><time>2026-03-30T10:51:09.152Z</time></trkpt><trkpt lat="43.9009498" lon="11.3164534"><ele>611.0</ele><time>2026-03-30T10:51:15.266Z</time></trkpt><trkpt lat="43.9008998" lon="11.3165232"><ele>612.0</ele><time>2026-03-30T10:51:21.481Z</time></trkpt><trkpt lat="43.900846" lon="11.3165741"><ele>613.0</ele><time>2026-03-30T10:51:27.695Z</time></trkpt><trkpt lat="43.9007501" lon="11.3165827"><ele>614.0</ele><time>2026-03-30T10:51:33.909Z</time></trkpt><trkpt lat="43.9006886" lon="11.3166187"><ele>615.0</ele><time>2026-03-30T10:51:40.224Z</time></trkpt><trkpt lat="43.900656" lon="11.3166986"><ele>616.0</ele><time>2026-03-30T10:51:46.35Z</time></trkpt><trkpt lat="43.9005839" lon="11.3168211"><ele>616.0</ele><time>2026-03-30T10:51:58.767Z</time></trkpt><trkpt lat="43.9004816" lon="11.3169059"><ele>616.0</ele><time>2026-03-30T10:52:11.095Z</time></trkpt><trkpt lat="43.9003676" lon="11.3169867"><ele>616.0</ele><time>2026-03-30T10:52:23.424Z</time></trkpt><trkpt lat="43.9002552" lon="11.3170664"><ele>616.0</ele><time>2026-03-30T10:52:35.752Z</time></trkpt><trkpt lat="43.9001472" lon="11.3171659"><ele>616.0</ele><time>2026-03-30T10:52:48.181Z</time></trkpt><trkpt lat="43.9000943" lon="11.3172143"><ele>616.0</ele><time>2026-03-30T10:52:54.394Z</time></trkpt><trkpt lat="43.9000144" lon="11.3173315"><ele>616.0</ele><time>2026-03-30T10:53:06.724Z</time></trkpt><trkpt lat="43.8999176" lon="11.3173756"><ele>616.0</ele><time>2026-03-30T10:53:19.152Z</time></trkpt><trkpt lat="43.8998575" lon="11.3174146"><ele>616.0</ele><time>2026-03-30T10:53:25.266Z</time></trkpt><trkpt lat="43.8998022" lon="11.3175759"><ele>616.1666666666667</ele><time>2026-03-30T10:53:37.595Z</time></trkpt><trkpt lat="43.8998183" lon="11.3176783"><ele>616.3333333333334</ele><time>2026-03-30T10:53:43.709Z</time></trkpt><trkpt lat="43.8998276" lon="11.3177859"><ele>616.5</ele><time>2026-03-30T10:53:49.923Z</time></trkpt><trkpt lat="43.8998022" lon="11.317886"><ele>616.6666666666666</ele><time>2026-03-30T10:53:56.21Z</time></trkpt><trkpt lat="43.8997855" lon="11.3179856"><ele>616.8333333333333</ele><time>2026-03-30T10:54:02.352Z</time></trkpt><trkpt lat="43.8997192" lon="11.3181396"><ele>617.0</ele><time>2026-03-30T10:54:14.681Z</time></trkpt><trkpt lat="43.8996653" lon="11.3182035"><ele>617.0</ele><time>2026-03-30T10:54:20.895Z</time></trkpt><trkpt lat="43.8995833" lon="11.3182312"><ele>617.0</ele><time>2026-03-30T10:54:27.012Z</time></trkpt><trkpt lat="43.8994915" lon="11.31826"><ele>617.0</ele><time>2026-03-30T10:54:33.123Z</time></trkpt><trkpt lat="43.8994266" lon="11.3182999"><ele>617.0</ele><time>2026-03-30T10:54:39.337Z</time></trkpt><trkpt lat="43.899363" lon="11.3183361"><ele>617.0</ele><time>2026-03-30T10:54:45.594Z</time></trkpt><trkpt lat="43.8993043" lon="11.3184184"><ele>617.0</ele><time>2026-03-30T10:54:57.886Z</time></trkpt><trkpt lat="43.8992676" lon="11.3185612"><ele>614.2</ele><time>2026-03-30T10:55:10.213Z</time></trkpt><trkpt lat="43.8992318" lon="11.3186518"><ele>611.4000000000001</ele><time>2026-03-30T10:55:16.423Z</time></trkpt><trkpt lat="43.8991851" lon="11.3187372"><ele>608.5999999999999</ele><time>2026-03-30T10:55:22.637Z</time></trkpt><trkpt lat="43.8991437" lon="11.3188195"><ele>605.8</ele><time>2026-03-30T10:55:28.751Z</time></trkpt><trkpt lat="43.8990605" lon="11.3189591"><ele>603.0</ele><time>2026-03-30T10:55:41.078Z</time></trkpt><trkpt lat="43.8989495" lon="11.3189758"><ele>603.0</ele><time>2026-03-30T10:55:53.408Z</time></trkpt><trkpt lat="43.8988866" lon="11.319001"><ele>603.0</ele><time>2026-03-30T10:55:59.621Z</time></trkpt><trkpt lat="43.8987761" lon="11.3190021"><ele>603.0</ele><time>2026-03-30T10:56:12.092Z</time></trkpt><trkpt lat="43.8987017" lon="11.3189505"><ele>603.0</ele><time>2026-03-30T10:56:18.165Z</time></trkpt><trkpt lat="43.8986285" lon="11.3189526"><ele>603.0</ele><time>2026-03-30T10:56:24.278Z</time></trkpt><trkpt lat="43.8985539" lon="11.318956"><ele>603.0</ele><time>2026-03-30T10:56:30.536Z</time></trkpt><trkpt lat="43.8984519" lon="11.3190004"><ele>599.0</ele><time>2026-03-30T10:56:42.821Z</time></trkpt><trkpt lat="43.8983587" lon="11.3190533"><ele>595.0</ele><time>2026-03-30T10:57:26.173Z</time></trkpt><trkpt lat="43.898266" lon="11.3191513"><ele>591.0</ele><time>2026-03-30T10:57:38.452Z</time></trkpt><trkpt lat="43.8982103" lon="11.319274"><ele>587.0</ele><time>2026-03-30T10:58:21.849Z</time></trkpt><trkpt lat="43.8981385" lon="11.3192739"><ele>583.0</ele><time>2026-03-30T10:58:27.963Z</time></trkpt><trkpt lat="43.8980806" lon="11.3193222"><ele>583.0</ele><time>2026-03-30T10:58:34.177Z</time></trkpt><trkpt lat="43.8979712" lon="11.3193717"><ele>583.0</ele><time>2026-03-30T10:58:46.504Z</time></trkpt><trkpt lat="43.8979419" lon="11.3194498"><ele>583.0</ele><time>2026-03-30T10:58:52.72Z</time></trkpt><trkpt lat="43.8979258" lon="11.3195377"><ele>583.0</ele><time>2026-03-30T10:58:58.937Z</time></trkpt><trkpt lat="43.8978933" lon="11.3196156"><ele>583.0</ele><time>2026-03-30T10:59:05.155Z</time></trkpt><trkpt lat="43.8977854" lon="11.3196398"><ele>583.0</ele><time>2026-03-30T10:59:11.262Z</time></trkpt><trkpt lat="43.8977275" lon="11.319714"><ele>582.5</ele><time>2026-03-30T10:59:17.477Z</time></trkpt><trkpt lat="43.897679" lon="11.3198026"><ele>582.0</ele><time>2026-03-30T10:59:23.775Z</time></trkpt><trkpt lat="43.8976329" lon="11.3198671"><ele>581.5</ele><time>2026-03-30T10:59:29.879Z</time></trkpt><trkpt lat="43.8975861" lon="11.319945"><ele>581.0</ele><time>2026-03-30T10:59:36.12Z</time></trkpt><trkpt lat="43.8975039" lon="11.3199931"><ele>580.5</ele><time>2026-03-30T10:59:42.334Z</time></trkpt><trkpt lat="43.8974313" lon="11.3200273"><ele>580.0</ele><time>2026-03-30T10:59:48.549Z</time></trkpt><trkpt lat="43.8973727" lon="11.3200864"><ele>580.0</ele><time>2026-03-30T10:59:54.763Z</time></trkpt><trkpt lat="43.8973254" lon="11.3201491"><ele>580.0</ele><time>2026-03-30T11:00:00.887Z</time></trkpt><trkpt lat="43.8972696" lon="11.320205"><ele>580.0</ele><time>2026-03-30T11:00:07.091Z</time></trkpt><trkpt lat="43.8972004" lon="11.3202531"><ele>580.0</ele><time>2026-03-30T11:00:13.306Z</time></trkpt><trkpt lat="43.8971246" lon="11.3203024"><ele>580.0</ele><time>2026-03-30T11:00:19.52Z</time></trkpt><trkpt lat="43.8970643" lon="11.3203663"><ele>580.0</ele><time>2026-03-30T11:00:25.634Z</time></trkpt><trkpt lat="43.8969974" lon="11.3204138"><ele>580.0</ele><time>2026-03-30T11:00:31.887Z</time></trkpt><trkpt lat="43.8969306" lon="11.3204642"><ele>580.0</ele><time>2026-03-30T11:00:38.062Z</time></trkpt><trkpt lat="43.8968738" lon="11.3205168"><ele>580.0</ele><time>2026-03-30T11:00:44.177Z</time></trkpt><trkpt lat="43.8968295" lon="11.3205829"><ele>580.0</ele><time>2026-03-30T11:00:50.391Z</time></trkpt><trkpt lat="43.8967841" lon="11.3206478"><ele>580.0</ele><time>2026-03-30T11:00:56.505Z</time></trkpt><trkpt lat="43.8967135" lon="11.3206784"><ele>580.0</ele><time>2026-03-30T11:01:02.72Z</time></trkpt><trkpt lat="43.8966466" lon="11.3206967"><ele>580.0</ele><time>2026-03-30T11:01:08.887Z</time></trkpt><trkpt lat="43.8965412" lon="11.3207163"><ele>580.0</ele><time>2026-03-30T11:03:18.435Z</time></trkpt><trkpt lat="43.8964423" lon="11.3208576"><ele>589.0</ele><time>2026-03-30T11:03:49.207Z</time></trkpt><trkpt lat="43.8962848" lon="11.3210204"><ele>589.0</ele><time>2026-03-30T11:04:01.536Z</time></trkpt><trkpt lat="43.8961946" lon="11.3210776"><ele>589.0</ele><time>2026-03-30T11:04:07.851Z</time></trkpt></trkseg></trk></gpx>